Time,TemperatureF,DewpointF,PressureIn,WindDirection,WindDirectionDegrees,WindSpeedMPH,WindSpeedGustMPH,Humidity,HourlyPrecipIn,Conditions,Clouds,dailyrainin,SoftwareType,DateUTC
2013-03-10 00:00:00,35.1,16.9,29.74,SSW,202,0.0,0.0,47,0.00,,,0.00,VWS V14.01,2013-03-10 05:00:00,
2013-03-10 00:06:00,35.1,16.9,29.74,SSW,202,0.0,0.0,47,0.00,,,0.00,VWS V14.01,2013-03-10 05:06:00,
2013-03-10 00:11:00,34.5,16.9,29.74,SW,225,1.6,1.6,48,0.00,,,0.00,VWS V14.01,2013-03-10 05:11:00,
2013-03-10 00:16:00,34.3,16.7,29.74,SSW,202,1.1,1.1,48,0.00,,,0.00,VWS V14.01,2013-03-10 05:16:00,
2013-03-10 00:21:00,34.3,16.7,29.74,SSW,202,0.0,0.0,48,0.00,,,0.00,VWS V14.01,2013-03-10 05:21:00,
2013-03-10 00:26:00,34.3,17.2,29.74,WSW,248,0.0,0.0,49,0.00,,,0.00,VWS V14.01,2013-03-10 05:26:00,
2013-03-10 00:31:00,34.3,16.7,29.74,SSW,202,2.0,2.0,48,0.00,,,0.00,VWS V14.01,2013-03-10 05:31:00,
2013-03-10 00:36:00,34.3,16.7,29.74,SW,225,1.6,1.6,48,0.00,,,0.00,VWS V14.01,2013-03-10 05:36:00,
2013-03-10 00:41:00,34.5,16.9,29.74,WSW,248,1.6,1.6,48,0.00,,,0.00,VWS V14.01,2013-03-10 05:41:00,
2013-03-10 00:46:00,34.5,16.9,29.74,WNW,292,0.0,0.0,48,0.00,,,0.00,VWS V14.01,2013-03-10 05:46:00,
2013-03-10 00:51:00,34.3,17.2,29.74,South,180,2.2,2.2,49,0.00,,,0.00,VWS V14.01,2013-03-10 05:51:00,
2013-03-10 00:56:00,34.3,17.2,29.74,SSW,202,0.0,0.0,49,0.00,,,0.00,VWS V14.01,2013-03-10 05:56:00,
2013-03-10 01:01:00,34.0,16.8,29.74,SSW,202,0.0,0.0,49,0.00,,,0.00,VWS V14.01,2013-03-10 06:01:00,
2013-03-10 01:06:00,34.0,17.3,29.74,South,180,0.0,0.0,50,0.00,,,0.00,VWS V14.01,2013-03-10 06:06:00,
2013-03-10 01:11:00,34.0,17.3,29.74,SSE,158,0.0,0.0,50,0.00,,,0.00,VWS V14.01,2013-03-10 06:11:00,
2013-03-10 01:16:00,34.0,17.3,29.74,SSE,158,0.0,0.0,50,0.00,,,0.00,VWS V14.01,2013-03-10 06:16:00,
2013-03-10 01:21:00,33.8,17.1,29.74,WSW,248,0.0,0.0,50,0.00,,,0.00,VWS V14.01,2013-03-10 06:21:00,
2013-03-10 01:23:00,33.1,16.9,29.74,South,180,0.0,0.0,51,0.00,,,0.00,VWS V14.01,2013-03-10 06:23:00,
2013-03-10 01:24:00,33.1,16.9,29.74,South,180,0.0,0.0,51,0.00,,,0.00,VWS V14.01,2013-03-10 06:24:00,
2013-03-10 01:25:00,33.1,16.9,29.74,South,180,0.0,0.0,51,0.00,,,0.00,VWS V14.01,2013-03-10 06:25:00,
2013-03-10 01:26:00,33.8,17.1,29.74,NW,315,0.0,0.0,50,0.00,,,0.00,VWS V14.01,2013-03-10 06:26:00,
2013-03-10 01:27:00,33.1,16.9,29.74,South,180,0.0,0.0,51,0.00,,,0.00,VWS V14.01,2013-03-10 06:27:00,
2013-03-10 01:28:00,33.1,16.9,29.74,South,180,0.0,0.0,51,0.00,,,0.00,VWS V14.01,2013-03-10 06:28:00,
2013-03-10 01:29:00,33.1,16.9,29.74,South,180,0.0,0.0,51,0.00,,,0.00,VWS V14.01,2013-03-10 06:29:00,
2013-03-10 01:30:00,33.1,17.4,29.74,South,180,0.0,0.0,52,0.00,,,0.00,VWS V14.01,2013-03-10 06:30:00,
2013-03-10 01:31:00,34.0,17.3,29.74,WNW,292,0.0,0.0,50,0.00,,,0.00,VWS V14.01,2013-03-10 06:31:00,
2013-03-10 01:32:00,32.9,17.2,29.74,SSW,202,2.2,2.2,52,0.00,,,0.00,VWS V14.01,2013-03-10 06:32:00,
2013-03-10 01:33:00,32.9,17.2,29.74,SSW,202,2.2,2.2,52,0.00,,,0.00,VWS V14.01,2013-03-10 06:33:00,
2013-03-10 01:34:00,32.7,17.0,29.74,SSW,202,1.6,1.6,52,0.00,,,0.00,VWS V14.01,2013-03-10 06:34:00,
2013-03-10 01:35:00,32.7,17.0,29.74,SSW,202,2.2,2.2,52,0.00,,,0.00,VWS V14.01,2013-03-10 06:35:00,
2013-03-10 01:36:00,33.8,17.6,29.74,NNW,338,0.0,0.0,51,0.00,,,0.00,VWS V14.01,2013-03-10 06:36:00,
2013-03-10 01:37:00,32.7,17.0,29.74,SSW,202,2.2,2.2,52,0.00,,,0.00,VWS V14.01,2013-03-10 06:37:00,
2013-03-10 01:38:00,32.5,16.9,29.74,SSW,202,2.5,2.5,52,0.00,,,0.00,VWS V14.01,2013-03-10 06:38:00,
2013-03-10 01:39:00,32.5,16.9,29.74,SW,225,2.5,2.5,52,0.00,,,0.00,VWS V14.01,2013-03-10 06:39:00,
2013-03-10 01:40:00,32.5,16.9,29.74,SSW,202,2.0,2.0,52,0.00,,,0.00,VWS V14.01,2013-03-10 06:40:00,
2013-03-10 01:41:00,33.8,17.6,29.74,NNW,338,0.0,0.0,51,0.00,,,0.00,VWS V14.01,2013-03-10 06:41:00,
2013-03-10 01:42:00,32.4,16.7,29.74,SSW,202,2.0,2.0,52,0.00,,,0.00,VWS V14.01,2013-03-10 06:42:00,
2013-03-10 01:43:00,32.4,17.1,29.74,SSW,202,1.6,1.6,53,0.00,,,0.00,VWS V14.01,2013-03-10 06:43:00,
2013-03-10 01:44:00,32.4,17.1,29.74,South,180,2.0,2.0,53,0.00,,,0.00,VWS V14.01,2013-03-10 06:44:00,
2013-03-10 01:45:00,32.2,17.0,29.74,South,180,2.2,2.2,53,0.00,,,0.00,VWS V14.01,2013-03-10 06:45:00,
2013-03-10 01:46:00,33.6,17.4,29.74,WNW,292,0.0,0.0,51,0.00,,,0.00,VWS V14.01,2013-03-10 06:46:00,
2013-03-10 01:47:00,32.4,17.1,29.74,South,180,2.0,2.0,53,0.00,,,0.00,VWS V14.01,2013-03-10 06:47:00,
2013-03-10 01:48:00,32.4,16.7,29.74,South,180,1.3,1.3,52,0.00,,,0.00,VWS V14.01,2013-03-10 06:48:00,
2013-03-10 01:49:00,32.4,16.7,29.74,SSW,202,1.6,1.6,52,0.00,,,0.00,VWS V14.01,2013-03-10 06:49:00,
2013-03-10 01:50:00,32.4,16.7,29.74,SSW,202,1.6,1.6,52,0.00,,,0.00,VWS V14.01,2013-03-10 06:50:00,
2013-03-10 01:51:00,33.3,17.1,29.74,SW,225,1.1,1.1,51,0.00,,,0.00,VWS V14.01,2013-03-10 06:51:00,
2013-03-10 01:52:00,32.4,16.7,29.74,SSW,202,1.1,1.1,52,0.00,,,0.00,VWS V14.01,2013-03-10 06:52:00,
2013-03-10 01:53:00,32.4,16.7,29.74,SSW,202,1.6,1.6,52,0.00,,,0.00,VWS V14.01,2013-03-10 06:53:00,
2013-03-10 01:54:00,32.4,16.7,29.74,SSW,202,1.6,1.6,52,0.00,,,0.00,VWS V14.01,2013-03-10 06:54:00,
2013-03-10 01:55:00,32.4,17.1,29.74,SSW,202,1.6,1.6,53,0.00,,,0.00,VWS V14.01,2013-03-10 06:55:00,
2013-03-10 01:56:00,33.1,16.9,29.74,SSW,202,0.0,0.0,51,0.00,,,0.00,VWS V14.01,2013-03-10 06:56:00,
2013-03-10 01:57:00,32.4,17.1,29.74,SSW,202,2.2,2.2,53,0.00,,,0.00,VWS V14.01,2013-03-10 06:57:00,
2013-03-10 01:58:00,32.2,17.4,29.74,SW,225,2.5,2.5,54,0.00,,,0.00,VWS V14.01,2013-03-10 06:58:00,
2013-03-10 01:59:00,32.2,17.4,29.74,WSW,248,2.5,2.5,54,0.00,,,0.00,VWS V14.01,2013-03-10 06:59:00,
2013-03-10 03:00:00,32.2,17.4,29.74,WSW,248,2.5,2.5,54,0.00,,,0.00,VWS V14.01,2013-03-10 07:00:00,
2013-03-10 03:01:00,32.2,17.4,29.74,WSW,248,2.5,2.5,54,0.00,,,0.00,VWS V14.01,2013-03-10 07:01:00,
2013-03-10 03:02:00,32.2,17.4,29.74,SW,225,2.5,2.5,54,0.00,,,0.00,VWS V14.01,2013-03-10 07:02:00,
2013-03-10 03:03:00,32.2,17.4,29.74,SW,225,2.7,2.7,54,0.00,,,0.00,VWS V14.01,2013-03-10 07:03:00,
2013-03-10 03:04:00,32.2,17.4,29.74,SW,225,2.2,2.2,54,0.00,,,0.00,VWS V14.01,2013-03-10 07:04:00,
2013-03-10 03:05:00,32.2,17.4,29.74,SSW,202,2.2,2.2,54,0.00,,,0.00,VWS V14.01,2013-03-10 07:05:00,
2013-03-10 03:06:00,32.2,17.4,29.74,SSW,202,2.0,2.0,54,0.00,,,0.00,VWS V14.01,2013-03-10 07:06:00,
2013-03-10 03:07:00,32.2,17.4,29.74,SSW,202,2.0,2.0,54,0.00,,,0.00,VWS V14.01,2013-03-10 07:07:00,
2013-03-10 03:08:00,32.2,17.4,29.74,SSW,202,1.6,1.6,54,0.00,,,0.00,VWS V14.01,2013-03-10 07:08:00,
2013-03-10 03:09:00,32.2,17.0,29.74,SSW,202,1.3,1.3,53,0.00,,,0.00,VWS V14.01,2013-03-10 07:09:00,
2013-03-10 03:10:00,32.2,17.0,29.74,SSW,202,1.6,1.6,53,0.00,,,0.00,VWS V14.01,2013-03-10 07:10:00,
2013-03-10 03:11:00,32.2,17.0,29.74,SSW,202,2.0,2.0,53,0.00,,,0.00,VWS V14.01,2013-03-10 07:11:00,
2013-03-10 03:12:00,32.2,17.0,29.74,SSW,202,2.0,2.0,53,0.00,,,0.00,VWS V14.01,2013-03-10 07:12:00,
2013-03-10 03:13:00,32.2,17.0,29.74,SW,225,2.0,2.0,53,0.00,,,0.00,VWS V14.01,2013-03-10 07:13:00,
2013-03-10 03:14:00,32.2,17.0,29.74,WSW,248,2.7,2.7,53,0.00,,,0.00,VWS V14.01,2013-03-10 07:14:00,
2013-03-10 03:15:00,32.2,17.4,29.74,SW,225,2.5,2.5,54,0.00,,,0.00,VWS V14.01,2013-03-10 07:15:00,
2013-03-10 03:16:00,32.2,17.4,29.74,SW,225,2.5,2.5,54,0.00,,,0.00,VWS V14.01,2013-03-10 07:16:00,
2013-03-10 03:17:00,32.0,17.2,29.74,SW,225,2.5,2.5,54,0.00,,,0.00,VWS V14.01,2013-03-10 07:17:00,
2013-03-10 03:18:00,32.0,17.2,29.74,SSW,202,2.2,2.2,54,0.00,,,0.00,VWS V14.01,2013-03-10 07:18:00,
2013-03-10 03:19:00,32.0,17.2,29.74,SSW,202,2.0,2.0,54,0.00,,,0.00,VWS V14.01,2013-03-10 07:19:00,
2013-03-10 03:20:00,32.0,17.2,29.74,SSW,202,1.3,1.3,54,0.00,,,0.00,VWS V14.01,2013-03-10 07:20:00,
2013-03-10 03:21:00,32.0,17.2,29.74,SSW,202,1.1,1.1,54,0.00,,,0.00,VWS V14.01,2013-03-10 07:21:00,
2013-03-10 03:22:00,32.0,17.2,29.74,SSW,202,1.1,1.1,54,0.00,,,0.00,VWS V14.01,2013-03-10 07:22:00,
2013-03-10 03:23:00,32.0,17.2,29.74,SSW,202,1.6,1.6,54,0.00,,,0.00,VWS V14.01,2013-03-10 07:23:00,
2013-03-10 03:24:00,32.0,17.2,29.74,South,180,1.1,1.1,54,0.00,,,0.00,VWS V14.01,2013-03-10 07:24:00,
2013-03-10 03:25:00,32.0,17.2,29.74,South,180,1.3,1.3,54,0.00,,,0.00,VWS V14.01,2013-03-10 07:25:00,
2013-03-10 03:26:00,32.0,17.2,29.74,South,180,1.3,1.3,54,0.00,,,0.00,VWS V14.01,2013-03-10 07:26:00,
2013-03-10 03:27:00,32.0,17.2,29.74,South,180,1.6,1.6,54,0.00,,,0.00,VWS V14.01,2013-03-10 07:27:00,
2013-03-10 03:28:00,32.2,17.4,29.74,South,180,1.3,1.3,54,0.00,,,0.00,VWS V14.01,2013-03-10 07:28:00,
2013-03-10 03:29:00,32.2,17.4,29.74,South,180,2.0,2.0,54,0.00,,,0.00,VWS V14.01,2013-03-10 07:29:00,
2013-03-10 03:30:00,32.2,17.4,29.71,SSE,158,2.0,2.0,54,0.00,,,0.00,VWS V14.01,2013-03-10 07:30:00,
2013-03-10 03:31:00,32.2,17.4,29.71,SSE,158,2.0,2.0,54,0.00,,,0.00,VWS V14.01,2013-03-10 07:31:00,
2013-03-10 03:32:00,32.2,17.4,29.71,SSE,158,2.5,2.5,54,0.00,,,0.00,VWS V14.01,2013-03-10 07:32:00,
2013-03-10 03:33:00,32.2,17.4,29.71,SSE,158,2.2,2.2,54,0.00,,,0.00,VWS V14.01,2013-03-10 07:33:00,
2013-03-10 03:34:00,32.2,17.4,29.71,SSE,158,2.2,2.2,54,0.00,,,0.00,VWS V14.01,2013-03-10 07:34:00,
2013-03-10 03:35:00,32.0,17.2,29.71,SSE,158,1.3,1.3,54,0.00,,,0.00,VWS V14.01,2013-03-10 07:35:00,
2013-03-10 03:36:00,32.0,17.2,29.71,SE,135,1.3,1.3,54,0.00,,,0.00,VWS V14.01,2013-03-10 07:36:00,
2013-03-10 03:37:00,32.0,17.2,29.71,SE,135,1.3,1.3,54,0.00,,,0.00,VWS V14.01,2013-03-10 07:37:00,
2013-03-10 03:38:00,32.0,17.2,29.71,SE,135,2.0,2.0,54,0.00,,,0.00,VWS V14.01,2013-03-10 07:38:00,
2013-03-10 03:39:00,32.0,17.2,29.71,ESE,112,1.3,1.3,54,0.00,,,0.00,VWS V14.01,2013-03-10 07:39:00,
2013-03-10 03:40:00,32.0,17.2,29.71,ESE,112,2.2,2.2,54,0.00,,,0.00,VWS V14.01,2013-03-10 07:40:00,
2013-03-10 03:41:00,32.0,17.2,29.71,ESE,112,1.6,1.6,54,0.00,,,0.00,VWS V14.01,2013-03-10 07:41:00,
2013-03-10 03:42:00,32.0,17.2,29.71,ESE,112,1.6,1.6,54,0.00,,,0.00,VWS V14.01,2013-03-10 07:42:00,
2013-03-10 03:43:00,31.8,17.1,29.71,ESE,112,1.6,1.6,54,0.00,,,0.00,VWS V14.01,2013-03-10 07:43:00,
2013-03-10 03:44:00,31.8,17.1,29.71,ESE,112,1.6,1.6,54,0.00,,,0.00,VWS V14.01,2013-03-10 07:44:00,
2013-03-10 03:45:00,31.8,17.1,29.71,SE,135,2.0,2.0,54,0.00,,,0.00,VWS V14.01,2013-03-10 07:45:00,
2013-03-10 03:46:00,31.8,17.1,29.71,SE,135,1.3,1.3,54,0.00,,,0.00,VWS V14.01,2013-03-10 07:46:00,
2013-03-10 03:47:00,31.8,17.1,29.71,SE,135,1.6,1.6,54,0.00,,,0.00,VWS V14.01,2013-03-10 07:47:00,
2013-03-10 03:48:00,31.8,17.1,29.71,SE,135,2.0,2.0,54,0.00,,,0.00,VWS V14.01,2013-03-10 07:48:00,
2013-03-10 03:49:00,31.6,16.9,29.71,SE,135,1.6,1.6,54,0.00,,,0.00,VWS V14.01,2013-03-10 07:49:00,
2013-03-10 03:50:00,31.6,16.9,29.71,SE,135,1.3,1.3,54,0.00,,,0.00,VWS V14.01,2013-03-10 07:50:00,
2013-03-10 03:51:00,31.6,16.9,29.71,SE,135,0.9,0.9,54,0.00,,,0.00,VWS V14.01,2013-03-10 07:51:00,
2013-03-10 03:52:00,31.6,16.9,29.71,ESE,112,0.0,0.0,54,0.00,,,0.00,VWS V14.01,2013-03-10 07:52:00,
2013-03-10 03:53:00,31.6,16.9,29.71,ENE,68,1.1,1.1,54,0.00,,,0.00,VWS V14.01,2013-03-10 07:53:00,
2013-03-10 03:54:00,31.6,16.9,29.71,East,90,0.0,0.0,54,0.00,,,0.00,VWS V14.01,2013-03-10 07:54:00,
2013-03-10 03:55:00,31.6,16.9,29.71,East,90,0.0,0.0,54,0.00,,,0.00,VWS V14.01,2013-03-10 07:55:00,
2013-03-10 03:56:00,31.5,16.8,29.71,East,90,0.0,0.0,54,0.00,,,0.00,VWS V14.01,2013-03-10 07:56:00,
2013-03-10 03:57:00,31.5,16.8,29.71,East,90,0.0,0.0,54,0.00,,,0.00,VWS V14.01,2013-03-10 07:57:00,
2013-03-10 03:58:00,31.5,16.8,29.71,East,90,0.0,0.0,54,0.00,,,0.00,VWS V14.01,2013-03-10 07:58:00,
2013-03-10 03:59:00,31.5,16.8,29.71,East,90,0.0,0.0,54,0.00,,,0.00,VWS V14.01,2013-03-10 07:59:00,
2013-03-10 04:00:00,31.5,16.8,29.74,East,90,0.0,0.0,54,0.00,,,0.00,VWS V14.01,2013-03-10 08:00:00,
2013-03-10 04:01:00,31.5,16.8,29.74,East,90,0.0,0.0,54,0.00,,,0.00,VWS V14.01,2013-03-10 08:01:00,
2013-03-10 04:02:00,31.6,16.9,29.74,East,90,0.0,0.0,54,0.00,,,0.00,VWS V14.01,2013-03-10 08:02:00,
2013-03-10 04:03:00,31.6,16.9,29.74,East,90,0.0,0.0,54,0.00,,,0.00,VWS V14.01,2013-03-10 08:03:00,
2013-03-10 04:04:00,31.5,16.8,29.74,East,90,0.0,0.0,54,0.00,,,0.00,VWS V14.01,2013-03-10 08:04:00,
2013-03-10 04:05:00,31.6,16.9,29.74,East,90,0.0,0.0,54,0.00,,,0.00,VWS V14.01,2013-03-10 08:05:00,
2013-03-10 04:06:00,31.6,16.9,29.74,East,90,0.0,0.0,54,0.00,,,0.00,VWS V14.01,2013-03-10 08:06:00,
2013-03-10 04:07:00,31.6,16.9,29.74,East,90,0.0,0.0,54,0.00,,,0.00,VWS V14.01,2013-03-10 08:07:00,
2013-03-10 04:08:00,31.6,16.9,29.74,East,90,0.0,0.0,54,0.00,,,0.00,VWS V14.01,2013-03-10 08:08:00,
2013-03-10 04:09:00,31.6,16.9,29.74,East,90,1.3,1.3,54,0.00,,,0.00,VWS V14.01,2013-03-10 08:09:00,
2013-03-10 04:10:00,31.6,16.9,29.74,East,90,0.9,0.9,54,0.00,,,0.00,VWS V14.01,2013-03-10 08:10:00,
2013-03-10 04:11:00,31.6,16.9,29.74,East,90,0.0,0.0,54,0.00,,,0.00,VWS V14.01,2013-03-10 08:11:00,
2013-03-10 04:12:00,31.6,16.9,29.74,East,90,0.0,0.0,54,0.00,,,0.00,VWS V14.01,2013-03-10 08:12:00,
2013-03-10 04:13:00,31.6,16.9,29.74,East,90,0.0,0.0,54,0.00,,,0.00,VWS V14.01,2013-03-10 08:13:00,
2013-03-10 04:14:00,31.6,16.9,29.74,East,90,0.0,0.0,54,0.00,,,0.00,VWS V14.01,2013-03-10 08:14:00,
2013-03-10 04:15:00,31.6,16.9,29.71,East,90,0.0,0.0,54,0.00,,,0.00,VWS V14.01,2013-03-10 08:15:00,
2013-03-10 04:16:00,31.6,17.3,29.71,East,90,0.0,0.0,55,0.00,,,0.00,VWS V14.01,2013-03-10 08:16:00,
2013-03-10 04:17:00,31.6,17.3,29.71,East,90,0.0,0.0,55,0.00,,,0.00,VWS V14.01,2013-03-10 08:17:00,
2013-03-10 04:18:00,31.6,17.3,29.71,East,90,0.0,0.0,55,0.00,,,0.00,VWS V14.01,2013-03-10 08:18:00,
2013-03-10 04:19:00,31.6,17.3,29.71,East,90,0.0,0.0,55,0.00,,,0.00,VWS V14.01,2013-03-10 08:19:00,
2013-03-10 04:20:00,31.6,17.3,29.71,NE,45,0.0,0.0,55,0.00,,,0.00,VWS V14.01,2013-03-10 08:20:00,
2013-03-10 04:21:00,31.5,17.2,29.71,NE,45,0.0,0.0,55,0.00,,,0.00,VWS V14.01,2013-03-10 08:21:00,
2013-03-10 04:22:00,31.5,17.2,29.71,NE,45,0.0,0.0,55,0.00,,,0.00,VWS V14.01,2013-03-10 08:22:00,
2013-03-10 04:23:00,31.5,17.2,29.71,East,90,0.0,0.0,55,0.00,,,0.00,VWS V14.01,2013-03-10 08:23:00,
2013-03-10 04:24:00,31.5,17.2,29.71,ENE,68,0.0,0.0,55,0.00,,,0.00,VWS V14.01,2013-03-10 08:24:00,
2013-03-10 04:25:00,31.6,17.3,29.71,ENE,68,0.0,0.0,55,0.00,,,0.00,VWS V14.01,2013-03-10 08:25:00,
2013-03-10 04:26:00,31.6,17.3,29.71,ENE,68,0.0,0.0,55,0.00,,,0.00,VWS V14.01,2013-03-10 08:26:00,
2013-03-10 04:27:00,31.6,17.3,29.71,NE,45,0.0,0.0,55,0.00,,,0.00,VWS V14.01,2013-03-10 08:27:00,
2013-03-10 04:28:00,31.6,17.3,29.71,NE,45,0.0,0.0,55,0.00,,,0.00,VWS V14.01,2013-03-10 08:28:00,
2013-03-10 04:29:00,31.5,17.2,29.71,NNE,22,2.2,2.2,55,0.00,,,0.00,VWS V14.01,2013-03-10 08:29:00,
2013-03-10 04:30:00,31.5,17.2,29.71,NNE,22,0.0,0.0,55,0.00,,,0.00,VWS V14.01,2013-03-10 08:30:00,
2013-03-10 04:31:00,31.5,17.2,29.71,NNE,22,0.0,0.0,55,0.00,,,0.00,VWS V14.01,2013-03-10 08:31:00,
2013-03-10 04:32:00,31.5,17.2,29.71,NNE,22,0.0,0.0,55,0.00,,,0.00,VWS V14.01,2013-03-10 08:32:00,
2013-03-10 04:33:00,31.5,17.2,29.71,NNE,22,0.0,0.0,55,0.00,,,0.00,VWS V14.01,2013-03-10 08:33:00,
2013-03-10 04:34:00,31.5,17.2,29.71,NNE,22,0.0,0.0,55,0.00,,,0.00,VWS V14.01,2013-03-10 08:34:00,
2013-03-10 04:35:00,31.5,17.2,29.71,NNE,22,0.0,0.0,55,0.00,,,0.00,VWS V14.01,2013-03-10 08:35:00,
2013-03-10 04:36:00,31.5,17.2,29.71,NNE,22,0.0,0.0,55,0.00,,,0.00,VWS V14.01,2013-03-10 08:36:00,
2013-03-10 04:37:00,31.5,17.6,29.71,NNE,22,0.0,0.0,56,0.00,,,0.00,VWS V14.01,2013-03-10 08:37:00,
2013-03-10 04:38:00,31.5,17.6,29.71,NNE,22,0.0,0.0,56,0.00,,,0.00,VWS V14.01,2013-03-10 08:38:00,
2013-03-10 04:39:00,31.5,17.6,29.71,NNE,22,0.0,0.0,56,0.00,,,0.00,VWS V14.01,2013-03-10 08:39:00,
2013-03-10 04:40:00,31.5,17.6,29.71,NE,45,0.0,0.0,56,0.00,,,0.00,VWS V14.01,2013-03-10 08:40:00,
2013-03-10 04:41:00,31.5,17.6,29.71,NE,45,0.0,0.0,56,0.00,,,0.00,VWS V14.01,2013-03-10 08:41:00,
2013-03-10 04:42:00,31.5,17.6,29.71,NNE,22,1.3,1.3,56,0.00,,,0.00,VWS V14.01,2013-03-10 08:42:00,
2013-03-10 04:43:00,31.5,17.6,29.71,North,0,1.6,1.6,56,0.00,,,0.00,VWS V14.01,2013-03-10 08:43:00,
2013-03-10 04:44:00,31.5,17.6,29.71,North,0,1.6,1.6,56,0.00,,,0.00,VWS V14.01,2013-03-10 08:44:00,
2013-03-10 04:45:00,31.5,17.6,29.74,North,0,2.0,2.0,56,0.00,,,0.00,VWS V14.01,2013-03-10 08:45:00,
2013-03-10 04:46:00,31.5,17.2,29.74,North,0,1.6,1.6,55,0.00,,,0.00,VWS V14.01,2013-03-10 08:46:00,
2013-03-10 04:47:00,31.5,17.2,29.74,North,0,1.1,1.1,55,0.00,,,0.00,VWS V14.01,2013-03-10 08:47:00,
2013-03-10 04:48:00,31.5,17.2,29.74,NNE,22,1.3,1.3,55,0.00,,,0.00,VWS V14.01,2013-03-10 08:48:00,
2013-03-10 04:49:00,31.5,17.2,29.74,NNE,22,0.0,0.0,55,0.00,,,0.00,VWS V14.01,2013-03-10 08:49:00,
2013-03-10 04:50:00,31.5,17.2,29.74,NNE,22,1.1,1.1,55,0.00,,,0.00,VWS V14.01,2013-03-10 08:50:00,
2013-03-10 04:51:00,31.5,17.2,29.74,ENE,68,1.6,1.6,55,0.00,,,0.00,VWS V14.01,2013-03-10 08:51:00,
2013-03-10 04:52:00,31.5,17.2,29.74,ENE,68,0.0,0.0,55,0.00,,,0.00,VWS V14.01,2013-03-10 08:52:00,
2013-03-10 04:53:00,31.3,17.4,29.74,ENE,68,0.0,0.0,56,0.00,,,0.00,VWS V14.01,2013-03-10 08:53:00,
2013-03-10 04:54:00,31.3,17.4,29.74,NE,45,0.0,0.0,56,0.00,,,0.00,VWS V14.01,2013-03-10 08:54:00,
2013-03-10 04:55:00,31.3,17.4,29.74,NNE,22,2.0,2.0,56,0.00,,,0.00,VWS V14.01,2013-03-10 08:55:00,
2013-03-10 04:56:00,31.3,17.4,29.74,NNE,22,2.2,2.2,56,0.00,,,0.00,VWS V14.01,2013-03-10 08:56:00,
2013-03-10 04:57:00,31.1,17.2,29.74,NNE,22,1.1,1.1,56,0.00,,,0.00,VWS V14.01,2013-03-10 08:57:00,
2013-03-10 04:58:00,31.1,17.2,29.74,NNE,22,2.0,2.0,56,0.00,,,0.00,VWS V14.01,2013-03-10 08:58:00,
2013-03-10 04:59:00,31.1,17.2,29.74,NNE,22,0.9,0.9,56,0.00,,,0.00,VWS V14.01,2013-03-10 08:59:00,
2013-03-10 05:00:00,31.1,17.2,29.74,NNE,22,0.0,0.0,56,0.00,,,0.00,VWS V14.01,2013-03-10 09:00:00,
2013-03-10 05:01:00,30.9,17.1,29.74,NNE,22,2.7,2.7,56,0.00,,,0.00,VWS V14.01,2013-03-10 09:01:00,
2013-03-10 05:02:00,30.9,17.1,29.74,NNE,22,2.0,2.0,56,0.00,,,0.00,VWS V14.01,2013-03-10 09:02:00,
2013-03-10 05:03:00,30.9,17.1,29.74,NNE,22,1.3,1.3,56,0.00,,,0.00,VWS V14.01,2013-03-10 09:03:00,
2013-03-10 05:04:00,30.9,17.1,29.74,NNE,22,1.1,1.1,56,0.00,,,0.00,VWS V14.01,2013-03-10 09:04:00,
2013-03-10 05:05:00,30.9,17.1,29.74,NNE,22,0.0,0.0,56,0.00,,,0.00,VWS V14.01,2013-03-10 09:05:00,
2013-03-10 05:06:00,30.9,17.5,29.74,NNE,22,0.0,0.0,57,0.00,,,0.00,VWS V14.01,2013-03-10 09:06:00,
2013-03-10 05:07:00,30.9,17.5,29.74,NNE,22,0.0,0.0,57,0.00,,,0.00,VWS V14.01,2013-03-10 09:07:00,
2013-03-10 05:08:00,30.9,17.5,29.74,North,0,0.0,0.0,57,0.00,,,0.00,VWS V14.01,2013-03-10 09:08:00,
2013-03-10 05:09:00,30.7,17.3,29.74,NW,315,2.0,2.0,57,0.00,,,0.00,VWS V14.01,2013-03-10 09:09:00,
2013-03-10 05:10:00,30.7,17.3,29.74,WSW,248,2.5,2.5,57,0.00,,,0.00,VWS V14.01,2013-03-10 09:10:00,
2013-03-10 05:11:00,30.6,17.1,29.74,WSW,248,2.0,2.0,57,0.00,,,0.00,VWS V14.01,2013-03-10 09:11:00,
2013-03-10 05:12:00,30.4,17.0,29.74,SW,225,2.9,2.9,57,0.00,,,0.00,VWS V14.01,2013-03-10 09:12:00,
2013-03-10 05:13:00,30.2,16.8,29.74,WSW,248,2.5,2.5,57,0.00,,,0.00,VWS V14.01,2013-03-10 09:13:00,
2013-03-10 05:14:00,29.8,16.1,29.74,WSW,248,2.2,2.2,56,0.00,,,0.00,VWS V14.01,2013-03-10 09:14:00,
2013-03-10 05:15:00,29.8,16.1,29.74,WSW,248,2.5,2.5,56,0.00,,,0.00,VWS V14.01,2013-03-10 09:15:00,
2013-03-10 05:16:00,29.7,16.3,29.74,WSW,248,2.0,2.0,57,0.00,,,0.00,VWS V14.01,2013-03-10 09:16:00,
2013-03-10 05:17:00,29.5,16.1,29.74,WSW,248,2.0,2.0,57,0.00,,,0.00,VWS V14.01,2013-03-10 09:17:00,
2013-03-10 05:18:00,29.5,16.1,29.74,SW,225,2.5,2.5,57,0.00,,,0.00,VWS V14.01,2013-03-10 09:18:00,
2013-03-10 05:19:00,29.5,16.1,29.74,SW,225,2.7,2.7,57,0.00,,,0.00,VWS V14.01,2013-03-10 09:19:00,
2013-03-10 05:20:00,29.5,16.1,29.74,SW,225,2.5,2.5,57,0.00,,,0.00,VWS V14.01,2013-03-10 09:20:00,
2013-03-10 05:21:00,29.5,16.1,29.74,SSW,202,2.2,2.2,57,0.00,,,0.00,VWS V14.01,2013-03-10 09:21:00,
2013-03-10 05:22:00,29.5,16.1,29.74,SSW,202,2.5,2.5,57,0.00,,,0.00,VWS V14.01,2013-03-10 09:22:00,
2013-03-10 05:23:00,29.3,16.0,29.74,WSW,248,2.7,2.7,57,0.00,,,0.00,VWS V14.01,2013-03-10 09:23:00,
2013-03-10 05:24:00,29.3,16.4,29.74,SW,225,2.5,2.5,58,0.00,,,0.00,VWS V14.01,2013-03-10 09:24:00,
2013-03-10 05:25:00,29.3,16.4,29.74,SSW,202,2.5,2.5,58,0.00,,,0.00,VWS V14.01,2013-03-10 09:25:00,
2013-03-10 05:26:00,29.3,16.4,29.74,SSW,202,2.5,2.5,58,0.00,,,0.00,VWS V14.01,2013-03-10 09:26:00,
2013-03-10 05:27:00,29.3,16.4,29.74,SSW,202,2.0,2.0,58,0.00,,,0.00,VWS V14.01,2013-03-10 09:27:00,
2013-03-10 05:28:00,29.3,16.4,29.74,SSW,202,2.0,2.0,58,0.00,,,0.00,VWS V14.01,2013-03-10 09:28:00,
2013-03-10 05:29:00,29.3,16.4,29.74,SSW,202,2.0,2.0,58,0.00,,,0.00,VWS V14.01,2013-03-10 09:29:00,
2013-03-10 05:30:00,29.3,16.4,29.76,SW,225,1.6,1.6,58,0.00,,,0.00,VWS V14.01,2013-03-10 09:30:00,
2013-03-10 05:31:00,29.3,16.8,29.76,SW,225,2.2,2.2,59,0.00,,,0.00,VWS V14.01,2013-03-10 09:31:00,
2013-03-10 05:32:00,29.3,16.8,29.76,SW,225,2.0,2.0,59,0.00,,,0.00,VWS V14.01,2013-03-10 09:32:00,
2013-03-10 05:33:00,29.3,16.8,29.76,SW,225,1.6,1.6,59,0.00,,,0.00,VWS V14.01,2013-03-10 09:33:00,
2013-03-10 05:34:00,29.3,16.8,29.76,WSW,248,2.0,2.0,59,0.00,,,0.00,VWS V14.01,2013-03-10 09:34:00,
2013-03-10 05:35:00,29.3,16.8,29.76,WSW,248,1.6,1.6,59,0.00,,,0.00,VWS V14.01,2013-03-10 09:35:00,
2013-03-10 05:36:00,29.3,16.8,29.76,WSW,248,2.0,2.0,59,0.00,,,0.00,VWS V14.01,2013-03-10 09:36:00,
2013-03-10 05:37:00,29.3,17.1,29.76,WSW,248,1.6,1.6,60,0.00,,,0.00,VWS V14.01,2013-03-10 09:37:00,
2013-03-10 05:38:00,29.3,17.1,29.76,WSW,248,2.9,2.9,60,0.00,,,0.00,VWS V14.01,2013-03-10 09:38:00,
2013-03-10 05:39:00,29.3,17.5,29.76,WSW,248,2.9,2.9,61,0.00,,,0.00,VWS V14.01,2013-03-10 09:39:00,
2013-03-10 05:40:00,29.1,17.4,29.76,WSW,248,3.1,3.1,61,0.00,,,0.00,VWS V14.01,2013-03-10 09:40:00,
2013-03-10 05:41:00,29.1,17.0,29.76,WSW,248,2.5,2.5,60,0.00,,,0.00,VWS V14.01,2013-03-10 09:41:00,
2013-03-10 05:42:00,29.1,17.0,29.76,WSW,248,2.0,2.0,60,0.00,,,0.00,VWS V14.01,2013-03-10 09:42:00,
2013-03-10 05:43:00,29.1,17.0,29.76,SSW,202,2.0,2.0,60,0.00,,,0.00,VWS V14.01,2013-03-10 09:43:00,
2013-03-10 05:44:00,29.3,17.1,29.76,SSW,202,2.0,2.0,60,0.00,,,0.00,VWS V14.01,2013-03-10 09:44:00,
2013-03-10 05:45:00,29.5,17.3,29.74,SSW,202,1.3,1.3,60,0.00,,,0.00,VWS V14.01,2013-03-10 09:45:00,
2013-03-10 05:46:00,29.5,17.7,29.74,SSW,202,1.6,1.6,61,0.00,,,0.00,VWS V14.01,2013-03-10 09:46:00,
2013-03-10 05:47:00,29.5,17.7,29.74,SSW,202,0.9,0.9,61,0.00,,,0.00,VWS V14.01,2013-03-10 09:47:00,
2013-03-10 05:48:00,29.5,17.7,29.74,SSW,202,0.0,0.0,61,0.00,,,0.00,VWS V14.01,2013-03-10 09:48:00,
2013-03-10 05:49:00,29.7,17.9,29.74,SSW,202,0.0,0.0,61,0.00,,,0.00,VWS V14.01,2013-03-10 09:49:00,
2013-03-10 05:50:00,29.7,17.9,29.74,SSW,202,0.0,0.0,61,0.00,,,0.00,VWS V14.01,2013-03-10 09:50:00,
2013-03-10 05:51:00,29.8,18.0,29.74,SSW,202,0.0,0.0,61,0.00,,,0.00,VWS V14.01,2013-03-10 09:51:00,
2013-03-10 05:52:00,30.0,18.2,29.74,SSW,202,0.0,0.0,61,0.00,,,0.00,VWS V14.01,2013-03-10 09:52:00,
2013-03-10 05:53:00,30.0,18.2,29.74,SSW,202,0.0,0.0,61,0.00,,,0.00,VWS V14.01,2013-03-10 09:53:00,
2013-03-10 05:54:00,30.2,18.4,29.74,SSW,202,0.0,0.0,61,0.00,,,0.00,VWS V14.01,2013-03-10 09:54:00,
2013-03-10 05:55:00,30.2,18.4,29.74,SSW,202,0.0,0.0,61,0.00,,,0.00,VWS V14.01,2013-03-10 09:55:00,
2013-03-10 05:56:00,30.2,18.4,29.74,SSW,202,0.0,0.0,61,0.00,,,0.00,VWS V14.01,2013-03-10 09:56:00,
2013-03-10 05:57:00,30.2,18.4,29.74,SSW,202,0.0,0.0,61,0.00,,,0.00,VWS V14.01,2013-03-10 09:57:00,
2013-03-10 05:58:00,30.4,18.2,29.74,SSW,202,0.0,0.0,60,0.00,,,0.00,VWS V14.01,2013-03-10 09:58:00,
2013-03-10 05:59:00,30.4,18.2,29.74,SSW,202,0.0,0.0,60,0.00,,,0.00,VWS V14.01,2013-03-10 09:59:00,
2013-03-10 06:00:00,30.6,18.7,29.71,SSW,202,0.0,0.0,61,0.00,,,0.00,VWS V14.01,2013-03-10 10:00:00,
2013-03-10 06:01:00,30.6,18.7,29.71,SSW,202,0.0,0.0,61,0.00,,,0.00,VWS V14.01,2013-03-10 10:01:00,
2013-03-10 06:02:00,30.6,18.7,29.71,SSW,202,0.0,0.0,61,0.00,,,0.00,VWS V14.01,2013-03-10 10:02:00,
2013-03-10 06:03:00,30.6,18.7,29.71,SSW,202,0.0,0.0,61,0.00,,,0.00,VWS V14.01,2013-03-10 10:03:00,
2013-03-10 06:04:00,30.6,18.7,29.71,SSW,202,0.0,0.0,61,0.00,,,0.00,VWS V14.01,2013-03-10 10:04:00,
2013-03-10 06:05:00,30.6,18.7,29.71,SSW,202,0.0,0.0,61,0.00,,,0.00,VWS V14.01,2013-03-10 10:05:00,
2013-03-10 06:06:00,30.7,18.9,29.71,SSW,202,0.0,0.0,61,0.00,,,0.00,VWS V14.01,2013-03-10 10:06:00,
2013-03-10 06:07:00,30.7,18.9,29.71,SSW,202,0.0,0.0,61,0.00,,,0.00,VWS V14.01,2013-03-10 10:07:00,
2013-03-10 06:08:00,30.9,19.1,29.71,SSW,202,0.0,0.0,61,0.00,,,0.00,VWS V14.01,2013-03-10 10:08:00,
2013-03-10 06:09:00,30.9,19.1,29.71,SSW,202,1.6,1.6,61,0.00,,,0.00,VWS V14.01,2013-03-10 10:09:00,
2013-03-10 06:10:00,30.9,19.1,29.71,SSW,202,0.9,0.9,61,0.00,,,0.00,VWS V14.01,2013-03-10 10:10:00,
2013-03-10 06:11:00,30.9,19.1,29.71,SSW,202,1.1,1.1,61,0.00,,,0.00,VWS V14.01,2013-03-10 10:11:00,
2013-03-10 06:12:00,30.9,19.1,29.71,SSW,202,1.3,1.3,61,0.00,,,0.00,VWS V14.01,2013-03-10 10:12:00,
2013-03-10 06:13:00,30.9,19.1,29.71,SSW,202,0.0,0.0,61,0.00,,,0.00,VWS V14.01,2013-03-10 10:13:00,
2013-03-10 06:14:00,30.9,19.1,29.71,SSW,202,0.0,0.0,61,0.00,,,0.00,VWS V14.01,2013-03-10 10:14:00,
2013-03-10 06:15:00,30.9,19.1,29.74,SSW,202,0.0,0.0,61,0.00,,,0.00,VWS V14.01,2013-03-10 10:15:00,
2013-03-10 06:16:00,30.9,19.1,29.74,SSW,202,0.0,0.0,61,0.00,,,0.00,VWS V14.01,2013-03-10 10:16:00,
2013-03-10 06:17:00,30.9,19.1,29.74,SSW,202,0.0,0.0,61,0.00,,,0.00,VWS V14.01,2013-03-10 10:17:00,
2013-03-10 06:18:00,30.9,19.1,29.74,SSW,202,0.0,0.0,61,0.00,,,0.00,VWS V14.01,2013-03-10 10:18:00,
2013-03-10 06:19:00,31.1,18.9,29.74,SSW,202,0.0,0.0,60,0.00,,,0.00,VWS V14.01,2013-03-10 10:19:00,
2013-03-10 06:20:00,31.1,18.9,29.74,SSW,202,0.0,0.0,60,0.00,,,0.00,VWS V14.01,2013-03-10 10:20:00,
2013-03-10 06:21:00,31.1,18.9,29.74,SSW,202,0.0,0.0,60,0.00,,,0.00,VWS V14.01,2013-03-10 10:21:00,
2013-03-10 06:22:00,31.1,19.2,29.74,WSW,248,0.0,0.0,61,0.00,,,0.00,VWS V14.01,2013-03-10 10:22:00,
2013-03-10 06:23:00,31.1,19.2,29.74,WSW,248,2.0,2.0,61,0.00,,,0.00,VWS V14.01,2013-03-10 10:23:00,
2013-03-10 06:24:00,31.1,19.2,29.74,WSW,248,1.3,1.3,61,0.00,,,0.00,VWS V14.01,2013-03-10 10:24:00,
2013-03-10 06:25:00,31.3,19.4,29.74,WSW,248,1.6,1.6,61,0.00,,,0.00,VWS V14.01,2013-03-10 10:25:00,
2013-03-10 06:26:00,31.3,19.4,29.74,WSW,248,1.6,1.6,61,0.00,,,0.00,VWS V14.01,2013-03-10 10:26:00,
2013-03-10 06:27:00,31.3,19.4,29.74,WSW,248,1.6,1.6,61,0.00,,,0.00,VWS V14.01,2013-03-10 10:27:00,
2013-03-10 06:28:00,31.3,19.4,29.74,WSW,248,0.9,0.9,61,0.00,,,0.00,VWS V14.01,2013-03-10 10:28:00,
2013-03-10 06:29:00,31.3,19.4,29.74,WSW,248,0.0,0.0,61,0.00,,,0.00,VWS V14.01,2013-03-10 10:29:00,
2013-03-10 06:30:00,31.5,19.6,29.74,WSW,248,0.0,0.0,61,0.00,,,0.00,VWS V14.01,2013-03-10 10:30:00,
2013-03-10 06:31:00,31.5,19.6,29.74,WSW,248,0.0,0.0,61,0.00,,,0.00,VWS V14.01,2013-03-10 10:31:00,
2013-03-10 06:32:00,31.5,19.6,29.74,WSW,248,0.0,0.0,61,0.00,,,0.00,VWS V14.01,2013-03-10 10:32:00,
2013-03-10 06:33:00,31.5,19.6,29.74,WSW,248,0.0,0.0,61,0.00,,,0.00,VWS V14.01,2013-03-10 10:33:00,
2013-03-10 06:34:00,31.6,19.8,29.74,WSW,248,0.0,0.0,61,0.00,,,0.00,VWS V14.01,2013-03-10 10:34:00,
2013-03-10 06:35:00,31.6,19.8,29.74,WSW,248,0.9,0.9,61,0.00,,,0.00,VWS V14.01,2013-03-10 10:35:00,
2013-03-10 06:36:00,31.6,19.8,29.74,WSW,248,1.1,1.1,61,0.00,,,0.00,VWS V14.01,2013-03-10 10:36:00,
2013-03-10 06:37:00,31.6,19.8,29.74,South,180,2.5,2.5,61,0.00,,,0.00,VWS V14.01,2013-03-10 10:37:00,
2013-03-10 06:38:00,31.8,19.9,29.74,South,180,1.1,1.1,61,0.00,,,0.00,VWS V14.01,2013-03-10 10:38:00,
2013-03-10 06:39:00,31.8,19.9,29.74,South,180,0.0,0.0,61,0.00,,,0.00,VWS V14.01,2013-03-10 10:39:00,
2013-03-10 06:40:00,31.8,19.9,29.74,South,180,0.0,0.0,61,0.00,,,0.00,VWS V14.01,2013-03-10 10:40:00,
2013-03-10 06:41:00,31.8,19.9,29.74,South,180,0.0,0.0,61,0.00,,,0.00,VWS V14.01,2013-03-10 10:41:00,
2013-03-10 06:42:00,32.0,20.1,29.74,South,180,0.0,0.0,61,0.00,,,0.00,VWS V14.01,2013-03-10 10:42:00,
2013-03-10 06:43:00,32.0,20.1,29.74,South,180,0.0,0.0,61,0.00,,,0.00,VWS V14.01,2013-03-10 10:43:00,
2013-03-10 06:44:00,32.0,20.1,29.74,South,180,0.0,0.0,61,0.00,,,0.00,VWS V14.01,2013-03-10 10:44:00,
2013-03-10 06:45:00,32.2,20.3,29.71,South,180,0.0,0.0,61,0.00,,,0.00,VWS V14.01,2013-03-10 10:45:00,
2013-03-10 06:46:00,32.2,20.3,29.71,South,180,0.0,0.0,61,0.00,,,0.00,VWS V14.01,2013-03-10 10:46:00,
2013-03-10 06:47:00,32.2,20.6,29.71,South,180,0.0,0.0,62,0.00,,,0.00,VWS V14.01,2013-03-10 10:47:00,
2013-03-10 06:48:00,32.2,20.6,29.71,South,180,0.0,0.0,62,0.00,,,0.00,VWS V14.01,2013-03-10 10:48:00,
2013-03-10 06:49:00,32.2,20.6,29.71,South,180,0.0,0.0,62,0.00,,,0.00,VWS V14.01,2013-03-10 10:49:00,
2013-03-10 06:50:00,32.2,20.6,29.71,South,180,0.0,0.0,62,0.00,,,0.00,VWS V14.01,2013-03-10 10:50:00,
2013-03-10 06:51:00,32.2,20.6,29.71,South,180,0.0,0.0,62,0.00,,,0.00,VWS V14.01,2013-03-10 10:51:00,
2013-03-10 06:52:00,32.2,20.3,29.71,South,180,0.0,0.0,61,0.00,,,0.00,VWS V14.01,2013-03-10 10:52:00,
2013-03-10 06:53:00,32.2,20.3,29.71,South,180,0.0,0.0,61,0.00,,,0.00,VWS V14.01,2013-03-10 10:53:00,
2013-03-10 06:54:00,32.2,20.3,29.71,South,180,0.0,0.0,61,0.00,,,0.00,VWS V14.01,2013-03-10 10:54:00,
2013-03-10 06:55:00,32.2,20.3,29.71,South,180,0.0,0.0,61,0.00,,,0.00,VWS V14.01,2013-03-10 10:55:00,
2013-03-10 06:56:00,32.2,20.3,29.71,South,180,1.3,1.3,61,0.00,,,0.00,VWS V14.01,2013-03-10 10:56:00,
2013-03-10 06:57:00,32.2,20.3,29.71,South,180,0.0,0.0,61,0.00,,,0.00,VWS V14.01,2013-03-10 10:57:00,
2013-03-10 06:58:00,32.2,20.3,29.71,South,180,0.0,0.0,61,0.00,,,0.00,VWS V14.01,2013-03-10 10:58:00,
2013-03-10 06:59:00,32.2,20.3,29.71,South,180,0.0,0.0,61,0.00,,,0.00,VWS V14.01,2013-03-10 10:59:00,
2013-03-10 07:00:00,32.4,20.4,29.74,South,180,0.0,0.0,61,0.00,,,0.00,VWS V14.01,2013-03-10 11:00:00,
2013-03-10 07:01:00,32.4,20.8,29.74,South,180,0.0,0.0,62,0.00,,,0.00,VWS V14.01,2013-03-10 11:01:00,
2013-03-10 07:02:00,32.4,20.8,29.74,South,180,0.0,0.0,62,0.00,,,0.00,VWS V14.01,2013-03-10 11:02:00,
2013-03-10 07:03:00,32.4,20.8,29.74,South,180,0.0,0.0,62,0.00,,,0.00,VWS V14.01,2013-03-10 11:03:00,
2013-03-10 07:04:00,32.4,20.8,29.74,South,180,0.0,0.0,62,0.00,,,0.00,VWS V14.01,2013-03-10 11:04:00,
2013-03-10 07:05:00,32.4,20.8,29.74,South,180,0.0,0.0,62,0.00,,,0.00,VWS V14.01,2013-03-10 11:05:00,
2013-03-10 07:06:00,32.5,21.0,29.74,South,180,0.0,0.0,62,0.00,,,0.00,VWS V14.01,2013-03-10 11:06:00,
2013-03-10 07:07:00,32.5,20.6,29.74,South,180,0.0,0.0,61,0.00,,,0.00,VWS V14.01,2013-03-10 11:07:00,
2013-03-10 07:08:00,32.5,20.6,29.74,South,180,0.0,0.0,61,0.00,,,0.00,VWS V14.01,2013-03-10 11:08:00,
2013-03-10 07:09:00,32.5,20.6,29.74,South,180,0.0,0.0,61,0.00,,,0.00,VWS V14.01,2013-03-10 11:09:00,
2013-03-10 07:10:00,32.5,21.0,29.74,South,180,1.6,1.6,62,0.00,,,0.00,VWS V14.01,2013-03-10 11:10:00,
2013-03-10 07:11:00,32.5,21.0,29.74,South,180,0.9,0.9,62,0.00,,,0.00,VWS V14.01,2013-03-10 11:11:00,
2013-03-10 07:12:00,32.5,21.0,29.74,South,180,0.0,0.0,62,0.00,,,0.00,VWS V14.01,2013-03-10 11:12:00,
2013-03-10 07:13:00,32.5,21.0,29.74,South,180,0.0,0.0,62,0.00,,,0.00,VWS V14.01,2013-03-10 11:13:00,
2013-03-10 07:14:00,32.5,21.0,29.74,South,180,0.0,0.0,62,0.00,,,0.00,VWS V14.01,2013-03-10 11:14:00,
2013-03-10 07:15:00,32.5,21.0,29.74,South,180,0.0,0.0,62,0.00,,,0.00,VWS V14.01,2013-03-10 11:15:00,
2013-03-10 07:16:00,32.7,21.1,29.74,South,180,0.0,0.0,62,0.00,,,0.00,VWS V14.01,2013-03-10 11:16:00,
2013-03-10 07:17:00,32.7,21.1,29.74,ESE,112,0.0,0.0,62,0.00,,,0.00,VWS V14.01,2013-03-10 11:17:00,
2013-03-10 07:18:00,32.7,21.1,29.74,ESE,112,0.0,0.0,62,0.00,,,0.00,VWS V14.01,2013-03-10 11:18:00,
2013-03-10 07:19:00,32.7,20.8,29.74,ESE,112,2.5,2.5,61,0.00,,,0.00,VWS V14.01,2013-03-10 11:19:00,
2013-03-10 07:20:00,32.7,20.8,29.74,ESE,112,2.0,2.0,61,0.00,,,0.00,VWS V14.01,2013-03-10 11:20:00,
2013-03-10 07:21:00,32.9,20.9,29.74,ESE,112,1.6,1.6,61,0.00,,,0.00,VWS V14.01,2013-03-10 11:21:00,
2013-03-10 07:22:00,32.9,20.9,29.74,ESE,112,0.0,0.0,61,0.00,,,0.00,VWS V14.01,2013-03-10 11:22:00,
2013-03-10 07:23:00,32.9,20.9,29.74,ESE,112,0.0,0.0,61,0.00,,,0.00,VWS V14.01,2013-03-10 11:23:00,
2013-03-10 07:24:00,32.9,20.9,29.74,ESE,112,0.0,0.0,61,0.00,,,0.00,VWS V14.01,2013-03-10 11:24:00,
2013-03-10 07:25:00,32.9,20.9,29.74,East,90,1.3,1.3,61,0.00,,,0.00,VWS V14.01,2013-03-10 11:25:00,
2013-03-10 07:26:00,32.9,20.9,29.74,East,90,1.1,1.1,61,0.00,,,0.00,VWS V14.01,2013-03-10 11:26:00,
2013-03-10 07:27:00,33.1,21.1,29.74,East,90,1.3,1.3,61,0.00,,,0.00,VWS V14.01,2013-03-10 11:27:00,
2013-03-10 07:28:00,33.1,21.1,29.74,East,90,0.9,0.9,61,0.00,,,0.00,VWS V14.01,2013-03-10 11:28:00,
2013-03-10 07:29:00,33.1,21.1,29.74,East,90,0.0,0.0,61,0.00,,,0.00,VWS V14.01,2013-03-10 11:29:00,
2013-03-10 07:30:00,33.1,21.1,29.71,ENE,68,1.3,1.3,61,0.00,,,0.00,VWS V14.01,2013-03-10 11:30:00,
2013-03-10 07:31:00,33.1,20.7,29.71,ENE,68,1.6,1.6,60,0.00,,,0.00,VWS V14.01,2013-03-10 11:31:00,
2013-03-10 07:32:00,33.1,20.7,29.71,ENE,68,0.0,0.0,60,0.00,,,0.00,VWS V14.01,2013-03-10 11:32:00,
2013-03-10 07:33:00,33.1,21.1,29.71,ENE,68,0.0,0.0,61,0.00,,,0.00,VWS V14.01,2013-03-10 11:33:00,
2013-03-10 07:34:00,33.1,21.1,29.71,ENE,68,0.0,0.0,61,0.00,,,0.00,VWS V14.01,2013-03-10 11:34:00,
2013-03-10 07:35:00,33.3,21.3,29.71,ENE,68,0.0,0.0,61,0.00,,,0.00,VWS V14.01,2013-03-10 11:35:00,
2013-03-10 07:36:00,33.3,21.3,29.71,ENE,68,0.0,0.0,61,0.00,,,0.00,VWS V14.01,2013-03-10 11:36:00,
2013-03-10 07:37:00,33.3,21.3,29.71,ENE,68,0.0,0.0,61,0.00,,,0.00,VWS V14.01,2013-03-10 11:37:00,
2013-03-10 07:38:00,33.3,21.7,29.71,ENE,68,0.0,0.0,62,0.00,,,0.00,VWS V14.01,2013-03-10 11:38:00,
2013-03-10 07:39:00,33.3,21.7,29.71,ENE,68,0.0,0.0,62,0.00,,,0.00,VWS V14.01,2013-03-10 11:39:00,
2013-03-10 07:40:00,33.3,21.7,29.71,NNE,22,0.0,0.0,62,0.00,,,0.00,VWS V14.01,2013-03-10 11:40:00,
2013-03-10 07:41:00,33.3,21.7,29.71,NNW,338,0.0,0.0,62,0.00,,,0.00,VWS V14.01,2013-03-10 11:41:00,
2013-03-10 07:42:00,33.3,21.7,29.71,NNW,338,2.0,2.0,62,0.00,,,0.00,VWS V14.01,2013-03-10 11:42:00,
2013-03-10 07:43:00,33.3,21.7,29.71,NNW,338,2.0,2.0,62,0.00,,,0.00,VWS V14.01,2013-03-10 11:43:00,
2013-03-10 07:44:00,33.3,21.7,29.71,NNW,338,2.5,2.5,62,0.00,,,0.00,VWS V14.01,2013-03-10 11:44:00,
2013-03-10 07:45:00,33.3,21.7,29.74,NNW,338,2.2,2.2,62,0.00,,,0.00,VWS V14.01,2013-03-10 11:45:00,
2013-03-10 07:46:00,33.3,21.7,29.74,NNW,338,2.7,2.7,62,0.00,,,0.00,VWS V14.01,2013-03-10 11:46:00,
2013-03-10 07:47:00,33.3,21.7,29.74,NNW,338,1.6,1.6,62,0.00,,,0.00,VWS V14.01,2013-03-10 11:47:00,
2013-03-10 07:48:00,33.4,21.5,29.74,NNW,338,2.0,2.0,61,0.00,,,0.00,VWS V14.01,2013-03-10 11:48:00,
2013-03-10 07:49:00,33.4,21.8,29.74,NNW,338,1.1,1.1,62,0.00,,,0.00,VWS V14.01,2013-03-10 11:49:00,
2013-03-10 07:50:00,33.4,21.8,29.74,North,0,0.0,0.0,62,0.00,,,0.00,VWS V14.01,2013-03-10 11:50:00,
2013-03-10 07:51:00,33.4,21.8,29.74,North,0,0.0,0.0,62,0.00,,,0.00,VWS V14.01,2013-03-10 11:51:00,
2013-03-10 07:52:00,33.6,22.0,29.74,North,0,0.0,0.0,62,0.00,,,0.00,VWS V14.01,2013-03-10 11:52:00,
2013-03-10 07:53:00,33.6,21.6,29.74,North,0,0.0,0.0,61,0.00,,,0.00,VWS V14.01,2013-03-10 11:53:00,
2013-03-10 07:54:00,33.6,21.6,29.74,North,0,0.0,0.0,61,0.00,,,0.00,VWS V14.01,2013-03-10 11:54:00,
2013-03-10 07:55:00,33.6,21.6,29.74,NNW,338,0.0,0.0,61,0.00,,,0.00,VWS V14.01,2013-03-10 11:55:00,
2013-03-10 07:56:00,33.6,22.0,29.74,WSW,248,0.0,0.0,62,0.00,,,0.00,VWS V14.01,2013-03-10 11:56:00,
2013-03-10 07:57:00,33.6,22.0,29.74,WSW,248,0.0,0.0,62,0.00,,,0.00,VWS V14.01,2013-03-10 11:57:00,
2013-03-10 07:58:00,33.8,21.8,29.74,WSW,248,2.0,2.0,61,0.00,,,0.00,VWS V14.01,2013-03-10 11:58:00,
2013-03-10 07:59:00,33.8,21.8,29.74,WSW,248,2.5,2.5,61,0.00,,,0.00,VWS V14.01,2013-03-10 11:59:00,
2013-03-10 08:00:00,33.8,21.8,29.74,West,270,2.2,2.2,61,0.00,,,0.00,VWS V14.01,2013-03-10 12:00:00,
2013-03-10 08:01:00,33.8,21.8,29.74,WSW,248,1.3,1.3,61,0.00,,,0.00,VWS V14.01,2013-03-10 12:01:00,
2013-03-10 08:02:00,33.8,21.8,29.74,West,270,1.6,1.6,61,0.00,,,0.00,VWS V14.01,2013-03-10 12:02:00,
2013-03-10 08:03:00,33.8,22.2,29.74,WSW,248,2.2,2.2,62,0.00,,,0.00,VWS V14.01,2013-03-10 12:03:00,
2013-03-10 08:04:00,33.8,22.2,29.74,WSW,248,2.0,2.0,62,0.00,,,0.00,VWS V14.01,2013-03-10 12:04:00,
2013-03-10 08:05:00,33.8,22.2,29.74,SSW,202,2.2,2.2,62,0.00,,,0.00,VWS V14.01,2013-03-10 12:05:00,
2013-03-10 08:06:00,33.8,22.2,29.74,South,180,1.1,1.1,62,0.00,,,0.00,VWS V14.01,2013-03-10 12:06:00,
2013-03-10 08:07:00,33.8,22.2,29.74,SSW,202,1.3,1.3,62,0.00,,,0.00,VWS V14.01,2013-03-10 12:07:00,
2013-03-10 08:08:00,34.0,22.4,29.74,SSW,202,2.5,2.5,62,0.00,,,0.00,VWS V14.01,2013-03-10 12:08:00,
2013-03-10 08:09:00,34.0,22.4,29.74,SSE,158,2.2,2.2,62,0.00,,,0.00,VWS V14.01,2013-03-10 12:09:00,
2013-03-10 08:10:00,34.0,22.4,29.74,SSW,202,1.1,1.1,62,0.00,,,0.00,VWS V14.01,2013-03-10 12:10:00,
2013-03-10 08:11:00,34.0,22.4,29.74,WNW,292,0.0,0.0,62,0.00,,,0.00,VWS V14.01,2013-03-10 12:11:00,
2013-03-10 08:12:00,34.0,22.4,29.74,NW,315,0.0,0.0,62,0.00,,,0.00,VWS V14.01,2013-03-10 12:12:00,
2013-03-10 08:13:00,34.0,22.4,29.74,West,270,0.0,0.0,62,0.00,,,0.00,VWS V14.01,2013-03-10 12:13:00,
2013-03-10 08:14:00,34.0,22.4,29.74,WNW,292,1.3,1.3,62,0.00,,,0.00,VWS V14.01,2013-03-10 12:14:00,
2013-03-10 08:15:00,34.2,22.5,29.76,WNW,292,1.6,1.6,62,0.00,,,0.00,VWS V14.01,2013-03-10 12:15:00,
2013-03-10 08:16:00,34.2,22.5,29.76,WNW,292,0.0,0.0,62,0.00,,,0.00,VWS V14.01,2013-03-10 12:16:00,
2013-03-10 08:17:00,34.2,22.5,29.76,WNW,292,0.0,0.0,62,0.00,,,0.00,VWS V14.01,2013-03-10 12:17:00,
2013-03-10 08:18:00,34.2,22.5,29.76,WNW,292,0.0,0.0,62,0.00,,,0.00,VWS V14.01,2013-03-10 12:18:00,
2013-03-10 08:19:00,34.2,22.5,29.76,WNW,292,0.0,0.0,62,0.00,,,0.00,VWS V14.01,2013-03-10 12:19:00,
2013-03-10 08:20:00,34.2,22.5,29.76,WNW,292,0.0,0.0,62,0.00,,,0.00,VWS V14.01,2013-03-10 12:20:00,
2013-03-10 08:21:00,34.2,22.5,29.76,WNW,292,0.0,0.0,62,0.00,,,0.00,VWS V14.01,2013-03-10 12:21:00,
2013-03-10 08:22:00,34.2,22.5,29.76,WSW,248,1.1,1.1,62,0.00,,,0.00,VWS V14.01,2013-03-10 12:22:00,
2013-03-10 08:23:00,34.2,22.1,29.76,WSW,248,0.9,0.9,61,0.00,,,0.00,VWS V14.01,2013-03-10 12:23:00,
2013-03-10 08:24:00,34.3,22.7,29.76,West,270,0.0,0.0,62,0.00,,,0.00,VWS V14.01,2013-03-10 12:24:00,
2013-03-10 08:25:00,34.3,22.7,29.76,WSW,248,1.3,1.3,62,0.00,,,0.00,VWS V14.01,2013-03-10 12:25:00,
2013-03-10 08:26:00,34.3,22.7,29.76,WSW,248,2.5,2.5,62,0.00,,,0.00,VWS V14.01,2013-03-10 12:26:00,
2013-03-10 08:27:00,34.3,23.1,29.76,WSW,248,1.1,1.1,63,0.00,,,0.00,VWS V14.01,2013-03-10 12:27:00,
2013-03-10 08:28:00,34.3,23.1,29.76,WSW,248,0.0,0.0,63,0.00,,,0.00,VWS V14.01,2013-03-10 12:28:00,
2013-03-10 08:29:00,34.3,23.1,29.76,WSW,248,0.0,0.0,63,0.00,,,0.00,VWS V14.01,2013-03-10 12:29:00,
2013-03-10 08:30:00,34.3,22.7,29.74,SSW,202,1.3,1.3,62,0.00,,,0.00,VWS V14.01,2013-03-10 12:30:00,
2013-03-10 08:31:00,34.3,23.1,29.74,SSW,202,2.5,2.5,63,0.00,,,0.00,VWS V14.01,2013-03-10 12:31:00,
2013-03-10 08:32:00,34.5,23.2,29.74,South,180,2.0,2.0,63,0.00,,,0.00,VWS V14.01,2013-03-10 12:32:00,
2013-03-10 08:33:00,34.5,23.2,29.74,SSE,158,0.9,0.9,63,0.00,,,0.00,VWS V14.01,2013-03-10 12:33:00,
2013-03-10 08:34:00,34.5,22.9,29.74,SSE,158,2.0,2.0,62,0.00,,,0.00,VWS V14.01,2013-03-10 12:34:00,
2013-03-10 08:35:00,34.5,22.9,29.74,SSE,158,2.2,2.2,62,0.00,,,0.00,VWS V14.01,2013-03-10 12:35:00,
2013-03-10 08:36:00,34.7,23.0,29.74,SSE,158,2.0,2.0,62,0.00,,,0.00,VWS V14.01,2013-03-10 12:36:00,
2013-03-10 08:37:00,34.7,23.0,29.74,SSE,158,2.7,2.7,62,0.00,,,0.00,VWS V14.01,2013-03-10 12:37:00,
2013-03-10 08:38:00,34.9,23.2,29.74,SSE,158,2.5,2.5,62,0.00,,,0.00,VWS V14.01,2013-03-10 12:38:00,
2013-03-10 08:39:00,34.9,23.2,29.74,SSE,158,2.0,2.0,62,0.00,,,0.00,VWS V14.01,2013-03-10 12:39:00,
2013-03-10 08:40:00,34.9,23.2,29.74,SSE,158,1.6,1.6,62,0.00,,,0.00,VWS V14.01,2013-03-10 12:40:00,
2013-03-10 08:41:00,35.1,23.4,29.74,SE,135,3.4,3.4,62,0.00,,,0.00,VWS V14.01,2013-03-10 12:41:00,
2013-03-10 08:42:00,35.1,23.4,29.74,SSE,158,2.7,2.7,62,0.00,,,0.00,VWS V14.01,2013-03-10 12:42:00,
2013-03-10 08:43:00,35.1,23.4,29.74,SSE,158,3.4,3.4,62,0.00,,,0.00,VWS V14.01,2013-03-10 12:43:00,
2013-03-10 08:44:00,35.2,23.5,29.74,East,90,0.9,0.9,62,0.00,,,0.00,VWS V14.01,2013-03-10 12:44:00,
2013-03-10 08:45:00,35.2,23.5,29.74,SE,135,0.9,0.9,62,0.00,,,0.00,VWS V14.01,2013-03-10 12:45:00,
2013-03-10 08:46:00,35.4,23.7,29.74,SE,135,0.0,0.0,62,0.00,,,0.00,VWS V14.01,2013-03-10 12:46:00,
2013-03-10 08:47:00,35.4,23.7,29.74,NNE,22,0.0,0.0,62,0.00,,,0.00,VWS V14.01,2013-03-10 12:47:00,
2013-03-10 08:48:00,35.4,23.7,29.74,NNE,22,0.0,0.0,62,0.00,,,0.00,VWS V14.01,2013-03-10 12:48:00,
2013-03-10 08:49:00,35.6,23.5,29.74,NE,45,0.0,0.0,61,0.00,,,0.00,VWS V14.01,2013-03-10 12:49:00,
2013-03-10 08:50:00,35.6,23.5,29.74,NE,45,0.0,0.0,61,0.00,,,0.00,VWS V14.01,2013-03-10 12:50:00,
2013-03-10 08:51:00,35.6,23.5,29.74,NE,45,0.0,0.0,61,0.00,,,0.00,VWS V14.01,2013-03-10 12:51:00,
2013-03-10 08:52:00,35.6,23.5,29.74,NE,45,0.0,0.0,61,0.00,,,0.00,VWS V14.01,2013-03-10 12:52:00,
2013-03-10 08:53:00,35.6,23.5,29.74,ENE,68,0.0,0.0,61,0.00,,,0.00,VWS V14.01,2013-03-10 12:53:00,
2013-03-10 08:54:00,35.8,23.3,29.74,ENE,68,1.3,1.3,60,0.00,,,0.00,VWS V14.01,2013-03-10 12:54:00,
2013-03-10 08:55:00,35.8,23.7,29.74,ESE,112,2.2,2.2,61,0.00,,,0.00,VWS V14.01,2013-03-10 12:55:00,
2013-03-10 08:56:00,36.0,23.4,29.74,ESE,112,2.7,2.7,60,0.00,,,0.00,VWS V14.01,2013-03-10 12:56:00,
2013-03-10 08:57:00,36.0,23.4,29.74,ESE,112,0.0,0.0,60,0.00,,,0.00,VWS V14.01,2013-03-10 12:57:00,
2013-03-10 08:58:00,36.1,23.6,29.74,ESE,112,0.0,0.0,60,0.00,,,0.00,VWS V14.01,2013-03-10 12:58:00,
2013-03-10 08:59:00,36.1,23.6,29.74,ESE,112,0.0,0.0,60,0.00,,,0.00,VWS V14.01,2013-03-10 12:59:00,
2013-03-10 09:00:00,36.1,23.6,29.74,ESE,112,0.0,0.0,60,0.00,,,0.00,VWS V14.01,2013-03-10 13:00:00,
2013-03-10 09:01:00,36.1,23.6,29.74,ESE,112,1.6,1.6,60,0.00,,,0.00,VWS V14.01,2013-03-10 13:01:00,
2013-03-10 09:02:00,36.3,23.8,29.74,ESE,112,2.2,2.2,60,0.00,,,0.00,VWS V14.01,2013-03-10 13:02:00,
2013-03-10 09:03:00,36.3,23.8,29.74,ESE,112,1.3,1.3,60,0.00,,,0.00,VWS V14.01,2013-03-10 13:03:00,
2013-03-10 09:04:00,36.3,23.8,29.74,East,90,0.0,0.0,60,0.00,,,0.00,VWS V14.01,2013-03-10 13:04:00,
2013-03-10 09:05:00,36.5,24.0,29.74,ENE,68,0.0,0.0,60,0.00,,,0.00,VWS V14.01,2013-03-10 13:05:00,
2013-03-10 09:06:00,36.5,24.0,29.74,NE,45,1.1,1.1,60,0.00,,,0.00,VWS V14.01,2013-03-10 13:06:00,
2013-03-10 09:07:00,36.7,24.1,29.74,NE,45,2.2,2.2,60,0.00,,,0.00,VWS V14.01,2013-03-10 13:07:00,
2013-03-10 09:08:00,36.7,24.1,29.74,NE,45,2.7,2.7,60,0.00,,,0.00,VWS V14.01,2013-03-10 13:08:00,
2013-03-10 09:09:00,36.9,24.3,29.74,NE,45,3.4,3.4,60,0.00,,,0.00,VWS V14.01,2013-03-10 13:09:00,
2013-03-10 09:10:00,36.9,24.3,29.74,NE,45,3.6,3.6,60,0.00,,,0.00,VWS V14.01,2013-03-10 13:10:00,
2013-03-10 09:11:00,36.9,24.3,29.74,NNE,22,4.3,4.3,60,0.00,,,0.00,VWS V14.01,2013-03-10 13:11:00,
2013-03-10 09:12:00,36.9,24.3,29.74,NNE,22,4.0,4.0,60,0.00,,,0.00,VWS V14.01,2013-03-10 13:12:00,
2013-03-10 09:13:00,36.9,24.3,29.74,NNE,22,4.0,4.0,60,0.00,,,0.00,VWS V14.01,2013-03-10 13:13:00,
2013-03-10 09:14:00,36.9,24.3,29.74,NE,45,4.7,4.7,60,0.00,,,0.00,VWS V14.01,2013-03-10 13:14:00,
2013-03-10 09:15:00,36.9,24.3,29.74,NNE,22,4.9,4.9,60,0.00,,,0.00,VWS V14.01,2013-03-10 13:15:00,
2013-03-10 09:16:00,37.0,24.5,29.74,NE,45,3.8,3.8,60,0.00,,,0.00,VWS V14.01,2013-03-10 13:16:00,
2013-03-10 09:17:00,37.0,24.5,29.74,NE,45,3.1,3.1,60,0.00,,,0.00,VWS V14.01,2013-03-10 13:17:00,
2013-03-10 09:18:00,37.0,24.5,29.74,NE,45,3.6,3.6,60,0.00,,,0.00,VWS V14.01,2013-03-10 13:18:00,
2013-03-10 09:19:00,37.0,24.5,29.74,NE,45,1.6,1.6,60,0.00,,,0.00,VWS V14.01,2013-03-10 13:19:00,
2013-03-10 09:20:00,37.2,24.6,29.74,ENE,68,3.1,3.1,60,0.00,,,0.00,VWS V14.01,2013-03-10 13:20:00,
2013-03-10 09:21:00,37.2,24.6,29.74,ENE,68,2.7,2.7,60,0.00,,,0.00,VWS V14.01,2013-03-10 13:21:00,
2013-03-10 09:22:00,37.4,24.8,29.74,ESE,112,3.1,3.1,60,0.00,,,0.00,VWS V14.01,2013-03-10 13:22:00,
2013-03-10 09:23:00,37.4,24.8,29.74,SE,135,2.5,2.5,60,0.00,,,0.00,VWS V14.01,2013-03-10 13:23:00,
2013-03-10 09:24:00,37.4,24.8,29.74,SE,135,4.9,4.9,60,0.00,,,0.00,VWS V14.01,2013-03-10 13:24:00,
2013-03-10 09:25:00,37.6,25.0,29.74,SE,135,2.5,2.5,60,0.00,,,0.00,VWS V14.01,2013-03-10 13:25:00,
2013-03-10 09:26:00,37.6,25.0,29.74,SE,135,2.0,2.0,60,0.00,,,0.00,VWS V14.01,2013-03-10 13:26:00,
2013-03-10 09:27:00,37.8,25.1,29.74,SSE,158,3.6,3.6,60,0.00,,,0.00,VWS V14.01,2013-03-10 13:27:00,
2013-03-10 09:28:00,37.9,25.3,29.74,SE,135,2.9,2.9,60,0.00,,,0.00,VWS V14.01,2013-03-10 13:28:00,
2013-03-10 09:29:00,37.9,25.3,29.74,SE,135,2.7,2.7,60,0.00,,,0.00,VWS V14.01,2013-03-10 13:29:00,
2013-03-10 09:30:00,37.9,25.3,29.74,ESE,112,2.7,2.7,60,0.00,,,0.00,VWS V14.01,2013-03-10 13:30:00,
2013-03-10 09:31:00,38.1,25.5,29.74,SE,135,1.3,1.3,60,0.00,,,0.00,VWS V14.01,2013-03-10 13:31:00,
2013-03-10 09:32:00,38.1,25.5,29.74,SE,135,1.3,1.3,60,0.00,,,0.00,VWS V14.01,2013-03-10 13:32:00,
2013-03-10 09:33:00,38.3,25.6,29.74,SE,135,2.9,2.9,60,0.00,,,0.00,VWS V14.01,2013-03-10 13:33:00,
2013-03-10 09:34:00,38.5,25.8,29.74,SE,135,2.9,2.9,60,0.00,,,0.00,VWS V14.01,2013-03-10 13:34:00,
2013-03-10 09:35:00,38.5,25.8,29.74,ENE,68,2.0,2.0,60,0.00,,,0.00,VWS V14.01,2013-03-10 13:35:00,
2013-03-10 09:36:00,38.5,25.4,29.74,ENE,68,0.0,0.0,59,0.00,,,0.00,VWS V14.01,2013-03-10 13:36:00,
2013-03-10 09:37:00,38.7,25.6,29.74,NE,45,3.4,3.4,59,0.00,,,0.00,VWS V14.01,2013-03-10 13:37:00,
2013-03-10 09:38:00,38.7,25.6,29.74,NE,45,4.3,4.3,59,0.00,,,0.00,VWS V14.01,2013-03-10 13:38:00,
2013-03-10 09:39:00,38.8,25.8,29.74,NE,45,3.4,3.4,59,0.00,,,0.00,VWS V14.01,2013-03-10 13:39:00,
2013-03-10 09:40:00,38.8,25.8,29.74,NNE,22,4.3,4.3,59,0.00,,,0.00,VWS V14.01,2013-03-10 13:40:00,
2013-03-10 09:41:00,39.0,25.9,29.74,NNE,22,5.8,5.8,59,0.00,,,0.00,VWS V14.01,2013-03-10 13:41:00,
2013-03-10 09:42:00,39.0,25.9,29.74,NNE,22,5.8,5.8,59,0.00,,,0.00,VWS V14.01,2013-03-10 13:42:00,
2013-03-10 09:43:00,39.2,26.1,29.74,NE,45,5.4,5.4,59,0.00,,,0.00,VWS V14.01,2013-03-10 13:43:00,
2013-03-10 09:44:00,39.2,26.1,29.74,NE,45,5.6,5.6,59,0.00,,,0.00,VWS V14.01,2013-03-10 13:44:00,
2013-03-10 09:45:00,39.2,26.1,29.74,NE,45,5.8,5.8,59,0.00,,,0.00,VWS V14.01,2013-03-10 13:45:00,
2013-03-10 09:46:00,39.2,26.1,29.74,NE,45,4.9,4.9,59,0.00,,,0.00,VWS V14.01,2013-03-10 13:46:00,
2013-03-10 09:47:00,39.4,26.3,29.74,NNE,22,4.9,4.9,59,0.00,,,0.00,VWS V14.01,2013-03-10 13:47:00,
2013-03-10 09:48:00,39.4,26.3,29.74,NE,45,1.6,1.6,59,0.00,,,0.00,VWS V14.01,2013-03-10 13:48:00,
2013-03-10 09:49:00,39.4,26.3,29.74,NNE,22,2.9,2.9,59,0.00,,,0.00,VWS V14.01,2013-03-10 13:49:00,
2013-03-10 09:50:00,39.6,26.4,29.74,NNE,22,1.3,1.3,59,0.00,,,0.00,VWS V14.01,2013-03-10 13:50:00,
2013-03-10 09:51:00,39.6,26.0,29.74,NNE,22,0.0,0.0,58,0.00,,,0.00,VWS V14.01,2013-03-10 13:51:00,
2013-03-10 09:52:00,39.7,26.2,29.74,NE,45,1.3,1.3,58,0.00,,,0.00,VWS V14.01,2013-03-10 13:52:00,
2013-03-10 09:53:00,39.7,26.2,29.74,NNE,22,2.2,2.2,58,0.00,,,0.00,VWS V14.01,2013-03-10 13:53:00,
2013-03-10 09:54:00,39.7,26.2,29.74,NNE,22,0.0,0.0,58,0.00,,,0.00,VWS V14.01,2013-03-10 13:54:00,
2013-03-10 09:55:00,39.9,25.9,29.74,NNE,22,0.0,0.0,57,0.00,,,0.00,VWS V14.01,2013-03-10 13:55:00,
2013-03-10 09:56:00,39.9,25.9,29.74,NNE,22,0.0,0.0,57,0.00,,,0.00,VWS V14.01,2013-03-10 13:56:00,
2013-03-10 09:57:00,40.1,26.1,29.74,NNE,22,0.0,0.0,57,0.00,,,0.00,VWS V14.01,2013-03-10 13:57:00,
2013-03-10 09:58:00,40.3,26.3,29.74,NNE,22,1.3,1.3,57,0.00,,,0.00,VWS V14.01,2013-03-10 13:58:00,
2013-03-10 09:59:00,40.3,26.3,29.74,NE,45,1.6,1.6,57,0.00,,,0.00,VWS V14.01,2013-03-10 13:59:00,
2013-03-10 10:00:00,40.5,26.4,29.74,NNE,22,2.5,2.5,57,0.00,,,0.00,VWS V14.01,2013-03-10 14:00:00,
2013-03-10 10:01:00,40.5,26.4,29.74,NNE,22,3.8,3.8,57,0.00,,,0.00,VWS V14.01,2013-03-10 14:01:00,
2013-03-10 10:02:00,40.6,26.6,29.74,NE,45,4.9,4.9,57,0.00,,,0.00,VWS V14.01,2013-03-10 14:02:00,
2013-03-10 10:03:00,40.8,26.8,29.74,NE,45,4.7,4.7,57,0.00,,,0.00,VWS V14.01,2013-03-10 14:03:00,
2013-03-10 10:04:00,40.8,26.8,29.74,NE,45,4.5,4.5,57,0.00,,,0.00,VWS V14.01,2013-03-10 14:04:00,
2013-03-10 10:05:00,41.0,26.5,29.74,NNE,22,4.0,4.0,56,0.00,,,0.00,VWS V14.01,2013-03-10 14:05:00,
2013-03-10 10:06:00,41.0,26.5,29.74,NE,45,4.3,4.3,56,0.00,,,0.00,VWS V14.01,2013-03-10 14:06:00,
2013-03-10 10:07:00,41.2,26.7,29.74,NE,45,3.8,3.8,56,0.00,,,0.00,VWS V14.01,2013-03-10 14:07:00,
2013-03-10 10:08:00,41.2,26.7,29.74,NNE,22,4.9,4.9,56,0.00,,,0.00,VWS V14.01,2013-03-10 14:08:00,
2013-03-10 10:09:00,41.2,26.7,29.74,NNE,22,4.9,4.9,56,0.00,,,0.00,VWS V14.01,2013-03-10 14:09:00,
2013-03-10 10:10:00,41.4,26.9,29.74,NE,45,4.3,4.3,56,0.00,,,0.00,VWS V14.01,2013-03-10 14:10:00,
2013-03-10 10:11:00,41.5,27.0,29.74,NE,45,3.8,3.8,56,0.00,,,0.00,VWS V14.01,2013-03-10 14:11:00,
2013-03-10 10:12:00,41.5,27.0,29.74,NNE,22,4.5,4.5,56,0.00,,,0.00,VWS V14.01,2013-03-10 14:12:00,
2013-03-10 10:13:00,41.5,27.0,29.74,NE,45,5.6,5.6,56,0.00,,,0.00,VWS V14.01,2013-03-10 14:13:00,
2013-03-10 10:14:00,41.7,27.2,29.74,NE,45,2.9,2.9,56,0.00,,,0.00,VWS V14.01,2013-03-10 14:14:00,
2013-03-10 10:15:00,41.7,27.2,29.74,NNE,22,3.6,3.6,56,0.00,,,0.00,VWS V14.01,2013-03-10 14:15:00,
2013-03-10 10:16:00,41.7,27.2,29.74,NNE,22,4.0,4.0,56,0.00,,,0.00,VWS V14.01,2013-03-10 14:16:00,
2013-03-10 10:17:00,41.9,27.4,29.74,NNE,22,3.1,3.1,56,0.00,,,0.00,VWS V14.01,2013-03-10 14:17:00,
2013-03-10 10:18:00,42.1,27.5,29.74,NNE,22,2.9,2.9,56,0.00,,,0.00,VWS V14.01,2013-03-10 14:18:00,
2013-03-10 10:19:00,42.1,27.5,29.74,North,0,2.9,2.9,56,0.00,,,0.00,VWS V14.01,2013-03-10 14:19:00,
2013-03-10 10:20:00,42.1,27.5,29.74,NNE,22,3.4,3.4,56,0.00,,,0.00,VWS V14.01,2013-03-10 14:20:00,
2013-03-10 10:21:00,42.3,27.7,29.74,ESE,112,0.9,0.9,56,0.00,,,0.00,VWS V14.01,2013-03-10 14:21:00,
2013-03-10 10:22:00,42.3,27.3,29.74,SE,135,3.1,3.1,55,0.00,,,0.00,VWS V14.01,2013-03-10 14:22:00,
2013-03-10 10:23:00,42.4,27.4,29.74,SE,135,2.9,2.9,55,0.00,,,0.00,VWS V14.01,2013-03-10 14:23:00,
2013-03-10 10:24:00,42.4,27.4,29.74,SSE,158,2.5,2.5,55,0.00,,,0.00,VWS V14.01,2013-03-10 14:24:00,
2013-03-10 10:25:00,42.4,27.4,29.74,South,180,2.2,2.2,55,0.00,,,0.00,VWS V14.01,2013-03-10 14:25:00,
2013-03-10 10:26:00,42.8,27.8,29.74,SE,135,1.1,1.1,55,0.00,,,0.00,VWS V14.01,2013-03-10 14:26:00,
2013-03-10 10:27:00,42.8,27.8,29.74,SE,135,1.1,1.1,55,0.00,,,0.00,VWS V14.01,2013-03-10 14:27:00,
2013-03-10 10:28:00,43.0,27.9,29.74,SSE,158,1.3,1.3,55,0.00,,,0.00,VWS V14.01,2013-03-10 14:28:00,
2013-03-10 10:29:00,43.0,27.9,29.74,SSE,158,2.0,2.0,55,0.00,,,0.00,VWS V14.01,2013-03-10 14:29:00,
2013-03-10 10:30:00,43.2,28.1,29.74,SSE,158,3.4,3.4,55,0.00,,,0.00,VWS V14.01,2013-03-10 14:30:00,
2013-03-10 10:31:00,43.3,28.3,29.74,SE,135,3.1,3.1,55,0.00,,,0.00,VWS V14.01,2013-03-10 14:31:00,
2013-03-10 10:32:00,43.5,28.0,29.74,ESE,112,1.1,1.1,54,0.00,,,0.00,VWS V14.01,2013-03-10 14:32:00,
2013-03-10 10:33:00,43.5,28.0,29.74,SE,135,2.9,2.9,54,0.00,,,0.00,VWS V14.01,2013-03-10 14:33:00,
2013-03-10 10:34:00,43.7,28.2,29.74,ESE,112,1.6,1.6,54,0.00,,,0.00,VWS V14.01,2013-03-10 14:34:00,
2013-03-10 10:35:00,43.9,28.3,29.74,East,90,2.5,2.5,54,0.00,,,0.00,VWS V14.01,2013-03-10 14:35:00,
2013-03-10 10:36:00,43.9,28.3,29.74,ESE,112,2.9,2.9,54,0.00,,,0.00,VWS V14.01,2013-03-10 14:36:00,
2013-03-10 10:37:00,44.1,28.5,29.74,NE,45,0.0,0.0,54,0.00,,,0.00,VWS V14.01,2013-03-10 14:37:00,
2013-03-10 10:38:00,44.1,28.5,29.74,NE,45,2.0,2.0,54,0.00,,,0.00,VWS V14.01,2013-03-10 14:38:00,
2013-03-10 10:39:00,44.1,28.0,29.74,NE,45,0.9,0.9,53,0.00,,,0.00,VWS V14.01,2013-03-10 14:39:00,
2013-03-10 10:40:00,44.2,28.2,29.74,NNE,22,1.3,1.3,53,0.00,,,0.00,VWS V14.01,2013-03-10 14:40:00,
2013-03-10 10:41:00,44.2,28.2,29.74,NNE,22,1.6,1.6,53,0.00,,,0.00,VWS V14.01,2013-03-10 14:41:00,
2013-03-10 10:42:00,44.2,28.2,29.74,NNE,22,0.0,0.0,53,0.00,,,0.00,VWS V14.01,2013-03-10 14:42:00,
2013-03-10 10:43:00,44.2,28.2,29.74,NNE,22,0.0,0.0,53,0.00,,,0.00,VWS V14.01,2013-03-10 14:43:00,
2013-03-10 10:44:00,44.4,27.9,29.74,NNE,22,2.0,2.0,52,0.00,,,0.00,VWS V14.01,2013-03-10 14:44:00,
2013-03-10 10:45:00,44.4,27.9,29.74,NNE,22,0.0,0.0,52,0.00,,,0.00,VWS V14.01,2013-03-10 14:45:00,
2013-03-10 10:46:00,44.4,27.9,29.74,NNE,22,3.4,3.4,52,0.00,,,0.00,VWS V14.01,2013-03-10 14:46:00,
2013-03-10 10:47:00,44.4,27.9,29.74,NNE,22,0.0,0.0,52,0.00,,,0.00,VWS V14.01,2013-03-10 14:47:00,
2013-03-10 10:48:00,44.6,28.1,29.74,ENE,68,0.0,0.0,52,0.00,,,0.00,VWS V14.01,2013-03-10 14:48:00,
2013-03-10 10:49:00,44.6,27.6,29.74,NE,45,1.3,1.3,51,0.00,,,0.00,VWS V14.01,2013-03-10 14:49:00,
2013-03-10 10:50:00,44.6,28.1,29.74,SSE,158,0.0,0.0,52,0.00,,,0.00,VWS V14.01,2013-03-10 14:50:00,
2013-03-10 10:51:00,44.6,28.1,29.74,SSW,202,2.5,2.5,52,0.00,,,0.00,VWS V14.01,2013-03-10 14:51:00,
2013-03-10 10:52:00,44.8,27.8,29.74,WSW,248,2.5,2.5,51,0.00,,,0.00,VWS V14.01,2013-03-10 14:52:00,
2013-03-10 10:53:00,44.8,27.8,29.74,SSW,202,2.0,2.0,51,0.00,,,0.00,VWS V14.01,2013-03-10 14:53:00,
2013-03-10 10:54:00,44.8,27.8,29.74,SSW,202,1.6,1.6,51,0.00,,,0.00,VWS V14.01,2013-03-10 14:54:00,
2013-03-10 10:55:00,45.0,27.9,29.74,SSE,158,5.8,5.8,51,0.00,,,0.00,VWS V14.01,2013-03-10 14:55:00,
2013-03-10 10:56:00,45.3,27.8,29.74,SE,135,3.4,3.4,50,0.00,,,0.00,VWS V14.01,2013-03-10 14:56:00,
2013-03-10 10:57:00,45.5,28.0,29.74,SSE,158,3.6,3.6,50,0.00,,,0.00,VWS V14.01,2013-03-10 14:57:00,
2013-03-10 10:58:00,45.7,28.1,29.74,South,180,4.5,4.5,50,0.00,,,0.00,VWS V14.01,2013-03-10 14:58:00,
2013-03-10 10:59:00,45.9,28.3,29.74,SSW,202,5.8,5.8,50,0.00,,,0.00,VWS V14.01,2013-03-10 14:59:00,
2013-03-10 11:00:00,46.0,28.5,29.74,South,180,4.9,4.9,50,0.00,,,0.00,VWS V14.01,2013-03-10 15:00:00,
2013-03-10 11:01:00,46.0,28.5,29.74,SSW,202,9.6,9.6,50,0.00,,,0.00,VWS V14.01,2013-03-10 15:01:00,
2013-03-10 11:02:00,46.6,28.5,29.74,South,180,5.4,5.4,49,0.00,,,0.00,VWS V14.01,2013-03-10 15:02:00,
2013-03-10 11:03:00,46.9,28.8,29.74,SE,135,4.0,4.0,49,0.00,,,0.00,VWS V14.01,2013-03-10 15:03:00,
2013-03-10 11:04:00,47.1,29.0,29.74,SSE,158,5.6,5.6,49,0.00,,,0.00,VWS V14.01,2013-03-10 15:04:00,
2013-03-10 11:05:00,47.1,29.0,29.74,SSW,202,11.0,11.0,49,0.00,,,0.00,VWS V14.01,2013-03-10 15:05:00,
2013-03-10 11:06:00,47.5,28.3,29.74,South,180,5.8,5.8,47,0.00,,,0.00,VWS V14.01,2013-03-10 15:06:00,
2013-03-10 11:07:00,47.7,28.4,29.74,SSW,202,4.9,4.9,47,0.00,,,0.00,VWS V14.01,2013-03-10 15:07:00,
2013-03-10 11:08:00,47.8,28.6,29.74,South,180,5.4,5.4,47,0.00,,,0.00,VWS V14.01,2013-03-10 15:08:00,
2013-03-10 11:09:00,48.0,28.8,29.74,SW,225,4.3,4.3,47,0.00,,,0.00,VWS V14.01,2013-03-10 15:09:00,
2013-03-10 11:10:00,48.0,28.8,29.74,SSW,202,11.0,11.0,47,0.00,,,0.00,VWS V14.01,2013-03-10 15:10:00,
2013-03-10 11:11:00,48.4,26.9,29.74,South,180,6.3,6.3,43,0.00,,,0.00,VWS V14.01,2013-03-10 15:11:00,
2013-03-10 11:12:00,48.6,26.5,29.74,SSW,202,7.2,7.2,42,0.00,,,0.00,VWS V14.01,2013-03-10 15:12:00,
2013-03-10 11:13:00,48.6,27.1,29.74,South,180,6.5,6.5,43,0.00,,,0.00,VWS V14.01,2013-03-10 15:13:00,
2013-03-10 11:14:00,48.7,27.3,29.74,SSW,202,13.2,13.2,43,0.00,,,0.00,VWS V14.01,2013-03-10 15:14:00,
2013-03-10 11:15:00,48.7,26.7,29.74,SSW,202,7.8,7.8,42,0.00,,,0.00,VWS V14.01,2013-03-10 15:15:00,
2013-03-10 11:16:00,48.7,26.7,29.74,SSW,202,5.6,5.6,42,0.00,,,0.00,VWS V14.01,2013-03-10 15:16:00,
2013-03-10 11:17:00,48.9,26.9,29.74,SSW,202,12.3,12.3,42,0.00,,,0.00,VWS V14.01,2013-03-10 15:17:00,
2013-03-10 11:18:00,49.1,27.0,29.74,SSW,202,6.0,6.0,42,0.00,,,0.00,VWS V14.01,2013-03-10 15:18:00,
2013-03-10 11:19:00,49.1,26.4,29.74,South,180,4.3,4.3,41,0.00,,,0.00,VWS V14.01,2013-03-10 15:19:00,
2013-03-10 11:20:00,49.3,26.6,29.74,South,180,5.4,5.4,41,0.00,,,0.00,VWS V14.01,2013-03-10 15:20:00,
2013-03-10 11:21:00,49.3,26.0,29.74,SSW,202,6.3,6.3,40,0.00,,,0.00,VWS V14.01,2013-03-10 15:21:00,
2013-03-10 11:22:00,49.3,26.6,29.74,South,180,8.5,8.5,41,0.00,,,0.00,VWS V14.01,2013-03-10 15:22:00,
2013-03-10 11:23:00,49.5,26.8,29.74,SSE,158,7.4,7.4,41,0.00,,,0.00,VWS V14.01,2013-03-10 15:23:00,
2013-03-10 11:24:00,49.5,26.8,29.74,South,180,9.4,9.4,41,0.00,,,0.00,VWS V14.01,2013-03-10 15:24:00,
2013-03-10 11:25:00,49.5,26.8,29.74,SSW,202,10.5,10.5,41,0.00,,,0.00,VWS V14.01,2013-03-10 15:25:00,
2013-03-10 11:26:00,49.6,26.9,29.74,South,180,5.8,5.8,41,0.00,,,0.00,VWS V14.01,2013-03-10 15:26:00,
2013-03-10 11:27:00,49.6,26.3,29.74,South,180,10.7,10.7,40,0.00,,,0.00,VWS V14.01,2013-03-10 15:27:00,
2013-03-10 11:28:00,49.8,26.5,29.74,South,180,8.5,8.5,40,0.00,,,0.00,VWS V14.01,2013-03-10 15:28:00,
2013-03-10 11:29:00,49.8,27.1,29.74,SSW,202,7.6,7.6,41,0.00,,,0.00,VWS V14.01,2013-03-10 15:29:00,
2013-03-10 11:30:00,49.8,26.5,29.74,SSW,202,8.7,8.7,40,0.00,,,0.00,VWS V14.01,2013-03-10 15:30:00,
2013-03-10 11:31:00,49.8,26.5,29.74,South,180,5.8,5.8,40,0.00,,,0.00,VWS V14.01,2013-03-10 15:31:00,
2013-03-10 11:32:00,50.0,26.6,29.74,SSE,158,7.4,7.4,40,0.00,,,0.00,VWS V14.01,2013-03-10 15:32:00,
2013-03-10 11:33:00,50.0,26.6,29.74,South,180,5.4,5.4,40,0.00,,,0.00,VWS V14.01,2013-03-10 15:33:00,
2013-03-10 11:34:00,50.0,26.0,29.74,SSW,202,6.0,6.0,39,0.00,,,0.00,VWS V14.01,2013-03-10 15:34:00,
2013-03-10 11:35:00,50.2,26.2,29.74,SSW,202,6.9,6.9,39,0.00,,,0.00,VWS V14.01,2013-03-10 15:35:00,
2013-03-10 11:36:00,50.2,26.2,29.74,SSE,158,4.9,4.9,39,0.00,,,0.00,VWS V14.01,2013-03-10 15:36:00,
2013-03-10 11:37:00,50.2,26.2,29.74,South,180,9.8,9.8,39,0.00,,,0.00,VWS V14.01,2013-03-10 15:37:00,
2013-03-10 11:38:00,50.2,26.8,29.74,SSW,202,8.5,8.5,40,0.00,,,0.00,VWS V14.01,2013-03-10 15:38:00,
2013-03-10 11:39:00,50.2,26.2,29.74,South,180,5.8,5.8,39,0.00,,,0.00,VWS V14.01,2013-03-10 15:39:00,
2013-03-10 11:40:00,50.2,26.2,29.74,SSW,202,6.5,6.5,39,0.00,,,0.00,VWS V14.01,2013-03-10 15:40:00,
2013-03-10 11:41:00,50.2,26.2,29.74,SSE,158,6.0,6.0,39,0.00,,,0.00,VWS V14.01,2013-03-10 15:41:00,
2013-03-10 11:42:00,50.2,26.2,29.74,South,180,7.8,7.8,39,0.00,,,0.00,VWS V14.01,2013-03-10 15:42:00,
2013-03-10 11:43:00,50.2,26.2,29.74,SSW,202,6.0,6.0,39,0.00,,,0.00,VWS V14.01,2013-03-10 15:43:00,
2013-03-10 11:44:00,50.2,26.2,29.74,South,180,6.0,6.0,39,0.00,,,0.00,VWS V14.01,2013-03-10 15:44:00,
2013-03-10 11:45:00,50.2,26.2,29.74,South,180,4.3,4.3,39,0.00,,,0.00,VWS V14.01,2013-03-10 15:45:00,
2013-03-10 11:46:00,50.4,26.4,29.74,SSE,158,9.8,9.8,39,0.00,,,0.00,VWS V14.01,2013-03-10 15:46:00,
2013-03-10 11:47:00,50.4,26.4,29.74,SW,225,5.8,5.8,39,0.00,,,0.00,VWS V14.01,2013-03-10 15:47:00,
2013-03-10 11:48:00,50.4,26.4,29.74,SSW,202,3.6,3.6,39,0.00,,,0.00,VWS V14.01,2013-03-10 15:48:00,
2013-03-10 11:49:00,50.5,26.5,29.74,SSW,202,6.0,6.0,39,0.00,,,0.00,VWS V14.01,2013-03-10 15:49:00,
2013-03-10 11:50:00,50.5,26.5,29.74,SSW,202,5.4,5.4,39,0.00,,,0.00,VWS V14.01,2013-03-10 15:50:00,
2013-03-10 11:51:00,50.5,26.5,29.74,WSW,248,5.6,5.6,39,0.00,,,0.00,VWS V14.01,2013-03-10 15:51:00,
2013-03-10 11:52:00,50.7,26.0,29.74,SSW,202,2.0,2.0,38,0.00,,,0.00,VWS V14.01,2013-03-10 15:52:00,
2013-03-10 11:53:00,50.7,26.7,29.74,SSW,202,9.0,9.0,39,0.00,,,0.00,VWS V14.01,2013-03-10 15:53:00,
2013-03-10 11:54:00,50.9,26.8,29.74,South,180,6.3,6.3,39,0.00,,,0.00,VWS V14.01,2013-03-10 15:54:00,
2013-03-10 11:55:00,50.9,26.8,29.74,SSW,202,9.6,9.6,39,0.00,,,0.00,VWS V14.01,2013-03-10 15:55:00,
2013-03-10 11:56:00,51.1,27.0,29.74,SSW,202,9.8,9.8,39,0.00,,,0.00,VWS V14.01,2013-03-10 15:56:00,
2013-03-10 11:57:00,51.3,27.2,29.74,South,180,3.6,3.6,39,0.00,,,0.00,VWS V14.01,2013-03-10 15:57:00,
2013-03-10 11:58:00,51.3,27.2,29.74,SSW,202,8.5,8.5,39,0.00,,,0.00,VWS V14.01,2013-03-10 15:58:00,
2013-03-10 11:59:00,51.4,26.7,29.74,SSW,202,7.6,7.6,38,0.00,,,0.00,VWS V14.01,2013-03-10 15:59:00,
2013-03-10 12:00:00,51.4,26.7,29.74,SSW,202,6.0,6.0,38,0.00,,,0.00,VWS V14.01,2013-03-10 16:00:00,
2013-03-10 12:01:00,51.6,27.5,29.74,SSW,202,3.6,3.6,39,0.00,,,0.00,VWS V14.01,2013-03-10 16:01:00,
2013-03-10 12:02:00,51.6,27.5,29.74,SSW,202,4.3,4.3,39,0.00,,,0.00,VWS V14.01,2013-03-10 16:02:00,
2013-03-10 12:03:00,51.8,27.0,29.74,South,180,6.5,6.5,38,0.00,,,0.00,VWS V14.01,2013-03-10 16:03:00,
2013-03-10 12:04:00,51.8,27.0,29.74,WSW,248,2.9,2.9,38,0.00,,,0.00,VWS V14.01,2013-03-10 16:04:00,
2013-03-10 12:05:00,52.0,27.2,29.74,SSW,202,3.6,3.6,38,0.00,,,0.00,VWS V14.01,2013-03-10 16:05:00,
2013-03-10 12:06:00,52.0,27.2,29.74,SSW,202,5.8,5.8,38,0.00,,,0.00,VWS V14.01,2013-03-10 16:06:00,
2013-03-10 12:07:00,52.0,27.2,29.74,SSW,202,6.0,6.0,38,0.00,,,0.00,VWS V14.01,2013-03-10 16:07:00,
2013-03-10 12:08:00,52.2,26.7,29.74,SSW,202,8.7,8.7,37,0.00,,,0.00,VWS V14.01,2013-03-10 16:08:00,
2013-03-10 12:09:00,52.2,26.7,29.74,SSW,202,5.4,5.4,37,0.00,,,0.00,VWS V14.01,2013-03-10 16:09:00,
2013-03-10 12:10:00,52.2,26.7,29.74,SSE,158,13.9,13.9,37,0.00,,,0.00,VWS V14.01,2013-03-10 16:10:00,
2013-03-10 12:11:00,52.2,26.7,29.74,South,180,7.4,7.4,37,0.00,,,0.00,VWS V14.01,2013-03-10 16:11:00,
2013-03-10 12:12:00,52.2,26.7,29.74,SW,225,7.8,7.8,37,0.00,,,0.00,VWS V14.01,2013-03-10 16:12:00,
2013-03-10 12:13:00,52.2,26.7,29.74,SSW,202,8.5,8.5,37,0.00,,,0.00,VWS V14.01,2013-03-10 16:13:00,
2013-03-10 12:14:00,52.3,26.9,29.74,SSE,158,6.9,6.9,37,0.00,,,0.00,VWS V14.01,2013-03-10 16:14:00,
2013-03-10 12:15:00,52.3,26.9,29.74,South,180,8.1,8.1,37,0.00,,,0.00,VWS V14.01,2013-03-10 16:15:00,
2013-03-10 12:16:00,52.3,26.9,29.74,South,180,9.6,9.6,37,0.00,,,0.00,VWS V14.01,2013-03-10 16:16:00,
2013-03-10 12:17:00,52.3,26.9,29.74,SSW,202,3.8,3.8,37,0.00,,,0.00,VWS V14.01,2013-03-10 16:17:00,
2013-03-10 12:18:00,52.5,27.0,29.74,South,180,7.8,7.8,37,0.00,,,0.00,VWS V14.01,2013-03-10 16:18:00,
2013-03-10 12:19:00,52.5,27.0,29.74,SSW,202,10.5,10.5,37,0.00,,,0.00,VWS V14.01,2013-03-10 16:19:00,
2013-03-10 12:20:00,52.5,27.0,29.74,SSW,202,7.8,7.8,37,0.00,,,0.00,VWS V14.01,2013-03-10 16:20:00,
2013-03-10 12:21:00,52.7,27.2,29.74,SSW,202,10.7,10.7,37,0.00,,,0.00,VWS V14.01,2013-03-10 16:21:00,
2013-03-10 12:22:00,52.7,27.2,29.74,West,270,4.9,4.9,37,0.00,,,0.00,VWS V14.01,2013-03-10 16:22:00,
2013-03-10 12:23:00,52.7,27.2,29.74,SSW,202,6.0,6.0,37,0.00,,,0.00,VWS V14.01,2013-03-10 16:23:00,
2013-03-10 12:24:00,52.7,27.2,29.74,SSE,158,10.5,10.5,37,0.00,,,0.00,VWS V14.01,2013-03-10 16:24:00,
2013-03-10 12:25:00,52.7,27.2,29.74,SSE,158,4.9,4.9,37,0.00,,,0.00,VWS V14.01,2013-03-10 16:25:00,
2013-03-10 12:26:00,52.7,27.2,29.74,South,180,5.6,5.6,37,0.00,,,0.00,VWS V14.01,2013-03-10 16:26:00,
2013-03-10 12:27:00,52.9,27.3,29.74,SSE,158,4.9,4.9,37,0.00,,,0.00,VWS V14.01,2013-03-10 16:27:00,
2013-03-10 12:28:00,53.1,27.5,29.74,South,180,5.4,5.4,37,0.00,,,0.00,VWS V14.01,2013-03-10 16:28:00,
2013-03-10 12:29:00,53.1,27.5,29.74,SSW,202,6.5,6.5,37,0.00,,,0.00,VWS V14.01,2013-03-10 16:29:00,
2013-03-10 12:30:00,53.2,27.7,29.71,SSW,202,3.1,3.1,37,0.00,,,0.00,VWS V14.01,2013-03-10 16:30:00,
2013-03-10 12:31:00,53.2,27.7,29.71,SSW,202,6.5,6.5,37,0.00,,,0.00,VWS V14.01,2013-03-10 16:31:00,
2013-03-10 12:32:00,53.4,27.8,29.71,SSW,202,9.8,9.8,37,0.00,,,0.00,VWS V14.01,2013-03-10 16:32:00,
2013-03-10 12:33:00,53.4,27.8,29.71,South,180,6.5,6.5,37,0.00,,,0.00,VWS V14.01,2013-03-10 16:33:00,
2013-03-10 12:34:00,53.6,28.0,29.71,South,180,6.5,6.5,37,0.00,,,0.00,VWS V14.01,2013-03-10 16:34:00,
2013-03-10 12:35:00,53.6,28.0,29.71,South,180,8.1,8.1,37,0.00,,,0.00,VWS V14.01,2013-03-10 16:35:00,
2013-03-10 12:36:00,53.6,28.0,29.71,South,180,5.4,5.4,37,0.00,,,0.00,VWS V14.01,2013-03-10 16:36:00,
2013-03-10 12:37:00,53.8,28.1,29.71,SSW,202,7.4,7.4,37,0.00,,,0.00,VWS V14.01,2013-03-10 16:37:00,
2013-03-10 12:38:00,53.8,28.1,29.71,South,180,8.7,8.7,37,0.00,,,0.00,VWS V14.01,2013-03-10 16:38:00,
2013-03-10 12:39:00,53.8,28.1,29.71,SSW,202,3.6,3.6,37,0.00,,,0.00,VWS V14.01,2013-03-10 16:39:00,
2013-03-10 12:40:00,54.0,27.6,29.71,SSW,202,10.3,10.3,36,0.00,,,0.00,VWS V14.01,2013-03-10 16:40:00,
2013-03-10 12:41:00,54.0,27.6,29.71,SSW,202,11.0,11.0,36,0.00,,,0.00,VWS V14.01,2013-03-10 16:41:00,
2013-03-10 12:42:00,54.0,27.6,29.71,South,180,6.9,6.9,36,0.00,,,0.00,VWS V14.01,2013-03-10 16:42:00,
2013-03-10 12:43:00,54.0,27.6,29.71,SW,225,7.8,7.8,36,0.00,,,0.00,VWS V14.01,2013-03-10 16:43:00,
2013-03-10 12:44:00,54.0,27.6,29.71,SSW,202,5.8,5.8,36,0.00,,,0.00,VWS V14.01,2013-03-10 16:44:00,
2013-03-10 12:45:00,54.0,27.6,29.71,South,180,5.6,5.6,36,0.00,,,0.00,VWS V14.01,2013-03-10 16:45:00,
2013-03-10 12:46:00,54.0,27.6,29.71,South,180,6.0,6.0,36,0.00,,,0.00,VWS V14.01,2013-03-10 16:46:00,
2013-03-10 12:47:00,54.0,27.6,29.71,SSW,202,10.7,10.7,36,0.00,,,0.00,VWS V14.01,2013-03-10 16:47:00,
2013-03-10 12:48:00,53.8,27.5,29.71,South,180,6.5,6.5,36,0.00,,,0.00,VWS V14.01,2013-03-10 16:48:00,
2013-03-10 12:49:00,53.8,26.8,29.71,SW,225,8.7,8.7,35,0.00,,,0.00,VWS V14.01,2013-03-10 16:49:00,
2013-03-10 12:50:00,53.8,27.5,29.71,SSW,202,8.1,8.1,36,0.00,,,0.00,VWS V14.01,2013-03-10 16:50:00,
2013-03-10 12:51:00,53.8,27.5,29.71,WSW,248,7.6,7.6,36,0.00,,,0.00,VWS V14.01,2013-03-10 16:51:00,
2013-03-10 12:52:00,53.8,27.5,29.71,SSW,202,10.5,10.5,36,0.00,,,0.00,VWS V14.01,2013-03-10 16:52:00,
2013-03-10 12:53:00,53.8,26.8,29.71,SSW,202,6.0,6.0,35,0.00,,,0.00,VWS V14.01,2013-03-10 16:53:00,
2013-03-10 12:54:00,54.0,27.6,29.71,SW,225,9.8,9.8,36,0.00,,,0.00,VWS V14.01,2013-03-10 16:54:00,
2013-03-10 12:55:00,54.1,27.8,29.71,WSW,248,7.8,7.8,36,0.00,,,0.00,VWS V14.01,2013-03-10 16:55:00,
2013-03-10 12:56:00,54.3,28.0,29.71,SSW,202,5.8,5.8,36,0.00,,,0.00,VWS V14.01,2013-03-10 16:56:00,
2013-03-10 12:57:00,54.3,28.0,29.71,SSW,202,5.8,5.8,36,0.00,,,0.00,VWS V14.01,2013-03-10 16:57:00,
2013-03-10 12:58:00,54.5,28.1,29.71,SE,135,7.8,7.8,36,0.00,,,0.00,VWS V14.01,2013-03-10 16:58:00,
2013-03-10 12:59:00,54.5,28.1,29.71,SSW,202,8.5,8.5,36,0.00,,,0.00,VWS V14.01,2013-03-10 16:59:00,
2013-03-10 13:00:00,54.7,28.3,29.68,SSW,202,10.3,10.3,36,0.00,,,0.00,VWS V14.01,2013-03-10 17:00:00,
2013-03-10 13:01:00,54.7,28.3,29.68,South,180,6.0,6.0,36,0.00,,,0.00,VWS V14.01,2013-03-10 17:01:00,
2013-03-10 13:02:00,54.9,28.4,29.68,WSW,248,7.4,7.4,36,0.00,,,0.00,VWS V14.01,2013-03-10 17:02:00,
2013-03-10 13:03:00,55.0,28.6,29.68,SE,135,6.3,6.3,36,0.00,,,0.00,VWS V14.01,2013-03-10 17:03:00,
2013-03-10 13:04:00,55.2,28.8,29.68,South,180,7.2,7.2,36,0.00,,,0.00,VWS V14.01,2013-03-10 17:04:00,
2013-03-10 13:05:00,55.2,28.8,29.68,South,180,5.8,5.8,36,0.00,,,0.00,VWS V14.01,2013-03-10 17:05:00,
2013-03-10 13:06:00,55.4,28.2,29.68,South,180,5.4,5.4,35,0.00,,,0.00,VWS V14.01,2013-03-10 17:06:00,
2013-03-10 13:07:00,55.4,28.9,29.68,SSE,158,6.3,6.3,36,0.00,,,0.00,VWS V14.01,2013-03-10 17:07:00,
2013-03-10 13:08:00,55.6,29.1,29.68,South,180,7.6,7.6,36,0.00,,,0.00,VWS V14.01,2013-03-10 17:08:00,
2013-03-10 13:09:00,55.8,29.2,29.68,South,180,6.5,6.5,36,0.00,,,0.00,VWS V14.01,2013-03-10 17:09:00,
2013-03-10 13:10:00,55.9,29.4,29.68,South,180,2.5,2.5,36,0.00,,,0.00,VWS V14.01,2013-03-10 17:10:00,
2013-03-10 13:11:00,55.9,29.4,29.68,WSW,248,6.7,6.7,36,0.00,,,0.00,VWS V14.01,2013-03-10 17:11:00,
2013-03-10 13:12:00,56.1,28.9,29.68,South,180,9.2,9.2,35,0.00,,,0.00,VWS V14.01,2013-03-10 17:12:00,
2013-03-10 13:13:00,56.3,29.0,29.68,SW,225,9.2,9.2,35,0.00,,,0.00,VWS V14.01,2013-03-10 17:13:00,
2013-03-10 13:14:00,56.3,29.0,29.68,SW,225,10.5,10.5,35,0.00,,,0.00,VWS V14.01,2013-03-10 17:14:00,
2013-03-10 13:15:00,56.5,29.2,29.68,SSW,202,6.3,6.3,35,0.00,,,0.00,VWS V14.01,2013-03-10 17:15:00,
2013-03-10 13:16:00,56.5,29.2,29.68,SSW,202,5.4,5.4,35,0.00,,,0.00,VWS V14.01,2013-03-10 17:16:00,
2013-03-10 13:17:00,56.5,29.2,29.68,SE,135,10.7,10.7,35,0.00,,,0.00,VWS V14.01,2013-03-10 17:17:00,
2013-03-10 13:18:00,56.3,29.0,29.68,South,180,9.8,9.8,35,0.00,,,0.00,VWS V14.01,2013-03-10 17:18:00,
2013-03-10 13:19:00,56.3,29.0,29.68,SW,225,4.9,4.9,35,0.00,,,0.00,VWS V14.01,2013-03-10 17:19:00,
2013-03-10 13:20:00,56.1,28.9,29.68,WSW,248,6.0,6.0,35,0.00,,,0.00,VWS V14.01,2013-03-10 17:20:00,
2013-03-10 13:21:00,56.1,28.9,29.68,South,180,9.8,9.8,35,0.00,,,0.00,VWS V14.01,2013-03-10 17:21:00,
2013-03-10 13:22:00,56.1,28.9,29.68,SSW,202,7.4,7.4,35,0.00,,,0.00,VWS V14.01,2013-03-10 17:22:00,
2013-03-10 13:23:00,56.1,28.9,29.68,SSW,202,3.1,3.1,35,0.00,,,0.00,VWS V14.01,2013-03-10 17:23:00,
2013-03-10 13:24:00,56.1,28.9,29.68,South,180,11.9,11.9,35,0.00,,,0.00,VWS V14.01,2013-03-10 17:24:00,
2013-03-10 13:25:00,56.1,28.9,29.68,South,180,11.4,11.4,35,0.00,,,0.00,VWS V14.01,2013-03-10 17:25:00,
2013-03-10 13:26:00,56.3,29.0,29.68,SSW,202,16.1,16.1,35,0.00,,,0.00,VWS V14.01,2013-03-10 17:26:00,
2013-03-10 13:27:00,56.3,29.0,29.68,SW,225,5.8,5.8,35,0.00,,,0.00,VWS V14.01,2013-03-10 17:27:00,
2013-03-10 13:28:00,56.5,29.2,29.68,SSW,202,7.6,7.6,35,0.00,,,0.00,VWS V14.01,2013-03-10 17:28:00,
2013-03-10 13:29:00,56.7,29.3,29.68,SSW,202,13.6,13.6,35,0.00,,,0.00,VWS V14.01,2013-03-10 17:29:00,
2013-03-10 13:30:00,56.7,28.6,29.68,SSW,202,12.1,12.1,34,0.00,,,0.00,VWS V14.01,2013-03-10 17:30:00,
2013-03-10 13:31:00,56.8,28.8,29.68,West,270,6.3,6.3,34,0.00,,,0.00,VWS V14.01,2013-03-10 17:31:00,
2013-03-10 13:32:00,57.0,29.0,29.68,West,270,14.3,14.3,34,0.00,,,0.00,VWS V14.01,2013-03-10 17:32:00,
2013-03-10 13:33:00,57.0,29.0,29.68,SSW,202,12.5,12.5,34,0.00,,,0.00,VWS V14.01,2013-03-10 17:33:00,
2013-03-10 13:34:00,57.2,28.4,29.68,South,180,6.5,6.5,33,0.00,,,0.00,VWS V14.01,2013-03-10 17:34:00,
2013-03-10 13:35:00,57.4,28.5,29.68,SSW,202,5.6,5.6,33,0.00,,,0.00,VWS V14.01,2013-03-10 17:35:00,
2013-03-10 13:36:00,57.4,27.8,29.68,SSW,202,11.2,11.2,32,0.00,,,0.00,VWS V14.01,2013-03-10 17:36:00,
2013-03-10 13:37:00,57.4,27.8,29.68,South,180,4.3,4.3,32,0.00,,,0.00,VWS V14.01,2013-03-10 17:37:00,
2013-03-10 13:38:00,57.6,28.7,29.68,SSW,202,7.2,7.2,33,0.00,,,0.00,VWS V14.01,2013-03-10 17:38:00,
2013-03-10 13:39:00,57.6,28.7,29.68,South,180,6.3,6.3,33,0.00,,,0.00,VWS V14.01,2013-03-10 17:39:00,
2013-03-10 13:40:00,57.6,28.7,29.68,SW,225,6.5,6.5,33,0.00,,,0.00,VWS V14.01,2013-03-10 17:40:00,
2013-03-10 13:41:00,57.6,28.7,29.68,SSW,202,7.8,7.8,33,0.00,,,0.00,VWS V14.01,2013-03-10 17:41:00,
2013-03-10 13:42:00,57.7,28.9,29.68,South,180,8.7,8.7,33,0.00,,,0.00,VWS V14.01,2013-03-10 17:42:00,
2013-03-10 13:43:00,57.9,29.0,29.68,South,180,11.0,11.0,33,0.00,,,0.00,VWS V14.01,2013-03-10 17:43:00,
2013-03-10 13:44:00,57.9,29.0,29.68,South,180,10.3,10.3,33,0.00,,,0.00,VWS V14.01,2013-03-10 17:44:00,
2013-03-10 13:45:00,57.9,29.0,29.68,SSE,158,6.3,6.3,33,0.00,,,0.00,VWS V14.01,2013-03-10 17:45:00,
2013-03-10 13:46:00,58.1,29.9,29.68,SSW,202,4.3,4.3,34,0.00,,,0.00,VWS V14.01,2013-03-10 17:46:00,
2013-03-10 13:47:00,58.1,29.9,29.68,South,180,11.9,11.9,34,0.00,,,0.00,VWS V14.01,2013-03-10 17:47:00,
2013-03-10 13:48:00,58.1,29.9,29.68,SSW,202,12.1,12.1,34,0.00,,,0.00,VWS V14.01,2013-03-10 17:48:00,
2013-03-10 13:49:00,58.3,28.6,29.68,South,180,13.2,13.2,32,0.00,,,0.00,VWS V14.01,2013-03-10 17:49:00,
2013-03-10 13:50:00,58.3,29.3,29.68,South,180,5.6,5.6,33,0.00,,,0.00,VWS V14.01,2013-03-10 17:50:00,
2013-03-10 13:51:00,58.5,28.0,29.68,SW,225,8.1,8.1,31,0.00,,,0.00,VWS V14.01,2013-03-10 17:51:00,
2013-03-10 13:52:00,58.5,28.7,29.68,SSW,202,8.5,8.5,32,0.00,,,0.00,VWS V14.01,2013-03-10 17:52:00,
2013-03-10 13:53:00,58.5,29.5,29.68,SSW,202,5.4,5.4,33,0.00,,,0.00,VWS V14.01,2013-03-10 17:53:00,
2013-03-10 13:54:00,58.6,29.6,29.68,SSW,202,11.9,11.9,33,0.00,,,0.00,VWS V14.01,2013-03-10 17:54:00,
2013-03-10 13:55:00,58.6,29.6,29.68,South,180,9.8,9.8,33,0.00,,,0.00,VWS V14.01,2013-03-10 17:55:00,
2013-03-10 13:56:00,58.8,29.8,29.68,SW,225,4.0,4.0,33,0.00,,,0.00,VWS V14.01,2013-03-10 17:56:00,
2013-03-10 13:57:00,59.0,29.2,29.68,SSW,202,12.5,12.5,32,0.00,,,0.00,VWS V14.01,2013-03-10 17:57:00,
2013-03-10 13:58:00,59.0,29.2,29.68,South,180,8.5,8.5,32,0.00,,,0.00,VWS V14.01,2013-03-10 17:58:00,
2013-03-10 13:59:00,59.0,29.2,29.68,SSW,202,7.6,7.6,32,0.00,,,0.00,VWS V14.01,2013-03-10 17:59:00,
2013-03-10 14:00:00,59.2,29.4,29.65,SSW,202,5.8,5.8,32,0.00,,,0.00,VWS V14.01,2013-03-10 18:00:00,
2013-03-10 14:01:00,59.2,28.6,29.65,SSW,202,8.1,8.1,31,0.00,,,0.00,VWS V14.01,2013-03-10 18:01:00,
2013-03-10 14:02:00,59.0,29.2,29.65,SSE,158,7.8,7.8,32,0.00,,,0.00,VWS V14.01,2013-03-10 18:02:00,
2013-03-10 14:03:00,59.0,29.2,29.65,South,180,6.5,6.5,32,0.00,,,0.00,VWS V14.01,2013-03-10 18:03:00,
2013-03-10 14:04:00,59.2,29.4,29.65,SSE,158,4.0,4.0,32,0.00,,,0.00,VWS V14.01,2013-03-10 18:04:00,
2013-03-10 14:05:00,59.2,29.4,29.65,SSW,202,12.3,12.3,32,0.00,,,0.00,VWS V14.01,2013-03-10 18:05:00,
2013-03-10 14:06:00,59.4,29.5,29.65,SSW,202,10.5,10.5,32,0.00,,,0.00,VWS V14.01,2013-03-10 18:06:00,
2013-03-10 14:07:00,59.4,29.5,29.65,South,180,9.8,9.8,32,0.00,,,0.00,VWS V14.01,2013-03-10 18:07:00,
2013-03-10 14:08:00,59.4,29.5,29.65,SSW,202,10.7,10.7,32,0.00,,,0.00,VWS V14.01,2013-03-10 18:08:00,
2013-03-10 14:09:00,59.4,28.7,29.65,SSW,202,10.1,10.1,31,0.00,,,0.00,VWS V14.01,2013-03-10 18:09:00,
2013-03-10 14:10:00,59.4,28.7,29.65,South,180,7.4,7.4,31,0.00,,,0.00,VWS V14.01,2013-03-10 18:10:00,
2013-03-10 14:11:00,59.4,28.7,29.65,South,180,5.4,5.4,31,0.00,,,0.00,VWS V14.01,2013-03-10 18:11:00,
2013-03-10 14:12:00,59.4,28.7,29.65,South,180,11.0,11.0,31,0.00,,,0.00,VWS V14.01,2013-03-10 18:12:00,
2013-03-10 14:13:00,59.4,29.5,29.65,SSE,158,8.7,8.7,32,0.00,,,0.00,VWS V14.01,2013-03-10 18:13:00,
2013-03-10 14:14:00,59.4,29.5,29.65,SSW,202,8.1,8.1,32,0.00,,,0.00,VWS V14.01,2013-03-10 18:14:00,
2013-03-10 14:15:00,59.4,29.5,29.65,SSW,202,8.7,8.7,32,0.00,,,0.00,VWS V14.01,2013-03-10 18:15:00,
2013-03-10 14:16:00,59.4,29.5,29.65,South,180,10.7,10.7,32,0.00,,,0.00,VWS V14.01,2013-03-10 18:16:00,
2013-03-10 14:17:00,59.4,29.5,29.65,South,180,12.3,12.3,32,0.00,,,0.00,VWS V14.01,2013-03-10 18:17:00,
2013-03-10 14:18:00,59.4,29.5,29.65,SSE,158,13.2,13.2,32,0.00,,,0.00,VWS V14.01,2013-03-10 18:18:00,
2013-03-10 14:19:00,59.5,29.7,29.65,SSW,202,8.5,8.5,32,0.00,,,0.00,VWS V14.01,2013-03-10 18:19:00,
2013-03-10 14:20:00,59.7,29.8,29.65,SSW,202,9.8,9.8,32,0.00,,,0.00,VWS V14.01,2013-03-10 18:20:00,
2013-03-10 14:21:00,59.7,29.8,29.65,SSE,158,6.3,6.3,32,0.00,,,0.00,VWS V14.01,2013-03-10 18:21:00,
2013-03-10 14:22:00,59.7,29.8,29.65,SSE,158,10.5,10.5,32,0.00,,,0.00,VWS V14.01,2013-03-10 18:22:00,
2013-03-10 14:23:00,59.7,29.8,29.65,SSW,202,6.0,6.0,32,0.00,,,0.00,VWS V14.01,2013-03-10 18:23:00,
2013-03-10 14:24:00,59.7,29.1,29.65,SSW,202,10.5,10.5,31,0.00,,,0.00,VWS V14.01,2013-03-10 18:24:00,
2013-03-10 14:25:00,59.7,29.1,29.65,South,180,13.0,13.0,31,0.00,,,0.00,VWS V14.01,2013-03-10 18:25:00,
2013-03-10 14:26:00,59.7,29.8,29.65,SSW,202,3.8,3.8,32,0.00,,,0.00,VWS V14.01,2013-03-10 18:26:00,
2013-03-10 14:27:00,59.7,29.8,29.65,South,180,4.3,4.3,32,0.00,,,0.00,VWS V14.01,2013-03-10 18:27:00,
2013-03-10 14:28:00,59.7,29.8,29.65,SSE,158,5.8,5.8,32,0.00,,,0.00,VWS V14.01,2013-03-10 18:28:00,
2013-03-10 14:29:00,59.9,30.0,29.65,SSW,202,7.2,7.2,32,0.00,,,0.00,VWS V14.01,2013-03-10 18:29:00,
2013-03-10 14:30:00,59.9,30.0,29.62,SSE,158,5.8,5.8,32,0.00,,,0.00,VWS V14.01,2013-03-10 18:30:00,
2013-03-10 14:31:00,59.9,30.0,29.62,SSW,202,7.8,7.8,32,0.00,,,0.00,VWS V14.01,2013-03-10 18:31:00,
2013-03-10 14:32:00,59.9,30.0,29.62,South,180,9.8,9.8,32,0.00,,,0.00,VWS V14.01,2013-03-10 18:32:00,
2013-03-10 14:33:00,60.1,29.4,29.62,SSW,202,12.8,12.8,31,0.00,,,0.00,VWS V14.01,2013-03-10 18:33:00,
2013-03-10 14:34:00,60.1,28.6,29.62,SSW,202,9.8,9.8,30,0.00,,,0.00,VWS V14.01,2013-03-10 18:34:00,
2013-03-10 14:35:00,60.3,30.3,29.62,South,180,10.3,10.3,32,0.00,,,0.00,VWS V14.01,2013-03-10 18:35:00,
2013-03-10 14:36:00,60.3,30.3,29.62,SSE,158,2.9,2.9,32,0.00,,,0.00,VWS V14.01,2013-03-10 18:36:00,
2013-03-10 14:37:00,60.4,30.5,29.62,SSE,158,15.4,15.4,32,0.00,,,0.00,VWS V14.01,2013-03-10 18:37:00,
2013-03-10 14:38:00,60.4,30.5,29.62,SSW,202,5.4,5.4,32,0.00,,,0.00,VWS V14.01,2013-03-10 18:38:00,
2013-03-10 14:39:00,60.6,30.6,29.62,WSW,248,8.1,8.1,32,0.00,,,0.00,VWS V14.01,2013-03-10 18:39:00,
2013-03-10 14:40:00,60.6,29.8,29.62,SSW,202,3.6,3.6,31,0.00,,,0.00,VWS V14.01,2013-03-10 18:40:00,
2013-03-10 14:41:00,60.6,29.8,29.62,South,180,10.7,10.7,31,0.00,,,0.00,VWS V14.01,2013-03-10 18:41:00,
2013-03-10 14:42:00,60.8,30.0,29.62,SSW,202,5.4,5.4,31,0.00,,,0.00,VWS V14.01,2013-03-10 18:42:00,
2013-03-10 14:43:00,60.8,30.0,29.62,SSE,158,6.5,6.5,31,0.00,,,0.00,VWS V14.01,2013-03-10 18:43:00,
2013-03-10 14:44:00,61.0,30.2,29.62,South,180,6.9,6.9,31,0.00,,,0.00,VWS V14.01,2013-03-10 18:44:00,
2013-03-10 14:45:00,61.0,30.2,29.62,South,180,5.8,5.8,31,0.00,,,0.00,VWS V14.01,2013-03-10 18:45:00,
2013-03-10 14:46:00,61.0,30.2,29.62,South,180,4.9,4.9,31,0.00,,,0.00,VWS V14.01,2013-03-10 18:46:00,
2013-03-10 14:47:00,61.0,28.5,29.62,SSW,202,10.5,10.5,29,0.00,,,0.00,VWS V14.01,2013-03-10 18:47:00,
2013-03-10 14:48:00,61.0,28.5,29.62,SSW,202,10.5,10.5,29,0.00,,,0.00,VWS V14.01,2013-03-10 18:48:00,
2013-03-10 14:49:00,61.0,28.5,29.62,SSE,158,6.5,6.5,29,0.00,,,0.00,VWS V14.01,2013-03-10 18:49:00,
2013-03-10 14:50:00,61.0,28.5,29.62,SSW,202,6.3,6.3,29,0.00,,,0.00,VWS V14.01,2013-03-10 18:50:00,
2013-03-10 14:51:00,61.0,28.5,29.62,SSW,202,12.3,12.3,29,0.00,,,0.00,VWS V14.01,2013-03-10 18:51:00,
2013-03-10 14:52:00,61.0,28.5,29.62,SSW,202,8.7,8.7,29,0.00,,,0.00,VWS V14.01,2013-03-10 18:52:00,
2013-03-10 14:53:00,61.0,28.5,29.62,South,180,10.7,10.7,29,0.00,,,0.00,VWS V14.01,2013-03-10 18:53:00,
2013-03-10 14:54:00,61.0,28.5,29.62,South,180,9.8,9.8,29,0.00,,,0.00,VWS V14.01,2013-03-10 18:54:00,
2013-03-10 14:55:00,61.0,29.4,29.62,SE,135,5.4,5.4,30,0.00,,,0.00,VWS V14.01,2013-03-10 18:55:00,
2013-03-10 14:56:00,61.0,29.4,29.62,South,180,3.6,3.6,30,0.00,,,0.00,VWS V14.01,2013-03-10 18:56:00,
2013-03-10 14:57:00,61.0,29.4,29.62,SSW,202,5.4,5.4,30,0.00,,,0.00,VWS V14.01,2013-03-10 18:57:00,
2013-03-10 14:58:00,61.2,28.7,29.62,SW,225,12.1,12.1,29,0.00,,,0.00,VWS V14.01,2013-03-10 18:58:00,
2013-03-10 14:59:00,61.2,28.7,29.62,SSW,202,4.9,4.9,29,0.00,,,0.00,VWS V14.01,2013-03-10 18:59:00,
2013-03-10 15:00:00,61.2,28.7,29.62,South,180,7.8,7.8,29,0.00,,,0.00,VWS V14.01,2013-03-10 19:00:00,
2013-03-10 15:01:00,61.2,28.7,29.62,SSE,158,5.8,5.8,29,0.00,,,0.00,VWS V14.01,2013-03-10 19:01:00,
2013-03-10 15:02:00,61.2,28.7,29.62,South,180,4.0,4.0,29,0.00,,,0.00,VWS V14.01,2013-03-10 19:02:00,
2013-03-10 15:03:00,61.2,29.5,29.62,South,180,6.0,6.0,30,0.00,,,0.00,VWS V14.01,2013-03-10 19:03:00,
2013-03-10 15:04:00,61.3,28.8,29.62,SSW,202,7.6,7.6,29,0.00,,,0.00,VWS V14.01,2013-03-10 19:04:00,
2013-03-10 15:05:00,61.3,29.7,29.62,SSE,158,7.4,7.4,30,0.00,,,0.00,VWS V14.01,2013-03-10 19:05:00,
2013-03-10 15:06:00,61.3,28.8,29.62,SSW,202,10.7,10.7,29,0.00,,,0.00,VWS V14.01,2013-03-10 19:06:00,
2013-03-10 15:07:00,61.3,28.8,29.62,South,180,7.6,7.6,29,0.00,,,0.00,VWS V14.01,2013-03-10 19:07:00,
2013-03-10 15:08:00,61.3,28.8,29.62,South,180,4.0,4.0,29,0.00,,,0.00,VWS V14.01,2013-03-10 19:08:00,
2013-03-10 15:09:00,61.3,28.8,29.62,SSW,202,6.0,6.0,29,0.00,,,0.00,VWS V14.01,2013-03-10 19:09:00,
2013-03-10 15:10:00,61.3,28.8,29.62,South,180,13.0,13.0,29,0.00,,,0.00,VWS V14.01,2013-03-10 19:10:00,
2013-03-10 15:11:00,61.3,28.8,29.62,SSW,202,7.6,7.6,29,0.00,,,0.00,VWS V14.01,2013-03-10 19:11:00,
2013-03-10 15:12:00,61.3,28.8,29.62,South,180,8.5,8.5,29,0.00,,,0.00,VWS V14.01,2013-03-10 19:12:00,
2013-03-10 15:13:00,61.3,28.8,29.62,South,180,8.1,8.1,29,0.00,,,0.00,VWS V14.01,2013-03-10 19:13:00,
2013-03-10 15:14:00,61.3,28.8,29.62,South,180,4.0,4.0,29,0.00,,,0.00,VWS V14.01,2013-03-10 19:14:00,
2013-03-10 15:15:00,61.3,28.8,29.62,South,180,10.1,10.1,29,0.00,,,0.00,VWS V14.01,2013-03-10 19:15:00,
2013-03-10 15:16:00,61.3,28.8,29.62,SSE,158,7.8,7.8,29,0.00,,,0.00,VWS V14.01,2013-03-10 19:16:00,
2013-03-10 15:17:00,61.3,28.8,29.62,SW,225,10.5,10.5,29,0.00,,,0.00,VWS V14.01,2013-03-10 19:17:00,
2013-03-10 15:18:00,61.5,29.0,29.62,South,180,10.3,10.3,29,0.00,,,0.00,VWS V14.01,2013-03-10 19:18:00,
2013-03-10 15:19:00,61.5,29.0,29.62,SSW,202,13.2,13.2,29,0.00,,,0.00,VWS V14.01,2013-03-10 19:19:00,
2013-03-10 15:20:00,61.7,29.1,29.62,SSW,202,9.8,9.8,29,0.00,,,0.00,VWS V14.01,2013-03-10 19:20:00,
2013-03-10 15:21:00,61.7,29.1,29.62,SSW,202,7.4,7.4,29,0.00,,,0.00,VWS V14.01,2013-03-10 19:21:00,
2013-03-10 15:22:00,61.7,28.3,29.62,South,180,12.8,12.8,28,0.00,,,0.00,VWS V14.01,2013-03-10 19:22:00,
2013-03-10 15:23:00,61.7,28.3,29.62,SSW,202,6.5,6.5,28,0.00,,,0.00,VWS V14.01,2013-03-10 19:23:00,
2013-03-10 15:24:00,61.7,29.1,29.62,SSE,158,3.1,3.1,29,0.00,,,0.00,VWS V14.01,2013-03-10 19:24:00,
2013-03-10 15:25:00,61.5,29.0,29.62,SSW,202,10.1,10.1,29,0.00,,,0.00,VWS V14.01,2013-03-10 19:25:00,
2013-03-10 15:26:00,61.5,29.0,29.62,SSW,202,7.6,7.6,29,0.00,,,0.00,VWS V14.01,2013-03-10 19:26:00,
2013-03-10 15:27:00,61.7,28.3,29.62,SSW,202,14.5,14.5,28,0.00,,,0.00,VWS V14.01,2013-03-10 19:27:00,
2013-03-10 15:28:00,61.7,29.1,29.62,SSW,202,3.8,3.8,29,0.00,,,0.00,VWS V14.01,2013-03-10 19:28:00,
2013-03-10 15:29:00,61.7,29.1,29.62,SSW,202,15.7,15.7,29,0.00,,,0.00,VWS V14.01,2013-03-10 19:29:00,
2013-03-10 15:30:00,61.7,29.1,29.62,South,180,8.5,8.5,29,0.00,,,0.00,VWS V14.01,2013-03-10 19:30:00,
2013-03-10 15:31:00,61.7,29.1,29.62,South,180,6.0,6.0,29,0.00,,,0.00,VWS V14.01,2013-03-10 19:31:00,
2013-03-10 15:32:00,61.9,29.3,29.62,SSW,202,6.5,6.5,29,0.00,,,0.00,VWS V14.01,2013-03-10 19:32:00,
2013-03-10 15:33:00,61.9,29.3,29.62,SSW,202,5.6,5.6,29,0.00,,,0.00,VWS V14.01,2013-03-10 19:33:00,
2013-03-10 15:34:00,62.1,29.5,29.62,South,180,7.2,7.2,29,0.00,,,0.00,VWS V14.01,2013-03-10 19:34:00,
2013-03-10 15:35:00,62.1,29.5,29.62,SSW,202,4.3,4.3,29,0.00,,,0.00,VWS V14.01,2013-03-10 19:35:00,
2013-03-10 15:36:00,62.2,29.6,29.62,SSE,158,3.6,3.6,29,0.00,,,0.00,VWS V14.01,2013-03-10 19:36:00,
2013-03-10 15:37:00,62.2,29.6,29.62,SSW,202,10.1,10.1,29,0.00,,,0.00,VWS V14.01,2013-03-10 19:37:00,
2013-03-10 15:38:00,62.4,29.8,29.62,SSW,202,4.7,4.7,29,0.00,,,0.00,VWS V14.01,2013-03-10 19:38:00,
2013-03-10 15:39:00,62.4,29.8,29.62,South,180,7.8,7.8,29,0.00,,,0.00,VWS V14.01,2013-03-10 19:39:00,
2013-03-10 15:40:00,62.6,29.1,29.62,SE,135,7.2,7.2,28,0.00,,,0.00,VWS V14.01,2013-03-10 19:40:00,
2013-03-10 15:41:00,62.6,29.1,29.62,SSW,202,13.2,13.2,28,0.00,,,0.00,VWS V14.01,2013-03-10 19:41:00,
2013-03-10 15:42:00,62.6,29.1,29.62,South,180,8.7,8.7,28,0.00,,,0.00,VWS V14.01,2013-03-10 19:42:00,
2013-03-10 15:43:00,62.6,29.1,29.62,SSE,158,5.8,5.8,28,0.00,,,0.00,VWS V14.01,2013-03-10 19:43:00,
2013-03-10 15:44:00,62.6,29.1,29.62,SSW,202,9.6,9.6,28,0.00,,,0.00,VWS V14.01,2013-03-10 19:44:00,
2013-03-10 15:45:00,62.6,29.1,29.62,SSW,202,9.8,9.8,28,0.00,,,0.00,VWS V14.01,2013-03-10 19:45:00,
2013-03-10 15:46:00,62.6,29.1,29.62,West,270,14.8,14.8,28,0.00,,,0.00,VWS V14.01,2013-03-10 19:46:00,
2013-03-10 15:47:00,62.6,29.1,29.62,SSW,202,5.6,5.6,28,0.00,,,0.00,VWS V14.01,2013-03-10 19:47:00,
2013-03-10 15:48:00,62.6,28.2,29.62,SSE,158,6.5,6.5,27,0.00,,,0.00,VWS V14.01,2013-03-10 19:48:00,
2013-03-10 15:49:00,62.6,28.2,29.62,South,180,5.8,5.8,27,0.00,,,0.00,VWS V14.01,2013-03-10 19:49:00,
2013-03-10 15:50:00,62.6,29.1,29.62,SSE,158,9.8,9.8,28,0.00,,,0.00,VWS V14.01,2013-03-10 19:50:00,
2013-03-10 15:51:00,62.6,29.1,29.62,SSE,158,10.5,10.5,28,0.00,,,0.00,VWS V14.01,2013-03-10 19:51:00,
2013-03-10 15:52:00,62.6,29.1,29.62,SSW,202,8.1,8.1,28,0.00,,,0.00,VWS V14.01,2013-03-10 19:52:00,
2013-03-10 15:53:00,62.6,29.1,29.62,South,180,7.8,7.8,28,0.00,,,0.00,VWS V14.01,2013-03-10 19:53:00,
2013-03-10 15:54:00,62.6,29.1,29.62,SSW,202,7.2,7.2,28,0.00,,,0.00,VWS V14.01,2013-03-10 19:54:00,
2013-03-10 15:55:00,62.8,29.2,29.62,SSW,202,10.7,10.7,28,0.00,,,0.00,VWS V14.01,2013-03-10 19:55:00,
2013-03-10 15:56:00,62.8,29.2,29.62,South,180,6.3,6.3,28,0.00,,,0.00,VWS V14.01,2013-03-10 19:56:00,
2013-03-10 15:57:00,62.8,29.2,29.62,South,180,9.8,9.8,28,0.00,,,0.00,VWS V14.01,2013-03-10 19:57:00,
2013-03-10 15:58:00,62.8,28.3,29.62,SSW,202,13.0,13.0,27,0.00,,,0.00,VWS V14.01,2013-03-10 19:58:00,
2013-03-10 15:59:00,62.8,28.3,29.62,SSW,202,5.4,5.4,27,0.00,,,0.00,VWS V14.01,2013-03-10 19:59:00,
2013-03-10 16:00:00,62.8,28.3,29.62,SSW,202,7.2,7.2,27,0.00,,,0.00,VWS V14.01,2013-03-10 20:00:00,
2013-03-10 16:01:00,62.8,29.2,29.62,SSW,202,5.6,5.6,28,0.00,,,0.00,VWS V14.01,2013-03-10 20:01:00,
2013-03-10 16:02:00,62.8,28.3,29.62,South,180,8.1,8.1,27,0.00,,,0.00,VWS V14.01,2013-03-10 20:02:00,
2013-03-10 16:03:00,62.8,28.3,29.62,South,180,7.8,7.8,27,0.00,,,0.00,VWS V14.01,2013-03-10 20:03:00,
2013-03-10 16:04:00,63.0,28.5,29.62,South,180,13.2,13.2,27,0.00,,,0.00,VWS V14.01,2013-03-10 20:04:00,
2013-03-10 16:05:00,63.0,28.5,29.62,South,180,7.2,7.2,27,0.00,,,0.00,VWS V14.01,2013-03-10 20:05:00,
2013-03-10 16:06:00,63.0,28.5,29.62,SSW,202,11.2,11.2,27,0.00,,,0.00,VWS V14.01,2013-03-10 20:06:00,
2013-03-10 16:07:00,62.8,28.3,29.62,SW,225,7.6,7.6,27,0.00,,,0.00,VWS V14.01,2013-03-10 20:07:00,
2013-03-10 16:08:00,62.8,28.3,29.62,South,180,13.0,13.0,27,0.00,,,0.00,VWS V14.01,2013-03-10 20:08:00,
2013-03-10 16:09:00,62.8,28.3,29.62,SSW,202,5.8,5.8,27,0.00,,,0.00,VWS V14.01,2013-03-10 20:09:00,
2013-03-10 16:10:00,62.8,28.3,29.62,SSW,202,10.1,10.1,27,0.00,,,0.00,VWS V14.01,2013-03-10 20:10:00,
2013-03-10 16:11:00,62.8,28.3,29.62,SSW,202,15.7,15.7,27,0.00,,,0.00,VWS V14.01,2013-03-10 20:11:00,
2013-03-10 16:12:00,62.8,28.3,29.62,South,180,15.4,15.4,27,0.00,,,0.00,VWS V14.01,2013-03-10 20:12:00,
2013-03-10 16:13:00,62.8,28.3,29.62,SSW,202,6.3,6.3,27,0.00,,,0.00,VWS V14.01,2013-03-10 20:13:00,
2013-03-10 16:14:00,62.8,28.3,29.62,SSW,202,7.6,7.6,27,0.00,,,0.00,VWS V14.01,2013-03-10 20:14:00,
2013-03-10 16:15:00,62.8,28.3,29.59,South,180,10.7,10.7,27,0.00,,,0.00,VWS V14.01,2013-03-10 20:15:00,
2013-03-10 16:16:00,62.8,28.3,29.59,SSE,158,12.5,12.5,27,0.00,,,0.00,VWS V14.01,2013-03-10 20:16:00,
2013-03-10 16:17:00,62.8,28.3,29.59,SSE,158,13.0,13.0,27,0.00,,,0.00,VWS V14.01,2013-03-10 20:17:00,
2013-03-10 16:18:00,62.8,28.3,29.59,SSE,158,4.5,4.5,27,0.00,,,0.00,VWS V14.01,2013-03-10 20:18:00,
2013-03-10 16:19:00,62.8,28.3,29.59,South,180,10.5,10.5,27,0.00,,,0.00,VWS V14.01,2013-03-10 20:19:00,
2013-03-10 16:20:00,62.8,28.3,29.59,SSE,158,10.1,10.1,27,0.00,,,0.00,VWS V14.01,2013-03-10 20:20:00,
2013-03-10 16:21:00,62.6,28.2,29.59,South,180,9.8,9.8,27,0.00,,,0.00,VWS V14.01,2013-03-10 20:21:00,
2013-03-10 16:22:00,62.6,28.2,29.59,SSW,202,6.5,6.5,27,0.00,,,0.00,VWS V14.01,2013-03-10 20:22:00,
2013-03-10 16:23:00,62.6,28.2,29.59,South,180,6.3,6.3,27,0.00,,,0.00,VWS V14.01,2013-03-10 20:23:00,
2013-03-10 16:24:00,62.4,28.0,29.59,SE,135,3.4,3.4,27,0.00,,,0.00,VWS V14.01,2013-03-10 20:24:00,
2013-03-10 16:25:00,62.2,27.9,29.59,SSW,202,7.6,7.6,27,0.00,,,0.00,VWS V14.01,2013-03-10 20:25:00,
2013-03-10 16:26:00,62.2,27.9,29.59,SSW,202,4.0,4.0,27,0.00,,,0.00,VWS V14.01,2013-03-10 20:26:00,
2013-03-10 16:27:00,62.2,27.9,29.59,South,180,6.0,6.0,27,0.00,,,0.00,VWS V14.01,2013-03-10 20:27:00,
2013-03-10 16:28:00,62.2,27.9,29.59,South,180,11.9,11.9,27,0.00,,,0.00,VWS V14.01,2013-03-10 20:28:00,
2013-03-10 16:29:00,62.1,27.7,29.59,SSE,158,7.6,7.6,27,0.00,,,0.00,VWS V14.01,2013-03-10 20:29:00,
2013-03-10 16:30:00,61.9,27.6,29.62,South,180,13.2,13.2,27,0.00,,,0.00,VWS V14.01,2013-03-10 20:30:00,
2013-03-10 16:31:00,61.9,27.6,29.62,South,180,9.6,9.6,27,0.00,,,0.00,VWS V14.01,2013-03-10 20:31:00,
2013-03-10 16:32:00,61.9,27.6,29.62,South,180,7.6,7.6,27,0.00,,,0.00,VWS V14.01,2013-03-10 20:32:00,
2013-03-10 16:33:00,61.9,27.6,29.62,South,180,8.1,8.1,27,0.00,,,0.00,VWS V14.01,2013-03-10 20:33:00,
2013-03-10 16:34:00,61.9,27.6,29.62,SE,135,6.7,6.7,27,0.00,,,0.00,VWS V14.01,2013-03-10 20:34:00,
2013-03-10 16:35:00,61.9,27.6,29.62,SSW,202,6.3,6.3,27,0.00,,,0.00,VWS V14.01,2013-03-10 20:35:00,
2013-03-10 16:36:00,61.9,27.6,29.62,SW,225,7.6,7.6,27,0.00,,,0.00,VWS V14.01,2013-03-10 20:36:00,
2013-03-10 16:37:00,61.7,27.4,29.62,South,180,4.3,4.3,27,0.00,,,0.00,VWS V14.01,2013-03-10 20:37:00,
2013-03-10 16:38:00,61.7,27.4,29.62,SW,225,3.1,3.1,27,0.00,,,0.00,VWS V14.01,2013-03-10 20:38:00,
2013-03-10 16:39:00,61.7,27.4,29.62,SE,135,9.8,9.8,27,0.00,,,0.00,VWS V14.01,2013-03-10 20:39:00,
2013-03-10 16:40:00,61.7,27.4,29.62,South,180,8.7,8.7,27,0.00,,,0.00,VWS V14.01,2013-03-10 20:40:00,
2013-03-10 16:41:00,61.7,27.4,29.62,SSW,202,10.5,10.5,27,0.00,,,0.00,VWS V14.01,2013-03-10 20:41:00,
2013-03-10 16:42:00,61.7,27.4,29.62,South,180,6.5,6.5,27,0.00,,,0.00,VWS V14.01,2013-03-10 20:42:00,
2013-03-10 16:43:00,61.7,27.4,29.62,South,180,11.0,11.0,27,0.00,,,0.00,VWS V14.01,2013-03-10 20:43:00,
2013-03-10 16:44:00,61.7,27.4,29.62,SSE,158,6.0,6.0,27,0.00,,,0.00,VWS V14.01,2013-03-10 20:44:00,
2013-03-10 16:45:00,61.7,27.4,29.62,South,180,11.0,11.0,27,0.00,,,0.00,VWS V14.01,2013-03-10 20:45:00,
2013-03-10 16:46:00,61.7,27.4,29.62,South,180,8.1,8.1,27,0.00,,,0.00,VWS V14.01,2013-03-10 20:46:00,
2013-03-10 16:47:00,61.7,27.4,29.62,WSW,248,8.5,8.5,27,0.00,,,0.00,VWS V14.01,2013-03-10 20:47:00,
2013-03-10 16:48:00,61.7,27.4,29.62,SSW,202,7.6,7.6,27,0.00,,,0.00,VWS V14.01,2013-03-10 20:48:00,
2013-03-10 16:49:00,61.7,27.4,29.62,SSW,202,8.7,8.7,27,0.00,,,0.00,VWS V14.01,2013-03-10 20:49:00,
2013-03-10 16:50:00,61.9,27.6,29.62,South,180,5.6,5.6,27,0.00,,,0.00,VWS V14.01,2013-03-10 20:50:00,
2013-03-10 16:51:00,61.9,27.6,29.62,SSW,202,7.8,7.8,27,0.00,,,0.00,VWS V14.01,2013-03-10 20:51:00,
2013-03-10 16:52:00,61.9,27.6,29.62,South,180,5.4,5.4,27,0.00,,,0.00,VWS V14.01,2013-03-10 20:52:00,
2013-03-10 16:53:00,61.9,27.6,29.62,South,180,12.1,12.1,27,0.00,,,0.00,VWS V14.01,2013-03-10 20:53:00,
2013-03-10 16:54:00,62.1,27.7,29.62,South,180,8.1,8.1,27,0.00,,,0.00,VWS V14.01,2013-03-10 20:54:00,
2013-03-10 16:55:00,62.1,27.7,29.62,South,180,7.4,7.4,27,0.00,,,0.00,VWS V14.01,2013-03-10 20:55:00,
2013-03-10 16:56:00,62.1,27.7,29.62,SSW,202,6.3,6.3,27,0.00,,,0.00,VWS V14.01,2013-03-10 20:56:00,
2013-03-10 16:57:00,62.1,27.7,29.62,SSW,202,3.6,3.6,27,0.00,,,0.00,VWS V14.01,2013-03-10 20:57:00,
2013-03-10 16:58:00,62.1,27.7,29.62,SW,225,6.5,6.5,27,0.00,,,0.00,VWS V14.01,2013-03-10 20:58:00,
2013-03-10 16:59:00,62.1,27.7,29.62,SSW,202,10.5,10.5,27,0.00,,,0.00,VWS V14.01,2013-03-10 20:59:00,
2013-03-10 17:00:00,62.1,27.7,29.62,South,180,6.5,6.5,27,0.00,,,0.00,VWS V14.01,2013-03-10 21:00:00,
2013-03-10 17:01:00,62.1,27.7,29.62,SSW,202,4.3,4.3,27,0.00,,,0.00,VWS V14.01,2013-03-10 21:01:00,
2013-03-10 17:02:00,62.1,27.7,29.62,SSW,202,4.3,4.3,27,0.00,,,0.00,VWS V14.01,2013-03-10 21:02:00,
2013-03-10 17:03:00,62.1,27.7,29.62,South,180,9.8,9.8,27,0.00,,,0.00,VWS V14.01,2013-03-10 21:03:00,
2013-03-10 17:04:00,61.9,27.6,29.62,South,180,4.0,4.0,27,0.00,,,0.00,VWS V14.01,2013-03-10 21:04:00,
2013-03-10 17:05:00,61.9,27.6,29.62,South,180,7.4,7.4,27,0.00,,,0.00,VWS V14.01,2013-03-10 21:05:00,
2013-03-10 17:06:00,61.9,27.6,29.62,SSW,202,6.3,6.3,27,0.00,,,0.00,VWS V14.01,2013-03-10 21:06:00,
2013-03-10 17:07:00,61.9,27.6,29.62,South,180,6.0,6.0,27,0.00,,,0.00,VWS V14.01,2013-03-10 21:07:00,
2013-03-10 17:08:00,61.9,27.6,29.62,SSW,202,10.3,10.3,27,0.00,,,0.00,VWS V14.01,2013-03-10 21:08:00,
2013-03-10 17:09:00,61.7,27.4,29.62,ESE,112,7.6,7.6,27,0.00,,,0.00,VWS V14.01,2013-03-10 21:09:00,
2013-03-10 17:10:00,61.7,27.4,29.62,SE,135,7.8,7.8,27,0.00,,,0.00,VWS V14.01,2013-03-10 21:10:00,
2013-03-10 17:11:00,61.7,27.4,29.62,South,180,8.5,8.5,27,0.00,,,0.00,VWS V14.01,2013-03-10 21:11:00,
2013-03-10 17:12:00,61.7,27.4,29.62,South,180,10.7,10.7,27,0.00,,,0.00,VWS V14.01,2013-03-10 21:12:00,
2013-03-10 17:13:00,61.7,27.4,29.62,South,180,6.0,6.0,27,0.00,,,0.00,VWS V14.01,2013-03-10 21:13:00,
2013-03-10 17:14:00,61.5,27.2,29.62,SE,135,6.5,6.5,27,0.00,,,0.00,VWS V14.01,2013-03-10 21:14:00,
2013-03-10 17:15:00,61.5,27.2,29.59,South,180,5.6,5.6,27,0.00,,,0.00,VWS V14.01,2013-03-10 21:15:00,
2013-03-10 17:16:00,61.5,27.2,29.59,SSE,158,9.0,9.0,27,0.00,,,0.00,VWS V14.01,2013-03-10 21:16:00,
2013-03-10 17:17:00,61.5,27.2,29.59,South,180,5.4,5.4,27,0.00,,,0.00,VWS V14.01,2013-03-10 21:17:00,
2013-03-10 17:18:00,61.3,27.1,29.59,South,180,8.5,8.5,27,0.00,,,0.00,VWS V14.01,2013-03-10 21:18:00,
2013-03-10 17:19:00,61.3,27.1,29.59,South,180,6.9,6.9,27,0.00,,,0.00,VWS V14.01,2013-03-10 21:19:00,
2013-03-10 17:20:00,61.3,27.1,29.59,SSE,158,6.5,6.5,27,0.00,,,0.00,VWS V14.01,2013-03-10 21:20:00,
2013-03-10 17:21:00,61.3,27.1,29.59,SSE,158,5.4,5.4,27,0.00,,,0.00,VWS V14.01,2013-03-10 21:21:00,
2013-03-10 17:22:00,61.3,27.1,29.59,ESE,112,6.3,6.3,27,0.00,,,0.00,VWS V14.01,2013-03-10 21:22:00,
2013-03-10 17:23:00,61.3,27.1,29.59,SE,135,8.5,8.5,27,0.00,,,0.00,VWS V14.01,2013-03-10 21:23:00,
2013-03-10 17:24:00,61.5,27.2,29.59,South,180,4.0,4.0,27,0.00,,,0.00,VWS V14.01,2013-03-10 21:24:00,
2013-03-10 17:25:00,61.5,27.2,29.59,SSW,202,14.8,14.8,27,0.00,,,0.00,VWS V14.01,2013-03-10 21:25:00,
2013-03-10 17:26:00,61.5,26.3,29.59,SSW,202,11.0,11.0,26,0.00,,,0.00,VWS V14.01,2013-03-10 21:26:00,
2013-03-10 17:27:00,61.5,27.2,29.59,SSW,202,7.6,7.6,27,0.00,,,0.00,VWS V14.01,2013-03-10 21:27:00,
2013-03-10 17:28:00,61.3,27.1,29.59,South,180,6.0,6.0,27,0.00,,,0.00,VWS V14.01,2013-03-10 21:28:00,
2013-03-10 17:29:00,61.3,27.1,29.59,SSE,158,7.4,7.4,27,0.00,,,0.00,VWS V14.01,2013-03-10 21:29:00,
2013-03-10 17:30:00,61.2,26.9,29.62,SW,225,4.3,4.3,27,0.00,,,0.00,VWS V14.01,2013-03-10 21:30:00,
2013-03-10 17:31:00,61.2,26.0,29.62,South,180,17.0,17.0,26,0.00,,,0.00,VWS V14.01,2013-03-10 21:31:00,
2013-03-10 17:32:00,61.2,26.0,29.62,SSE,158,5.8,5.8,26,0.00,,,0.00,VWS V14.01,2013-03-10 21:32:00,
2013-03-10 17:33:00,61.2,26.0,29.62,South,180,5.6,5.6,26,0.00,,,0.00,VWS V14.01,2013-03-10 21:33:00,
2013-03-10 17:34:00,61.3,27.1,29.62,South,180,5.6,5.6,27,0.00,,,0.00,VWS V14.01,2013-03-10 21:34:00,
2013-03-10 17:35:00,61.3,27.1,29.62,SSE,158,4.0,4.0,27,0.00,,,0.00,VWS V14.01,2013-03-10 21:35:00,
2013-03-10 17:36:00,61.5,27.2,29.62,South,180,4.9,4.9,27,0.00,,,0.00,VWS V14.01,2013-03-10 21:36:00,
2013-03-10 17:37:00,61.5,27.2,29.62,SSE,158,3.1,3.1,27,0.00,,,0.00,VWS V14.01,2013-03-10 21:37:00,
2013-03-10 17:38:00,61.3,27.1,29.62,SSW,202,10.5,10.5,27,0.00,,,0.00,VWS V14.01,2013-03-10 21:38:00,
2013-03-10 17:39:00,61.3,27.1,29.62,SSW,202,6.0,6.0,27,0.00,,,0.00,VWS V14.01,2013-03-10 21:39:00,
2013-03-10 17:40:00,61.3,27.1,29.62,SSW,202,8.7,8.7,27,0.00,,,0.00,VWS V14.01,2013-03-10 21:40:00,
2013-03-10 17:41:00,61.2,26.9,29.62,South,180,7.6,7.6,27,0.00,,,0.00,VWS V14.01,2013-03-10 21:41:00,
2013-03-10 17:42:00,61.0,26.8,29.62,SSE,158,7.6,7.6,27,0.00,,,0.00,VWS V14.01,2013-03-10 21:42:00,
2013-03-10 17:43:00,61.0,26.8,29.62,SSE,158,6.0,6.0,27,0.00,,,0.00,VWS V14.01,2013-03-10 21:43:00,
2013-03-10 17:44:00,61.0,26.8,29.62,SSW,202,7.6,7.6,27,0.00,,,0.00,VWS V14.01,2013-03-10 21:44:00,
2013-03-10 17:45:00,61.0,26.8,29.59,South,180,5.8,5.8,27,0.00,,,0.00,VWS V14.01,2013-03-10 21:45:00,
2013-03-10 17:46:00,61.0,26.8,29.59,SSE,158,5.6,5.6,27,0.00,,,0.00,VWS V14.01,2013-03-10 21:46:00,
2013-03-10 17:47:00,61.0,26.8,29.59,South,180,7.6,7.6,27,0.00,,,0.00,VWS V14.01,2013-03-10 21:47:00,
2013-03-10 17:48:00,61.0,26.8,29.59,SSW,202,8.1,8.1,27,0.00,,,0.00,VWS V14.01,2013-03-10 21:48:00,
2013-03-10 17:49:00,61.0,26.8,29.59,South,180,5.8,5.8,27,0.00,,,0.00,VWS V14.01,2013-03-10 21:49:00,
2013-03-10 17:50:00,61.0,26.8,29.59,SSE,158,4.3,4.3,27,0.00,,,0.00,VWS V14.01,2013-03-10 21:50:00,
2013-03-10 17:51:00,61.0,26.8,29.59,SSW,202,4.7,4.7,27,0.00,,,0.00,VWS V14.01,2013-03-10 21:51:00,
2013-03-10 17:52:00,61.0,26.8,29.59,South,180,6.7,6.7,27,0.00,,,0.00,VWS V14.01,2013-03-10 21:52:00,
2013-03-10 17:53:00,60.8,26.6,29.59,SSW,202,5.6,5.6,27,0.00,,,0.00,VWS V14.01,2013-03-10 21:53:00,
2013-03-10 17:54:00,60.8,26.6,29.59,South,180,4.0,4.0,27,0.00,,,0.00,VWS V14.01,2013-03-10 21:54:00,
2013-03-10 17:55:00,60.6,26.5,29.59,SSE,158,4.3,4.3,27,0.00,,,0.00,VWS V14.01,2013-03-10 21:55:00,
2013-03-10 17:56:00,60.6,26.5,29.59,South,180,3.1,3.1,27,0.00,,,0.00,VWS V14.01,2013-03-10 21:56:00,
2013-03-10 17:57:00,60.4,26.3,29.59,SSW,202,4.9,4.9,27,0.00,,,0.00,VWS V14.01,2013-03-10 21:57:00,
2013-03-10 17:58:00,60.4,26.3,29.59,SSW,202,6.3,6.3,27,0.00,,,0.00,VWS V14.01,2013-03-10 21:58:00,
2013-03-10 17:59:00,60.4,26.3,29.59,SSE,158,6.9,6.9,27,0.00,,,0.00,VWS V14.01,2013-03-10 21:59:00,
2013-03-10 18:00:00,60.4,26.3,29.62,SSW,202,10.5,10.5,27,0.00,,,0.00,VWS V14.01,2013-03-10 22:00:00,
2013-03-10 18:01:00,60.4,26.3,29.62,South,180,7.2,7.2,27,0.00,,,0.00,VWS V14.01,2013-03-10 22:01:00,
2013-03-10 18:02:00,60.4,26.3,29.62,SSE,158,2.9,2.9,27,0.00,,,0.00,VWS V14.01,2013-03-10 22:02:00,
2013-03-10 18:03:00,60.4,26.3,29.62,SSW,202,4.3,4.3,27,0.00,,,0.00,VWS V14.01,2013-03-10 22:03:00,
2013-03-10 18:04:00,60.4,26.3,29.62,SSE,158,6.0,6.0,27,0.00,,,0.00,VWS V14.01,2013-03-10 22:04:00,
2013-03-10 18:05:00,60.4,26.3,29.62,ESE,112,4.9,4.9,27,0.00,,,0.00,VWS V14.01,2013-03-10 22:05:00,
2013-03-10 18:06:00,60.3,26.2,29.62,SE,135,4.0,4.0,27,0.00,,,0.00,VWS V14.01,2013-03-10 22:06:00,
2013-03-10 18:07:00,60.3,26.2,29.62,SE,135,6.0,6.0,27,0.00,,,0.00,VWS V14.01,2013-03-10 22:07:00,
2013-03-10 18:08:00,60.3,26.2,29.62,SE,135,5.6,5.6,27,0.00,,,0.00,VWS V14.01,2013-03-10 22:08:00,
2013-03-10 18:09:00,59.9,25.9,29.62,South,180,5.6,5.6,27,0.00,,,0.00,VWS V14.01,2013-03-10 22:09:00,
2013-03-10 18:10:00,59.7,25.7,29.62,South,180,5.4,5.4,27,0.00,,,0.00,VWS V14.01,2013-03-10 22:10:00,
2013-03-10 18:11:00,59.5,25.5,29.62,SSE,158,6.3,6.3,27,0.00,,,0.00,VWS V14.01,2013-03-10 22:11:00,
2013-03-10 18:12:00,59.5,25.5,29.62,SSE,158,3.4,3.4,27,0.00,,,0.00,VWS V14.01,2013-03-10 22:12:00,
2013-03-10 18:13:00,59.4,25.4,29.62,SSE,158,2.7,2.7,27,0.00,,,0.00,VWS V14.01,2013-03-10 22:13:00,
2013-03-10 18:14:00,59.2,25.2,29.62,SSW,202,5.6,5.6,27,0.00,,,0.00,VWS V14.01,2013-03-10 22:14:00,
2013-03-10 18:15:00,59.2,25.2,29.62,South,180,6.9,6.9,27,0.00,,,0.00,VWS V14.01,2013-03-10 22:15:00,
2013-03-10 18:16:00,58.8,24.9,29.62,SSE,158,8.7,8.7,27,0.00,,,0.00,VWS V14.01,2013-03-10 22:16:00,
2013-03-10 18:17:00,58.8,24.9,29.62,South,180,5.4,5.4,27,0.00,,,0.00,VWS V14.01,2013-03-10 22:17:00,
2013-03-10 18:18:00,58.6,24.8,29.62,SSE,158,5.4,5.4,27,0.00,,,0.00,VWS V14.01,2013-03-10 22:18:00,
2013-03-10 18:19:00,58.5,24.6,29.62,SSE,158,3.6,3.6,27,0.00,,,0.00,VWS V14.01,2013-03-10 22:19:00,
2013-03-10 18:20:00,58.5,24.6,29.62,SSE,158,2.7,2.7,27,0.00,,,0.00,VWS V14.01,2013-03-10 22:20:00,
2013-03-10 18:21:00,58.3,24.5,29.62,SSE,158,3.1,3.1,27,0.00,,,0.00,VWS V14.01,2013-03-10 22:21:00,
2013-03-10 18:22:00,58.1,24.3,29.62,SSE,158,4.0,4.0,27,0.00,,,0.00,VWS V14.01,2013-03-10 22:22:00,
2013-03-10 18:23:00,58.1,24.3,29.62,South,180,3.8,3.8,27,0.00,,,0.00,VWS V14.01,2013-03-10 22:23:00,
2013-03-10 18:24:00,57.9,24.2,29.62,SE,135,3.8,3.8,27,0.00,,,0.00,VWS V14.01,2013-03-10 22:24:00,
2013-03-10 18:25:00,57.7,24.0,29.62,South,180,2.7,2.7,27,0.00,,,0.00,VWS V14.01,2013-03-10 22:25:00,
2013-03-10 18:26:00,57.7,24.0,29.62,SE,135,4.0,4.0,27,0.00,,,0.00,VWS V14.01,2013-03-10 22:26:00,
2013-03-10 18:27:00,57.6,23.9,29.62,SSE,158,6.5,6.5,27,0.00,,,0.00,VWS V14.01,2013-03-10 22:27:00,
2013-03-10 18:28:00,57.6,23.9,29.62,ESE,112,4.9,4.9,27,0.00,,,0.00,VWS V14.01,2013-03-10 22:28:00,
2013-03-10 18:29:00,57.4,23.7,29.62,SE,135,3.6,3.6,27,0.00,,,0.00,VWS V14.01,2013-03-10 22:29:00,
2013-03-10 18:30:00,57.2,23.5,29.62,South,180,4.3,4.3,27,0.00,,,0.00,VWS V14.01,2013-03-10 22:30:00,
2013-03-10 18:31:00,57.0,23.4,29.62,SSW,202,5.6,5.6,27,0.00,,,0.00,VWS V14.01,2013-03-10 22:31:00,
2013-03-10 18:32:00,57.0,23.4,29.62,SE,135,3.4,3.4,27,0.00,,,0.00,VWS V14.01,2013-03-10 22:32:00,
2013-03-10 18:33:00,56.8,23.2,29.62,SSE,158,4.9,4.9,27,0.00,,,0.00,VWS V14.01,2013-03-10 22:33:00,
2013-03-10 18:34:00,56.8,23.2,29.62,South,180,6.3,6.3,27,0.00,,,0.00,VWS V14.01,2013-03-10 22:34:00,
2013-03-10 18:35:00,56.8,23.2,29.62,SSW,202,4.7,4.7,27,0.00,,,0.00,VWS V14.01,2013-03-10 22:35:00,
2013-03-10 18:36:00,56.7,23.1,29.62,South,180,2.9,2.9,27,0.00,,,0.00,VWS V14.01,2013-03-10 22:36:00,
2013-03-10 18:37:00,56.7,23.1,29.62,SSE,158,3.6,3.6,27,0.00,,,0.00,VWS V14.01,2013-03-10 22:37:00,
2013-03-10 18:38:00,56.5,22.9,29.62,SE,135,4.0,4.0,27,0.00,,,0.00,VWS V14.01,2013-03-10 22:38:00,
2013-03-10 18:39:00,56.3,22.8,29.62,SSE,158,6.3,6.3,27,0.00,,,0.00,VWS V14.01,2013-03-10 22:39:00,
2013-03-10 18:40:00,56.3,22.8,29.62,South,180,4.9,4.9,27,0.00,,,0.00,VWS V14.01,2013-03-10 22:40:00,
2013-03-10 18:41:00,56.3,22.8,29.62,SSE,158,3.4,3.4,27,0.00,,,0.00,VWS V14.01,2013-03-10 22:41:00,
2013-03-10 18:42:00,56.1,22.6,29.62,SE,135,2.9,2.9,27,0.00,,,0.00,VWS V14.01,2013-03-10 22:42:00,
2013-03-10 18:43:00,56.1,22.6,29.62,SSE,158,2.9,2.9,27,0.00,,,0.00,VWS V14.01,2013-03-10 22:43:00,
2013-03-10 18:44:00,56.1,22.6,29.62,SE,135,8.7,8.7,27,0.00,,,0.00,VWS V14.01,2013-03-10 22:44:00,
2013-03-10 18:45:00,55.9,22.5,29.62,WSW,248,5.8,5.8,27,0.00,,,0.00,VWS V14.01,2013-03-10 22:45:00,
2013-03-10 18:46:00,55.8,22.3,29.62,SE,135,7.4,7.4,27,0.00,,,0.00,VWS V14.01,2013-03-10 22:46:00,
2013-03-10 18:47:00,55.8,22.3,29.62,SSE,158,5.4,5.4,27,0.00,,,0.00,VWS V14.01,2013-03-10 22:47:00,
2013-03-10 18:48:00,55.8,22.3,29.62,SSE,158,4.7,4.7,27,0.00,,,0.00,VWS V14.01,2013-03-10 22:48:00,
2013-03-10 18:49:00,55.6,22.1,29.62,South,180,5.4,5.4,27,0.00,,,0.00,VWS V14.01,2013-03-10 22:49:00,
2013-03-10 18:50:00,55.6,22.1,29.62,South,180,4.9,4.9,27,0.00,,,0.00,VWS V14.01,2013-03-10 22:50:00,
2013-03-10 18:51:00,55.4,22.0,29.62,South,180,8.1,8.1,27,0.00,,,0.00,VWS V14.01,2013-03-10 22:51:00,
2013-03-10 18:52:00,55.4,22.0,29.62,SSW,202,7.8,7.8,27,0.00,,,0.00,VWS V14.01,2013-03-10 22:52:00,
2013-03-10 18:53:00,55.4,22.0,29.62,South,180,6.5,6.5,27,0.00,,,0.00,VWS V14.01,2013-03-10 22:53:00,
2013-03-10 18:54:00,55.2,22.7,29.62,SE,135,3.4,3.4,28,0.00,,,0.00,VWS V14.01,2013-03-10 22:54:00,
2013-03-10 18:55:00,55.2,22.7,29.62,South,180,3.8,3.8,28,0.00,,,0.00,VWS V14.01,2013-03-10 22:55:00,
2013-03-10 18:56:00,55.2,22.7,29.62,SSE,158,2.9,2.9,28,0.00,,,0.00,VWS V14.01,2013-03-10 22:56:00,
2013-03-10 18:57:00,55.0,22.5,29.62,South,180,5.6,5.6,28,0.00,,,0.00,VWS V14.01,2013-03-10 22:57:00,
2013-03-10 18:58:00,55.0,22.5,29.62,SSE,158,7.6,7.6,28,0.00,,,0.00,VWS V14.01,2013-03-10 22:58:00,
2013-03-10 18:59:00,55.0,22.5,29.62,SSW,202,4.0,4.0,28,0.00,,,0.00,VWS V14.01,2013-03-10 22:59:00,
2013-03-10 19:00:00,54.9,22.4,29.62,SSE,158,6.3,6.3,28,0.00,,,0.00,VWS V14.01,2013-03-10 23:00:00,
2013-03-10 19:01:00,54.9,22.4,29.62,South,180,7.4,7.4,28,0.00,,,0.00,VWS V14.01,2013-03-10 23:01:00,
2013-03-10 19:02:00,54.9,22.4,29.62,South,180,4.0,4.0,28,0.00,,,0.00,VWS V14.01,2013-03-10 23:02:00,
2013-03-10 19:03:00,54.7,22.2,29.62,SE,135,5.4,5.4,28,0.00,,,0.00,VWS V14.01,2013-03-10 23:03:00,
2013-03-10 19:04:00,54.7,22.2,29.62,SSE,158,5.6,5.6,28,0.00,,,0.00,VWS V14.01,2013-03-10 23:04:00,
2013-03-10 19:05:00,54.7,22.2,29.62,South,180,5.4,5.4,28,0.00,,,0.00,VWS V14.01,2013-03-10 23:05:00,
2013-03-10 19:06:00,54.5,22.1,29.62,SSE,158,2.7,2.7,28,0.00,,,0.00,VWS V14.01,2013-03-10 23:06:00,
2013-03-10 19:07:00,54.5,22.1,29.62,SSE,158,8.1,8.1,28,0.00,,,0.00,VWS V14.01,2013-03-10 23:07:00,
2013-03-10 19:08:00,54.5,22.1,29.62,ESE,112,7.4,7.4,28,0.00,,,0.00,VWS V14.01,2013-03-10 23:08:00,
2013-03-10 19:09:00,54.3,21.9,29.62,SSE,158,3.1,3.1,28,0.00,,,0.00,VWS V14.01,2013-03-10 23:09:00,
2013-03-10 19:10:00,54.3,21.9,29.62,SSW,202,5.6,5.6,28,0.00,,,0.00,VWS V14.01,2013-03-10 23:10:00,
2013-03-10 19:11:00,54.1,21.8,29.62,South,180,8.5,8.5,28,0.00,,,0.00,VWS V14.01,2013-03-10 23:11:00,
2013-03-10 19:12:00,54.1,21.8,29.62,SSE,158,6.3,6.3,28,0.00,,,0.00,VWS V14.01,2013-03-10 23:12:00,
2013-03-10 19:13:00,54.1,21.8,29.62,South,180,5.6,5.6,28,0.00,,,0.00,VWS V14.01,2013-03-10 23:13:00,
2013-03-10 19:14:00,54.0,21.6,29.62,South,180,5.6,5.6,28,0.00,,,0.00,VWS V14.01,2013-03-10 23:14:00,
2013-03-10 19:15:00,54.0,21.6,29.62,SSE,158,8.5,8.5,28,0.00,,,0.00,VWS V14.01,2013-03-10 23:15:00,
2013-03-10 19:16:00,54.0,21.6,29.62,SSW,202,6.0,6.0,28,0.00,,,0.00,VWS V14.01,2013-03-10 23:16:00,
2013-03-10 19:17:00,54.0,21.6,29.62,SSW,202,3.4,3.4,28,0.00,,,0.00,VWS V14.01,2013-03-10 23:17:00,
2013-03-10 19:18:00,53.8,21.5,29.62,South,180,6.5,6.5,28,0.00,,,0.00,VWS V14.01,2013-03-10 23:18:00,
2013-03-10 19:19:00,53.8,21.5,29.62,SSE,158,4.9,4.9,28,0.00,,,0.00,VWS V14.01,2013-03-10 23:19:00,
2013-03-10 19:20:00,53.8,21.5,29.62,South,180,4.9,4.9,28,0.00,,,0.00,VWS V14.01,2013-03-10 23:20:00,
2013-03-10 19:21:00,53.8,21.5,29.62,SSE,158,6.5,6.5,28,0.00,,,0.00,VWS V14.01,2013-03-10 23:21:00,
2013-03-10 19:22:00,53.6,21.3,29.62,South,180,4.3,4.3,28,0.00,,,0.00,VWS V14.01,2013-03-10 23:22:00,
2013-03-10 19:23:00,53.6,21.3,29.62,South,180,4.0,4.0,28,0.00,,,0.00,VWS V14.01,2013-03-10 23:23:00,
2013-03-10 19:24:00,53.6,21.3,29.62,SSE,158,5.6,5.6,28,0.00,,,0.00,VWS V14.01,2013-03-10 23:24:00,
2013-03-10 19:25:00,53.4,21.1,29.62,South,180,6.5,6.5,28,0.00,,,0.00,VWS V14.01,2013-03-10 23:25:00,
2013-03-10 19:26:00,53.4,21.1,29.62,SSE,158,6.0,6.0,28,0.00,,,0.00,VWS V14.01,2013-03-10 23:26:00,
2013-03-10 19:27:00,53.4,21.1,29.62,SSE,158,6.0,6.0,28,0.00,,,0.00,VWS V14.01,2013-03-10 23:27:00,
2013-03-10 19:28:00,53.4,21.1,29.62,South,180,4.7,4.7,28,0.00,,,0.00,VWS V14.01,2013-03-10 23:28:00,
2013-03-10 19:29:00,53.4,21.1,29.62,South,180,4.3,4.3,28,0.00,,,0.00,VWS V14.01,2013-03-10 23:29:00,
2013-03-10 19:30:00,53.2,21.0,29.62,SSW,202,6.0,6.0,28,0.00,,,0.00,VWS V14.01,2013-03-10 23:30:00,
2013-03-10 19:31:00,53.2,21.0,29.62,SE,135,4.7,4.7,28,0.00,,,0.00,VWS V14.01,2013-03-10 23:31:00,
2013-03-10 19:32:00,53.2,21.0,29.62,South,180,5.8,5.8,28,0.00,,,0.00,VWS V14.01,2013-03-10 23:32:00,
2013-03-10 19:33:00,53.2,21.0,29.62,SE,135,5.6,5.6,28,0.00,,,0.00,VWS V14.01,2013-03-10 23:33:00,
2013-03-10 19:34:00,53.1,20.8,29.62,South,180,6.3,6.3,28,0.00,,,0.00,VWS V14.01,2013-03-10 23:34:00,
2013-03-10 19:35:00,53.1,20.8,29.62,South,180,5.6,5.6,28,0.00,,,0.00,VWS V14.01,2013-03-10 23:35:00,
2013-03-10 19:36:00,53.1,20.8,29.62,South,180,4.3,4.3,28,0.00,,,0.00,VWS V14.01,2013-03-10 23:36:00,
2013-03-10 19:37:00,53.1,20.8,29.62,SSE,158,8.1,8.1,28,0.00,,,0.00,VWS V14.01,2013-03-10 23:37:00,
2013-03-10 19:38:00,53.1,20.8,29.62,South,180,6.3,6.3,28,0.00,,,0.00,VWS V14.01,2013-03-10 23:38:00,
2013-03-10 19:39:00,53.1,20.8,29.62,South,180,4.7,4.7,28,0.00,,,0.00,VWS V14.01,2013-03-10 23:39:00,
2013-03-10 19:40:00,53.1,20.8,29.62,South,180,8.5,8.5,28,0.00,,,0.00,VWS V14.01,2013-03-10 23:40:00,
2013-03-10 19:41:00,53.1,20.8,29.62,SE,135,3.1,3.1,28,0.00,,,0.00,VWS V14.01,2013-03-10 23:41:00,
2013-03-10 19:42:00,53.1,20.8,29.62,SSE,158,9.0,9.0,28,0.00,,,0.00,VWS V14.01,2013-03-10 23:42:00,
2013-03-10 19:43:00,52.9,20.7,29.62,South,180,4.9,4.9,28,0.00,,,0.00,VWS V14.01,2013-03-10 23:43:00,
2013-03-10 19:44:00,52.9,20.7,29.62,SE,135,5.4,5.4,28,0.00,,,0.00,VWS V14.01,2013-03-10 23:44:00,
2013-03-10 19:45:00,52.9,20.7,29.62,SSE,158,3.1,3.1,28,0.00,,,0.00,VWS V14.01,2013-03-10 23:45:00,
2013-03-10 19:46:00,52.9,20.7,29.62,SSW,202,6.3,6.3,28,0.00,,,0.00,VWS V14.01,2013-03-10 23:46:00,
2013-03-10 19:47:00,52.9,20.7,29.62,South,180,3.8,3.8,28,0.00,,,0.00,VWS V14.01,2013-03-10 23:47:00,
2013-03-10 19:48:00,52.7,20.5,29.62,SSW,202,2.9,2.9,28,0.00,,,0.00,VWS V14.01,2013-03-10 23:48:00,
2013-03-10 19:49:00,52.7,20.5,29.62,SSE,158,3.6,3.6,28,0.00,,,0.00,VWS V14.01,2013-03-10 23:49:00,
2013-03-10 19:50:00,52.7,20.5,29.62,South,180,2.9,2.9,28,0.00,,,0.00,VWS V14.01,2013-03-10 23:50:00,
2013-03-10 19:51:00,52.7,20.5,29.62,SSE,158,5.6,5.6,28,0.00,,,0.00,VWS V14.01,2013-03-10 23:51:00,
2013-03-10 19:52:00,52.7,20.5,29.62,SSE,158,3.8,3.8,28,0.00,,,0.00,VWS V14.01,2013-03-10 23:52:00,
2013-03-10 19:53:00,52.7,20.5,29.62,South,180,7.4,7.4,28,0.00,,,0.00,VWS V14.01,2013-03-10 23:53:00,
2013-03-10 19:54:00,52.7,20.5,29.62,SSE,158,3.1,3.1,28,0.00,,,0.00,VWS V14.01,2013-03-10 23:54:00,
2013-03-10 19:55:00,52.7,20.5,29.62,SSE,158,5.4,5.4,28,0.00,,,0.00,VWS V14.01,2013-03-10 23:55:00,
2013-03-10 19:56:00,52.5,20.4,29.62,SSE,158,6.0,6.0,28,0.00,,,0.00,VWS V14.01,2013-03-10 23:56:00,
2013-03-10 19:57:00,52.5,20.4,29.62,SSW,202,2.9,2.9,28,0.00,,,0.00,VWS V14.01,2013-03-10 23:57:00,
2013-03-10 19:58:00,52.5,20.4,29.62,SSW,202,3.4,3.4,28,0.00,,,0.00,VWS V14.01,2013-03-10 23:58:00,
2013-03-10 19:59:00,52.5,20.4,29.62,South,180,4.0,4.0,28,0.00,,,0.00,VWS V14.01,2013-03-10 23:59:00,
2013-03-10 20:00:00,52.5,20.4,29.62,SSW,202,8.1,8.1,28,0.00,,,0.00,VWS V14.01,2013-03-11 00:00:00,
2013-03-10 20:01:00,52.5,20.4,29.62,South,180,7.6,7.6,28,0.00,,,0.00,VWS V14.01,2013-03-11 00:01:00,
2013-03-10 20:02:00,52.5,20.4,29.62,South,180,7.6,7.6,28,0.00,,,0.00,VWS V14.01,2013-03-11 00:02:00,
2013-03-10 20:03:00,52.5,20.4,29.62,South,180,3.8,3.8,28,0.00,,,0.00,VWS V14.01,2013-03-11 00:03:00,
2013-03-10 20:04:00,52.5,20.4,29.62,South,180,3.1,3.1,28,0.00,,,0.00,VWS V14.01,2013-03-11 00:04:00,
2013-03-10 20:05:00,52.3,20.2,29.62,South,180,2.5,2.5,28,0.00,,,0.00,VWS V14.01,2013-03-11 00:05:00,
2013-03-10 20:06:00,52.3,20.2,29.62,South,180,2.7,2.7,28,0.00,,,0.00,VWS V14.01,2013-03-11 00:06:00,
2013-03-10 20:07:00,52.3,20.2,29.62,SSE,158,6.3,6.3,28,0.00,,,0.00,VWS V14.01,2013-03-11 00:07:00,
2013-03-10 20:08:00,52.3,20.2,29.62,South,180,4.3,4.3,28,0.00,,,0.00,VWS V14.01,2013-03-11 00:08:00,
2013-03-10 20:09:00,52.3,20.2,29.62,SSW,202,4.3,4.3,28,0.00,,,0.00,VWS V14.01,2013-03-11 00:09:00,
2013-03-10 20:10:00,52.3,20.2,29.62,SSW,202,4.9,4.9,28,0.00,,,0.00,VWS V14.01,2013-03-11 00:10:00,
2013-03-10 20:11:00,52.2,20.1,29.62,South,180,7.4,7.4,28,0.00,,,0.00,VWS V14.01,2013-03-11 00:11:00,
2013-03-10 20:12:00,52.2,20.1,29.62,South,180,4.0,4.0,28,0.00,,,0.00,VWS V14.01,2013-03-11 00:12:00,
2013-03-10 20:13:00,52.2,20.1,29.62,SSW,202,4.5,4.5,28,0.00,,,0.00,VWS V14.01,2013-03-11 00:13:00,
2013-03-10 20:14:00,52.2,20.1,29.62,SSW,202,6.5,6.5,28,0.00,,,0.00,VWS V14.01,2013-03-11 00:14:00,
2013-03-10 20:15:00,52.2,19.2,29.65,SSE,158,6.0,6.0,27,0.00,,,0.00,VWS V14.01,2013-03-11 00:15:00,
2013-03-10 20:16:00,52.2,20.1,29.65,South,180,8.1,8.1,28,0.00,,,0.00,VWS V14.01,2013-03-11 00:16:00,
2013-03-10 20:17:00,52.2,20.1,29.65,SSW,202,4.7,4.7,28,0.00,,,0.00,VWS V14.01,2013-03-11 00:17:00,
2013-03-10 20:18:00,52.2,19.2,29.65,SSE,158,6.0,6.0,27,0.00,,,0.00,VWS V14.01,2013-03-11 00:18:00,
2013-03-10 20:19:00,52.2,19.2,29.65,South,180,6.3,6.3,27,0.00,,,0.00,VWS V14.01,2013-03-11 00:19:00,
2013-03-10 20:20:00,52.2,19.2,29.65,South,180,3.1,3.1,27,0.00,,,0.00,VWS V14.01,2013-03-11 00:20:00,
2013-03-10 20:21:00,52.2,19.2,29.65,South,180,2.2,2.2,27,0.00,,,0.00,VWS V14.01,2013-03-11 00:21:00,
2013-03-10 20:22:00,52.2,19.2,29.65,SSW,202,2.0,2.0,27,0.00,,,0.00,VWS V14.01,2013-03-11 00:22:00,
2013-03-10 20:23:00,52.2,19.2,29.65,WSW,248,2.7,2.7,27,0.00,,,0.00,VWS V14.01,2013-03-11 00:23:00,
2013-03-10 20:24:00,52.2,19.2,29.65,SE,135,6.3,6.3,27,0.00,,,0.00,VWS V14.01,2013-03-11 00:24:00,
2013-03-10 20:25:00,52.2,19.2,29.65,SSE,158,5.6,5.6,27,0.00,,,0.00,VWS V14.01,2013-03-11 00:25:00,
2013-03-10 20:26:00,52.3,19.4,29.65,South,180,2.9,2.9,27,0.00,,,0.00,VWS V14.01,2013-03-11 00:26:00,
2013-03-10 20:27:00,52.2,19.2,29.65,SW,225,3.8,3.8,27,0.00,,,0.00,VWS V14.01,2013-03-11 00:27:00,
2013-03-10 20:28:00,52.3,19.4,29.65,South,180,2.5,2.5,27,0.00,,,0.00,VWS V14.01,2013-03-11 00:28:00,
2013-03-10 20:29:00,52.3,19.4,29.65,SSW,202,2.5,2.5,27,0.00,,,0.00,VWS V14.01,2013-03-11 00:29:00,
2013-03-10 20:30:00,52.3,19.4,29.62,WSW,248,2.2,2.2,27,0.00,,,0.00,VWS V14.01,2013-03-11 00:30:00,
2013-03-10 20:31:00,52.3,19.4,29.62,South,180,4.0,4.0,27,0.00,,,0.00,VWS V14.01,2013-03-11 00:31:00,
2013-03-10 20:32:00,52.3,19.4,29.62,WSW,248,6.3,6.3,27,0.00,,,0.00,VWS V14.01,2013-03-11 00:32:00,
2013-03-10 20:33:00,52.3,19.4,29.62,South,180,5.4,5.4,27,0.00,,,0.00,VWS V14.01,2013-03-11 00:33:00,
2013-03-10 20:34:00,52.3,19.4,29.62,SSW,202,3.4,3.4,27,0.00,,,0.00,VWS V14.01,2013-03-11 00:34:00,
2013-03-10 20:35:00,52.3,19.4,29.62,SSW,202,2.7,2.7,27,0.00,,,0.00,VWS V14.01,2013-03-11 00:35:00,
2013-03-10 20:36:00,52.2,19.2,29.62,SSW,202,4.0,4.0,27,0.00,,,0.00,VWS V14.01,2013-03-11 00:36:00,
2013-03-10 20:37:00,52.2,19.2,29.62,South,180,6.3,6.3,27,0.00,,,0.00,VWS V14.01,2013-03-11 00:37:00,
2013-03-10 20:38:00,52.2,19.2,29.62,South,180,5.6,5.6,27,0.00,,,0.00,VWS V14.01,2013-03-11 00:38:00,
2013-03-10 20:39:00,52.2,19.2,29.62,South,180,6.0,6.0,27,0.00,,,0.00,VWS V14.01,2013-03-11 00:39:00,
2013-03-10 20:40:00,52.2,19.2,29.62,South,180,7.8,7.8,27,0.00,,,0.00,VWS V14.01,2013-03-11 00:40:00,
2013-03-10 20:41:00,52.2,19.2,29.62,SSW,202,10.5,10.5,27,0.00,,,0.00,VWS V14.01,2013-03-11 00:41:00,
2013-03-10 20:42:00,52.2,19.2,29.62,South,180,4.3,4.3,27,0.00,,,0.00,VWS V14.01,2013-03-11 00:42:00,
2013-03-10 20:43:00,52.2,19.2,29.62,South,180,4.3,4.3,27,0.00,,,0.00,VWS V14.01,2013-03-11 00:43:00,
2013-03-10 20:44:00,52.2,19.2,29.62,SSW,202,3.1,3.1,27,0.00,,,0.00,VWS V14.01,2013-03-11 00:44:00,
2013-03-10 20:45:00,52.2,19.2,29.59,SSW,202,5.8,5.8,27,0.00,,,0.00,VWS V14.01,2013-03-11 00:45:00,
2013-03-10 20:46:00,52.2,19.2,29.59,SSW,202,7.2,7.2,27,0.00,,,0.00,VWS V14.01,2013-03-11 00:46:00,
2013-03-10 20:47:00,52.2,19.2,29.59,SSW,202,4.3,4.3,27,0.00,,,0.00,VWS V14.01,2013-03-11 00:47:00,
2013-03-10 20:48:00,52.2,19.2,29.59,South,180,7.6,7.6,27,0.00,,,0.00,VWS V14.01,2013-03-11 00:48:00,
2013-03-10 20:49:00,52.2,19.2,29.59,SE,135,3.4,3.4,27,0.00,,,0.00,VWS V14.01,2013-03-11 00:49:00,
2013-03-10 20:50:00,52.2,19.2,29.59,SSW,202,3.8,3.8,27,0.00,,,0.00,VWS V14.01,2013-03-11 00:50:00,
2013-03-10 20:51:00,52.2,19.2,29.59,SSW,202,3.8,3.8,27,0.00,,,0.00,VWS V14.01,2013-03-11 00:51:00,
2013-03-10 20:52:00,52.2,19.2,29.59,SSW,202,4.3,4.3,27,0.00,,,0.00,VWS V14.01,2013-03-11 00:52:00,
2013-03-10 20:53:00,52.2,19.2,29.59,SSW,202,4.3,4.3,27,0.00,,,0.00,VWS V14.01,2013-03-11 00:53:00,
2013-03-10 20:54:00,52.2,19.2,29.59,SW,225,3.6,3.6,27,0.00,,,0.00,VWS V14.01,2013-03-11 00:54:00,
2013-03-10 20:55:00,52.2,19.2,29.59,SSW,202,3.4,3.4,27,0.00,,,0.00,VWS V14.01,2013-03-11 00:55:00,
2013-03-10 20:56:00,52.2,19.2,29.59,South,180,4.0,4.0,27,0.00,,,0.00,VWS V14.01,2013-03-11 00:56:00,
2013-03-10 20:57:00,52.2,19.2,29.59,South,180,7.8,7.8,27,0.00,,,0.00,VWS V14.01,2013-03-11 00:57:00,
2013-03-10 20:58:00,52.0,19.1,29.59,SW,225,6.3,6.3,27,0.00,,,0.00,VWS V14.01,2013-03-11 00:58:00,
2013-03-10 20:59:00,52.0,19.1,29.59,South,180,4.0,4.0,27,0.00,,,0.00,VWS V14.01,2013-03-11 00:59:00,
2013-03-10 21:00:00,52.0,19.1,29.62,SW,225,3.4,3.4,27,0.00,,,0.00,VWS V14.01,2013-03-11 01:00:00,
2013-03-10 21:01:00,52.0,19.1,29.62,South,180,6.3,6.3,27,0.00,,,0.00,VWS V14.01,2013-03-11 01:01:00,
2013-03-10 21:02:00,52.0,19.9,29.62,South,180,5.6,5.6,28,0.00,,,0.00,VWS V14.01,2013-03-11 01:02:00,
2013-03-10 21:03:00,52.0,19.9,29.62,South,180,3.1,3.1,28,0.00,,,0.00,VWS V14.01,2013-03-11 01:03:00,
2013-03-10 21:04:00,51.8,19.8,29.62,South,180,4.0,4.0,28,0.00,,,0.00,VWS V14.01,2013-03-11 01:04:00,
2013-03-10 21:05:00,51.8,19.8,29.62,South,180,4.9,4.9,28,0.00,,,0.00,VWS V14.01,2013-03-11 01:05:00,
2013-03-10 21:06:00,51.8,19.8,29.62,South,180,9.8,9.8,28,0.00,,,0.00,VWS V14.01,2013-03-11 01:06:00,
2013-03-10 21:07:00,51.8,19.8,29.62,South,180,3.6,3.6,28,0.00,,,0.00,VWS V14.01,2013-03-11 01:07:00,
2013-03-10 21:08:00,51.8,19.8,29.62,South,180,2.9,2.9,28,0.00,,,0.00,VWS V14.01,2013-03-11 01:08:00,
2013-03-10 21:09:00,51.8,19.8,29.62,SSE,158,5.8,5.8,28,0.00,,,0.00,VWS V14.01,2013-03-11 01:09:00,
2013-03-10 21:10:00,51.6,19.6,29.62,SSW,202,6.5,6.5,28,0.00,,,0.00,VWS V14.01,2013-03-11 01:10:00,
2013-03-10 21:11:00,51.6,19.6,29.62,South,180,3.6,3.6,28,0.00,,,0.00,VWS V14.01,2013-03-11 01:11:00,
2013-03-10 21:12:00,51.6,19.6,29.62,SSW,202,4.9,4.9,28,0.00,,,0.00,VWS V14.01,2013-03-11 01:12:00,
2013-03-10 21:13:00,51.6,19.6,29.62,SSW,202,4.9,4.9,28,0.00,,,0.00,VWS V14.01,2013-03-11 01:13:00,
2013-03-10 21:14:00,51.6,19.6,29.62,South,180,6.0,6.0,28,0.00,,,0.00,VWS V14.01,2013-03-11 01:14:00,
2013-03-10 21:15:00,51.6,19.6,29.62,South,180,5.4,5.4,28,0.00,,,0.00,VWS V14.01,2013-03-11 01:15:00,
2013-03-10 21:16:00,51.4,19.4,29.62,SSW,202,4.9,4.9,28,0.00,,,0.00,VWS V14.01,2013-03-11 01:16:00,
2013-03-10 21:17:00,51.4,19.4,29.62,SSW,202,7.6,7.6,28,0.00,,,0.00,VWS V14.01,2013-03-11 01:17:00,
2013-03-10 21:18:00,51.4,19.4,29.62,SSW,202,6.5,6.5,28,0.00,,,0.00,VWS V14.01,2013-03-11 01:18:00,
2013-03-10 21:19:00,51.4,19.4,29.62,SSW,202,4.9,4.9,28,0.00,,,0.00,VWS V14.01,2013-03-11 01:19:00,
2013-03-10 21:20:00,51.4,19.4,29.62,SSW,202,3.6,3.6,28,0.00,,,0.00,VWS V14.01,2013-03-11 01:20:00,
2013-03-10 21:21:00,51.4,19.4,29.62,South,180,4.0,4.0,28,0.00,,,0.00,VWS V14.01,2013-03-11 01:21:00,
2013-03-10 21:22:00,51.4,19.4,29.62,South,180,3.4,3.4,28,0.00,,,0.00,VWS V14.01,2013-03-11 01:22:00,
2013-03-10 21:23:00,51.4,19.4,29.62,South,180,5.8,5.8,28,0.00,,,0.00,VWS V14.01,2013-03-11 01:23:00,
2013-03-10 21:24:00,51.4,19.4,29.62,SSW,202,6.3,6.3,28,0.00,,,0.00,VWS V14.01,2013-03-11 01:24:00,
2013-03-10 21:25:00,51.4,19.4,29.62,SW,225,3.6,3.6,28,0.00,,,0.00,VWS V14.01,2013-03-11 01:25:00,
2013-03-10 21:26:00,51.4,19.4,29.62,South,180,3.8,3.8,28,0.00,,,0.00,VWS V14.01,2013-03-11 01:26:00,
2013-03-10 21:27:00,51.3,19.3,29.62,SSE,158,2.5,2.5,28,0.00,,,0.00,VWS V14.01,2013-03-11 01:27:00,
2013-03-10 21:28:00,51.3,19.3,29.62,SSW,202,1.6,1.6,28,0.00,,,0.00,VWS V14.01,2013-03-11 01:28:00,
2013-03-10 21:29:00,51.3,19.3,29.62,SSW,202,2.7,2.7,28,0.00,,,0.00,VWS V14.01,2013-03-11 01:29:00,
2013-03-10 21:30:00,51.3,19.3,29.62,SSW,202,3.4,3.4,28,0.00,,,0.00,VWS V14.01,2013-03-11 01:30:00,
2013-03-10 21:31:00,51.3,19.3,29.62,South,180,2.7,2.7,28,0.00,,,0.00,VWS V14.01,2013-03-11 01:31:00,
2013-03-10 21:32:00,51.3,19.3,29.62,South,180,3.8,3.8,28,0.00,,,0.00,VWS V14.01,2013-03-11 01:32:00,
2013-03-10 21:33:00,51.3,19.3,29.62,SSW,202,4.3,4.3,28,0.00,,,0.00,VWS V14.01,2013-03-11 01:33:00,
2013-03-10 21:34:00,51.3,19.3,29.62,South,180,7.8,7.8,28,0.00,,,0.00,VWS V14.01,2013-03-11 01:34:00,
2013-03-10 21:35:00,51.3,19.3,29.62,SSW,202,3.8,3.8,28,0.00,,,0.00,VWS V14.01,2013-03-11 01:35:00,
2013-03-10 21:36:00,51.3,19.3,29.62,South,180,6.5,6.5,28,0.00,,,0.00,VWS V14.01,2013-03-11 01:36:00,
2013-03-10 21:37:00,51.3,19.3,29.62,South,180,5.6,5.6,28,0.00,,,0.00,VWS V14.01,2013-03-11 01:37:00,
2013-03-10 21:38:00,51.3,19.3,29.62,SSW,202,5.8,5.8,28,0.00,,,0.00,VWS V14.01,2013-03-11 01:38:00,
2013-03-10 21:39:00,51.3,19.3,29.62,SW,225,3.8,3.8,28,0.00,,,0.00,VWS V14.01,2013-03-11 01:39:00,
2013-03-10 21:40:00,51.3,19.3,29.62,SSW,202,2.9,2.9,28,0.00,,,0.00,VWS V14.01,2013-03-11 01:40:00,
2013-03-10 21:41:00,51.3,19.3,29.62,SSW,202,2.7,2.7,28,0.00,,,0.00,VWS V14.01,2013-03-11 01:41:00,
2013-03-10 21:42:00,51.3,19.3,29.62,SSW,202,3.6,3.6,28,0.00,,,0.00,VWS V14.01,2013-03-11 01:42:00,
2013-03-10 21:43:00,51.1,19.1,29.62,SSW,202,4.7,4.7,28,0.00,,,0.00,VWS V14.01,2013-03-11 01:43:00,
2013-03-10 21:44:00,51.1,19.1,29.62,South,180,10.1,10.1,28,0.00,,,0.00,VWS V14.01,2013-03-11 01:44:00,
2013-03-10 21:45:00,51.1,19.1,29.65,South,180,9.8,9.8,28,0.00,,,0.00,VWS V14.01,2013-03-11 01:45:00,
2013-03-10 21:46:00,51.1,19.1,29.65,SSW,202,6.3,6.3,28,0.00,,,0.00,VWS V14.01,2013-03-11 01:46:00,
2013-03-10 21:47:00,51.1,19.1,29.65,South,180,5.4,5.4,28,0.00,,,0.00,VWS V14.01,2013-03-11 01:47:00,
2013-03-10 21:48:00,51.1,19.1,29.65,SSE,158,4.7,4.7,28,0.00,,,0.00,VWS V14.01,2013-03-11 01:48:00,
2013-03-10 21:49:00,51.1,19.1,29.65,SSW,202,3.6,3.6,28,0.00,,,0.00,VWS V14.01,2013-03-11 01:49:00,
2013-03-10 21:50:00,51.1,19.1,29.65,South,180,3.6,3.6,28,0.00,,,0.00,VWS V14.01,2013-03-11 01:50:00,
2013-03-10 21:51:00,51.1,19.1,29.65,SW,225,3.8,3.8,28,0.00,,,0.00,VWS V14.01,2013-03-11 01:51:00,
2013-03-10 21:52:00,51.1,19.1,29.65,SSW,202,2.7,2.7,28,0.00,,,0.00,VWS V14.01,2013-03-11 01:52:00,
2013-03-10 21:53:00,51.1,19.1,29.65,SSW,202,6.5,6.5,28,0.00,,,0.00,VWS V14.01,2013-03-11 01:53:00,
2013-03-10 21:54:00,51.1,19.1,29.65,SSW,202,4.0,4.0,28,0.00,,,0.00,VWS V14.01,2013-03-11 01:54:00,
2013-03-10 21:55:00,51.1,19.1,29.65,SSW,202,4.3,4.3,28,0.00,,,0.00,VWS V14.01,2013-03-11 01:55:00,
2013-03-10 21:56:00,51.1,19.1,29.65,SW,225,3.6,3.6,28,0.00,,,0.00,VWS V14.01,2013-03-11 01:56:00,
2013-03-10 21:57:00,51.1,19.1,29.65,SW,225,4.3,4.3,28,0.00,,,0.00,VWS V14.01,2013-03-11 01:57:00,
2013-03-10 21:58:00,51.1,19.1,29.65,SSW,202,6.5,6.5,28,0.00,,,0.00,VWS V14.01,2013-03-11 01:58:00,
2013-03-10 21:59:00,51.1,19.1,29.65,SSE,158,5.4,5.4,28,0.00,,,0.00,VWS V14.01,2013-03-11 01:59:00,
2013-03-10 22:00:00,51.1,19.1,29.65,SSW,202,4.3,4.3,28,0.00,,,0.00,VWS V14.01,2013-03-11 02:00:00,
2013-03-10 22:01:00,51.3,19.3,29.65,SSW,202,3.6,3.6,28,0.00,,,0.00,VWS V14.01,2013-03-11 02:01:00,
2013-03-10 22:02:00,51.1,19.1,29.65,SSE,158,3.1,3.1,28,0.00,,,0.00,VWS V14.01,2013-03-11 02:02:00,
2013-03-10 22:03:00,51.1,19.1,29.65,SSW,202,4.3,4.3,28,0.00,,,0.00,VWS V14.01,2013-03-11 02:03:00,
2013-03-10 22:04:00,51.1,19.1,29.65,SSE,158,5.6,5.6,28,0.00,,,0.00,VWS V14.01,2013-03-11 02:04:00,
2013-03-10 22:05:00,51.1,19.1,29.65,South,180,5.4,5.4,28,0.00,,,0.00,VWS V14.01,2013-03-11 02:05:00,
2013-03-10 22:06:00,51.1,20.0,29.65,SSE,158,3.4,3.4,29,0.00,,,0.00,VWS V14.01,2013-03-11 02:06:00,
2013-03-10 22:07:00,51.1,20.0,29.65,SSW,202,4.7,4.7,29,0.00,,,0.00,VWS V14.01,2013-03-11 02:07:00,
2013-03-10 22:08:00,51.1,20.0,29.65,SSE,158,4.3,4.3,29,0.00,,,0.00,VWS V14.01,2013-03-11 02:08:00,
2013-03-10 22:09:00,51.1,20.0,29.65,SSE,158,2.7,2.7,29,0.00,,,0.00,VWS V14.01,2013-03-11 02:09:00,
2013-03-10 22:10:00,51.1,20.0,29.65,SE,135,2.7,2.7,29,0.00,,,0.00,VWS V14.01,2013-03-11 02:10:00,
2013-03-10 22:11:00,51.1,20.0,29.65,WSW,248,2.7,2.7,29,0.00,,,0.00,VWS V14.01,2013-03-11 02:11:00,
2013-03-10 22:12:00,51.1,20.0,29.65,SSW,202,2.7,2.7,29,0.00,,,0.00,VWS V14.01,2013-03-11 02:12:00,
2013-03-10 22:13:00,51.1,20.0,29.65,SSE,158,3.1,3.1,29,0.00,,,0.00,VWS V14.01,2013-03-11 02:13:00,
2013-03-10 22:14:00,51.1,20.0,29.65,SSW,202,1.6,1.6,29,0.00,,,0.00,VWS V14.01,2013-03-11 02:14:00,
2013-03-10 22:15:00,50.9,19.8,29.65,SSW,202,3.8,3.8,29,0.00,,,0.00,VWS V14.01,2013-03-11 02:15:00,
2013-03-10 22:16:00,50.9,19.8,29.65,SSE,158,2.7,2.7,29,0.00,,,0.00,VWS V14.01,2013-03-11 02:16:00,
2013-03-10 22:17:00,50.9,19.8,29.65,SE,135,3.1,3.1,29,0.00,,,0.00,VWS V14.01,2013-03-11 02:17:00,
2013-03-10 22:18:00,50.9,19.8,29.65,South,180,2.2,2.2,29,0.00,,,0.00,VWS V14.01,2013-03-11 02:18:00,
2013-03-10 22:19:00,50.9,19.8,29.65,SSE,158,3.8,3.8,29,0.00,,,0.00,VWS V14.01,2013-03-11 02:19:00,
2013-03-10 22:20:00,50.9,19.8,29.65,SSW,202,3.4,3.4,29,0.00,,,0.00,VWS V14.01,2013-03-11 02:20:00,
2013-03-10 22:21:00,50.9,19.8,29.65,SSE,158,2.9,2.9,29,0.00,,,0.00,VWS V14.01,2013-03-11 02:21:00,
2013-03-10 22:22:00,50.9,19.8,29.65,South,180,2.9,2.9,29,0.00,,,0.00,VWS V14.01,2013-03-11 02:22:00,
2013-03-10 22:23:00,50.7,19.6,29.65,South,180,6.7,6.7,29,0.00,,,0.00,VWS V14.01,2013-03-11 02:23:00,
2013-03-10 22:24:00,50.7,19.6,29.65,South,180,4.3,4.3,29,0.00,,,0.00,VWS V14.01,2013-03-11 02:24:00,
2013-03-10 22:25:00,50.7,19.6,29.65,SSE,158,2.7,2.7,29,0.00,,,0.00,VWS V14.01,2013-03-11 02:25:00,
2013-03-10 22:26:00,50.7,19.6,29.65,SSE,158,2.7,2.7,29,0.00,,,0.00,VWS V14.01,2013-03-11 02:26:00,
2013-03-10 22:27:00,50.7,19.6,29.65,South,180,2.7,2.7,29,0.00,,,0.00,VWS V14.01,2013-03-11 02:27:00,
2013-03-10 22:28:00,50.7,19.6,29.65,SSE,158,2.7,2.7,29,0.00,,,0.00,VWS V14.01,2013-03-11 02:28:00,
2013-03-10 22:29:00,50.7,19.6,29.65,SSW,202,2.5,2.5,29,0.00,,,0.00,VWS V14.01,2013-03-11 02:29:00,
2013-03-10 22:30:00,50.7,19.6,29.65,South,180,2.7,2.7,29,0.00,,,0.00,VWS V14.01,2013-03-11 02:30:00,
2013-03-10 22:31:00,50.5,19.5,29.65,South,180,3.4,3.4,29,0.00,,,0.00,VWS V14.01,2013-03-11 02:31:00,
2013-03-10 22:32:00,50.5,19.5,29.65,South,180,4.7,4.7,29,0.00,,,0.00,VWS V14.01,2013-03-11 02:32:00,
2013-03-10 22:33:00,50.5,19.5,29.65,SSE,158,3.6,3.6,29,0.00,,,0.00,VWS V14.01,2013-03-11 02:33:00,
2013-03-10 22:34:00,50.5,19.5,29.65,SSW,202,5.8,5.8,29,0.00,,,0.00,VWS V14.01,2013-03-11 02:34:00,
2013-03-10 22:35:00,50.5,19.5,29.65,SSE,158,2.7,2.7,29,0.00,,,0.00,VWS V14.01,2013-03-11 02:35:00,
2013-03-10 22:36:00,50.5,19.5,29.65,South,180,2.9,2.9,29,0.00,,,0.00,VWS V14.01,2013-03-11 02:36:00,
2013-03-10 22:37:00,50.5,19.5,29.65,SSE,158,2.5,2.5,29,0.00,,,0.00,VWS V14.01,2013-03-11 02:37:00,
2013-03-10 22:38:00,50.5,19.5,29.65,SSE,158,4.0,4.0,29,0.00,,,0.00,VWS V14.01,2013-03-11 02:38:00,
2013-03-10 22:39:00,50.5,19.5,29.65,SE,135,2.9,2.9,29,0.00,,,0.00,VWS V14.01,2013-03-11 02:39:00,
2013-03-10 22:40:00,50.4,19.3,29.65,SSE,158,2.5,2.5,29,0.00,,,0.00,VWS V14.01,2013-03-11 02:40:00,
2013-03-10 22:41:00,50.4,19.3,29.65,SE,135,3.1,3.1,29,0.00,,,0.00,VWS V14.01,2013-03-11 02:41:00,
2013-03-10 22:42:00,50.4,19.3,29.65,South,180,3.8,3.8,29,0.00,,,0.00,VWS V14.01,2013-03-11 02:42:00,
2013-03-10 22:43:00,50.4,19.3,29.65,South,180,3.6,3.6,29,0.00,,,0.00,VWS V14.01,2013-03-11 02:43:00,
2013-03-10 22:44:00,50.4,19.3,29.65,SSE,158,4.0,4.0,29,0.00,,,0.00,VWS V14.01,2013-03-11 02:44:00,
2013-03-10 22:45:00,50.4,19.3,29.65,SSE,158,6.5,6.5,29,0.00,,,0.00,VWS V14.01,2013-03-11 02:45:00,
2013-03-10 22:46:00,50.4,19.3,29.65,SSW,202,3.8,3.8,29,0.00,,,0.00,VWS V14.01,2013-03-11 02:46:00,
2013-03-10 22:47:00,50.2,19.2,29.65,South,180,4.7,4.7,29,0.00,,,0.00,VWS V14.01,2013-03-11 02:47:00,
2013-03-10 22:48:00,50.2,19.2,29.65,SSW,202,3.8,3.8,29,0.00,,,0.00,VWS V14.01,2013-03-11 02:48:00,
2013-03-10 22:49:00,50.2,19.2,29.65,SSE,158,3.6,3.6,29,0.00,,,0.00,VWS V14.01,2013-03-11 02:49:00,
2013-03-10 22:50:00,50.2,19.2,29.65,South,180,4.9,4.9,29,0.00,,,0.00,VWS V14.01,2013-03-11 02:50:00,
2013-03-10 22:51:00,50.2,19.2,29.65,SSW,202,3.1,3.1,29,0.00,,,0.00,VWS V14.01,2013-03-11 02:51:00,
2013-03-10 22:52:00,50.2,19.2,29.65,SSE,158,3.8,3.8,29,0.00,,,0.00,VWS V14.01,2013-03-11 02:52:00,
2013-03-10 22:53:00,50.2,19.2,29.65,SSE,158,3.4,3.4,29,0.00,,,0.00,VWS V14.01,2013-03-11 02:53:00,
2013-03-10 22:54:00,50.0,19.0,29.65,SSE,158,4.0,4.0,29,0.00,,,0.00,VWS V14.01,2013-03-11 02:54:00,
2013-03-10 22:55:00,50.0,19.0,29.65,SSW,202,4.3,4.3,29,0.00,,,0.00,VWS V14.01,2013-03-11 02:55:00,
2013-03-10 22:56:00,50.0,19.0,29.65,SSW,202,5.6,5.6,29,0.00,,,0.00,VWS V14.01,2013-03-11 02:56:00,
2013-03-10 22:57:00,49.8,19.6,29.65,South,180,4.7,4.7,30,0.00,,,0.00,VWS V14.01,2013-03-11 02:57:00,
2013-03-10 22:58:00,49.8,19.6,29.65,SSW,202,6.0,6.0,30,0.00,,,0.00,VWS V14.01,2013-03-11 02:58:00,
2013-03-10 22:59:00,49.8,19.6,29.65,South,180,4.9,4.9,30,0.00,,,0.00,VWS V14.01,2013-03-11 02:59:00,
2013-03-10 23:00:00,49.8,19.6,29.62,SSE,158,6.7,6.7,30,0.00,,,0.00,VWS V14.01,2013-03-11 03:00:00,
2013-03-10 23:01:00,49.6,19.5,29.62,South,180,4.9,4.9,30,0.00,,,0.00,VWS V14.01,2013-03-11 03:01:00,
2013-03-10 23:02:00,49.6,19.5,29.62,SSW,202,3.1,3.1,30,0.00,,,0.00,VWS V14.01,2013-03-11 03:02:00,
2013-03-10 23:03:00,49.6,19.5,29.62,SSE,158,2.7,2.7,30,0.00,,,0.00,VWS V14.01,2013-03-11 03:03:00,
2013-03-10 23:04:00,49.6,19.5,29.62,SSW,202,5.8,5.8,30,0.00,,,0.00,VWS V14.01,2013-03-11 03:04:00,
2013-03-10 23:05:00,49.6,19.5,29.62,SSE,158,2.9,2.9,30,0.00,,,0.00,VWS V14.01,2013-03-11 03:05:00,
2013-03-10 23:06:00,49.6,19.5,29.62,South,180,2.5,2.5,30,0.00,,,0.00,VWS V14.01,2013-03-11 03:06:00,
2013-03-10 23:07:00,49.6,19.5,29.62,South,180,2.7,2.7,30,0.00,,,0.00,VWS V14.01,2013-03-11 03:07:00,
2013-03-10 23:08:00,49.6,19.5,29.62,SSW,202,2.5,2.5,30,0.00,,,0.00,VWS V14.01,2013-03-11 03:08:00,
2013-03-10 23:09:00,49.6,19.5,29.62,SSW,202,0.0,0.0,30,0.00,,,0.00,VWS V14.01,2013-03-11 03:09:00,
2013-03-10 23:10:00,49.6,19.5,29.62,SSE,158,0.0,0.0,30,0.00,,,0.00,VWS V14.01,2013-03-11 03:10:00,
2013-03-10 23:11:00,49.6,19.5,29.62,SSE,158,2.5,2.5,30,0.00,,,0.00,VWS V14.01,2013-03-11 03:11:00,
2013-03-10 23:12:00,49.5,20.1,29.62,SSE,158,7.6,7.6,31,0.00,,,0.00,VWS V14.01,2013-03-11 03:12:00,
2013-03-10 23:13:00,49.5,20.1,29.62,SSW,202,7.2,7.2,31,0.00,,,0.00,VWS V14.01,2013-03-11 03:13:00,
2013-03-10 23:14:00,49.5,20.1,29.62,SSW,202,6.0,6.0,31,0.00,,,0.00,VWS V14.01,2013-03-11 03:14:00,
2013-03-10 23:15:00,49.5,20.1,29.59,South,180,3.4,3.4,31,0.00,,,0.00,VWS V14.01,2013-03-11 03:15:00,
2013-03-10 23:16:00,49.5,20.1,29.59,SSE,158,3.8,3.8,31,0.00,,,0.00,VWS V14.01,2013-03-11 03:16:00,
2013-03-10 23:17:00,49.3,19.9,29.59,SSE,158,4.0,4.0,31,0.00,,,0.00,VWS V14.01,2013-03-11 03:17:00,
2013-03-10 23:18:00,49.3,19.9,29.59,SSW,202,6.5,6.5,31,0.00,,,0.00,VWS V14.01,2013-03-11 03:18:00,
2013-03-10 23:19:00,49.3,19.9,29.59,SSW,202,4.9,4.9,31,0.00,,,0.00,VWS V14.01,2013-03-11 03:19:00,
2013-03-10 23:20:00,49.3,19.9,29.59,SSW,202,3.4,3.4,31,0.00,,,0.00,VWS V14.01,2013-03-11 03:20:00,
2013-03-10 23:21:00,49.3,19.9,29.59,SSW,202,5.8,5.8,31,0.00,,,0.00,VWS V14.01,2013-03-11 03:21:00,
2013-03-10 23:22:00,49.1,19.8,29.59,SE,135,3.1,3.1,31,0.00,,,0.00,VWS V14.01,2013-03-11 03:22:00,
2013-03-10 23:23:00,49.1,19.8,29.59,South,180,2.7,2.7,31,0.00,,,0.00,VWS V14.01,2013-03-11 03:23:00,
2013-03-10 23:24:00,49.1,19.8,29.59,SSW,202,3.4,3.4,31,0.00,,,0.00,VWS V14.01,2013-03-11 03:24:00,
2013-03-10 23:25:00,49.1,19.8,29.59,South,180,6.5,6.5,31,0.00,,,0.00,VWS V14.01,2013-03-11 03:25:00,
2013-03-10 23:26:00,49.1,19.8,29.59,SSE,158,4.3,4.3,31,0.00,,,0.00,VWS V14.01,2013-03-11 03:26:00,
2013-03-10 23:27:00,49.1,19.8,29.59,SSE,158,3.1,3.1,31,0.00,,,0.00,VWS V14.01,2013-03-11 03:27:00,
2013-03-10 23:28:00,49.1,19.8,29.59,SSW,202,4.0,4.0,31,0.00,,,0.00,VWS V14.01,2013-03-11 03:28:00,
2013-03-10 23:29:00,49.1,19.8,29.59,SSW,202,4.0,4.0,31,0.00,,,0.00,VWS V14.01,2013-03-11 03:29:00,
2013-03-10 23:30:00,49.1,19.8,29.62,SSW,202,8.5,8.5,31,0.00,,,0.00,VWS V14.01,2013-03-11 03:30:00,
2013-03-10 23:31:00,48.9,20.4,29.62,South,180,7.8,7.8,32,0.00,,,0.00,VWS V14.01,2013-03-11 03:31:00,
2013-03-10 23:32:00,48.9,20.4,29.62,SSE,158,6.0,6.0,32,0.00,,,0.00,VWS V14.01,2013-03-11 03:32:00,
2013-03-10 23:33:00,48.9,20.4,29.62,South,180,4.9,4.9,32,0.00,,,0.00,VWS V14.01,2013-03-11 03:33:00,
2013-03-10 23:34:00,48.9,20.4,29.62,SSW,202,3.8,3.8,32,0.00,,,0.00,VWS V14.01,2013-03-11 03:34:00,
2013-03-10 23:35:00,48.9,20.4,29.62,SSW,202,2.5,2.5,32,0.00,,,0.00,VWS V14.01,2013-03-11 03:35:00,
2013-03-10 23:36:00,48.9,20.4,29.62,SSW,202,5.6,5.6,32,0.00,,,0.00,VWS V14.01,2013-03-11 03:36:00,
2013-03-10 23:37:00,48.9,20.4,29.62,SSW,202,6.5,6.5,32,0.00,,,0.00,VWS V14.01,2013-03-11 03:37:00,
2013-03-10 23:38:00,48.9,20.4,29.62,SSW,202,7.6,7.6,32,0.00,,,0.00,VWS V14.01,2013-03-11 03:38:00,
2013-03-10 23:39:00,48.9,20.4,29.62,SSW,202,4.9,4.9,32,0.00,,,0.00,VWS V14.01,2013-03-11 03:39:00,
2013-03-10 23:40:00,48.9,20.4,29.62,SSW,202,6.5,6.5,32,0.00,,,0.00,VWS V14.01,2013-03-11 03:40:00,
2013-03-10 23:41:00,48.7,20.2,29.62,SSE,158,2.9,2.9,32,0.00,,,0.00,VWS V14.01,2013-03-11 03:41:00,
2013-03-10 23:42:00,48.7,20.2,29.62,South,180,2.7,2.7,32,0.00,,,0.00,VWS V14.01,2013-03-11 03:42:00,
2013-03-10 23:43:00,48.7,20.9,29.62,SSW,202,6.3,6.3,33,0.00,,,0.00,VWS V14.01,2013-03-11 03:43:00,
2013-03-10 23:44:00,48.7,20.9,29.62,SSE,158,4.9,4.9,33,0.00,,,0.00,VWS V14.01,2013-03-11 03:44:00,
2013-03-10 23:45:00,48.7,20.9,29.62,SSW,202,3.8,3.8,33,0.00,,,0.00,VWS V14.01,2013-03-11 03:45:00,
2013-03-10 23:46:00,48.7,20.9,29.62,SSW,202,6.3,6.3,33,0.00,,,0.00,VWS V14.01,2013-03-11 03:46:00,
2013-03-10 23:47:00,48.7,20.9,29.62,SSE,158,6.5,6.5,33,0.00,,,0.00,VWS V14.01,2013-03-11 03:47:00,
2013-03-10 23:48:00,48.6,20.8,29.62,South,180,10.3,10.3,33,0.00,,,0.00,VWS V14.01,2013-03-11 03:48:00,
2013-03-10 23:49:00,48.6,20.8,29.62,SSE,158,6.5,6.5,33,0.00,,,0.00,VWS V14.01,2013-03-11 03:49:00,
2013-03-10 23:50:00,48.6,20.8,29.62,SSW,202,3.8,3.8,33,0.00,,,0.00,VWS V14.01,2013-03-11 03:50:00,
2013-03-10 23:51:00,48.6,20.8,29.62,South,180,7.6,7.6,33,0.00,,,0.00,VWS V14.01,2013-03-11 03:51:00,
2013-03-10 23:52:00,48.6,20.8,29.62,South,180,4.9,4.9,33,0.00,,,0.00,VWS V14.01,2013-03-11 03:52:00,
2013-03-10 23:53:00,48.6,20.8,29.62,South,180,5.8,5.8,33,0.00,,,0.00,VWS V14.01,2013-03-11 03:53:00,
2013-03-10 23:54:00,48.6,20.8,29.62,SSE,158,4.3,4.3,33,0.00,,,0.00,VWS V14.01,2013-03-11 03:54:00,
2013-03-10 23:55:00,48.6,20.8,29.62,SSW,202,10.1,10.1,33,0.00,,,0.00,VWS V14.01,2013-03-11 03:55:00,
2013-03-10 23:56:00,48.6,21.5,29.62,South,180,10.1,10.1,34,0.00,,,0.00,VWS V14.01,2013-03-11 03:56:00,
2013-03-10 23:57:00,48.6,21.5,29.62,SSW,202,8.1,8.1,34,0.00,,,0.00,VWS V14.01,2013-03-11 03:57:00,
2013-03-10 23:58:00,48.6,21.5,29.62,SW,225,5.8,5.8,34,0.00,,,0.00,VWS V14.01,2013-03-11 03:58:00,
2013-03-10 23:59:00,48.6,21.5,29.62,SSW,202,10.7,10.7,34,0.00,,,0.00,VWS V14.01,2013-03-11 03:59:00,